Provisional Data: Hunts Run near Cameron, PA


Please select a monitoring station.
Please select start date.
Please select start date.

Toggle Unit: C/F Toggle Unit: C/F
Sample Time Temperature (C) Temperature (F) Specific Conductivity (mS/cm) pH   Turbidity (NTU+) DO (mg/L)
6/28/2021 11:15:00 AM -99999.99 -179968 -99999.99 -99999.99 -99999.99 -99999.99
6/28/2021 11:30:00 AM -99999.99 -179968 -99999.99 -99999.99 -99999.99 -99999.99
6/28/2021 11:45:00 AM -99999.99 -179968 -99999.99 -99999.99 -99999.99 -99999.99
6/28/2021 12:00:00 PM -99999.99 -179968 -99999.99 -99999.99 -99999.99 -99999.99
6/28/2021 12:15:00 PM -99999.99 -179968 -99999.99 -99999.99 -99999.99 -99999.99
6/28/2021 12:30:00 PM -99999.99 -179968 -99999.99 -99999.99 -99999.99 -99999.99
6/28/2021 12:45:00 PM 19.7 67.46 0.041 6.96 2.53 9.09
6/28/2021 1:00:00 PM 19.86 67.748 0.04 6.8 2.11 9.12
6/28/2021 1:15:00 PM 20.16 68.288 0.04 6.76 1.95 9.1
6/28/2021 1:30:00 PM 20.47 68.846 0.04 6.72 2.13 9.08
6/28/2021 1:45:00 PM 20.78 69.404 0.04 6.71 2.06 9.03
6/28/2021 2:00:00 PM 21.11 69.998 0.04 6.69 2.49 9.01
6/28/2021 2:15:00 PM 21.37 70.466 0.04 6.67 1.79 8.96
6/28/2021 2:30:00 PM 21.64 70.952 0.04 6.67 1.77 8.92
6/28/2021 2:45:00 PM 21.79 71.222 0.04 6.66 2.41 8.87
6/28/2021 3:00:00 PM 21.82 71.276 0.04 6.63 2 8.82
6/28/2021 3:15:00 PM 21.97 71.546 0.04 6.63 1.95 8.8
6/28/2021 3:30:00 PM 22.03 71.654 0.04 6.62 1.93 8.79
6/28/2021 3:45:00 PM 22.03 71.654 0.04 6.61 2.05 8.76
6/28/2021 4:00:00 PM 22 71.6 0.04 6.58 1.86 8.74
6/28/2021 4:15:00 PM 21.98 71.564 0.04 6.58 1.83 8.72
6/28/2021 4:30:00 PM 21.92 71.456 0.04 6.55 1.86 8.68
6/28/2021 4:45:00 PM 21.77 71.186 0.04 6.53 2.78 8.66
6/28/2021 5:00:00 PM 21.69 71.042 0.04 6.53 1.93 8.66
6/28/2021 5:15:00 PM 21.57 70.826 0.04 6.5 1.93 8.64
6/28/2021 5:30:00 PM 21.42 70.556 0.04 6.49 1.72 8.63
6/28/2021 5:45:00 PM 21.26 70.268 0.04 6.47 1.87 8.6
6/28/2021 6:00:00 PM 21.16 70.088 0.04 6.44 1.81 8.56
6/28/2021 6:15:00 PM 21.1 69.98 0.04 6.42 1.88 8.53
6/28/2021 6:30:00 PM 21.01 69.818 0.04 6.42 2.13 8.55
6/28/2021 6:45:00 PM 20.94 69.692 0.04 6.39 1.98 8.53
6/28/2021 7:00:00 PM 20.87 69.566 0.041 6.37 1.91 8.51
6/28/2021 7:15:00 PM 20.79 69.422 0.041 6.39 2.21 8.51
6/28/2021 7:30:00 PM 20.73 69.314 0.041 6.37 2.24 8.48
6/28/2021 7:45:00 PM 20.67 69.206 0.041 6.37 1.9 8.49
6/28/2021 8:00:00 PM 20.59 69.062 0.041 6.37 2.07 8.47
6/28/2021 8:15:00 PM 20.5 68.9 0.041 6.34 2.22 8.44
6/28/2021 8:30:00 PM 20.42 68.756 0.041 6.34 2.26 8.44
6/28/2021 8:45:00 PM 20.34 68.612 0.041 6.31 1.98 8.4
6/28/2021 9:00:00 PM 20.26 68.468 0.041 6.31 2.04 8.39
6/28/2021 9:15:00 PM 20.19 68.342 0.041 6.3 1.95 8.39
6/28/2021 9:30:00 PM 20.1 68.18 0.041 6.28 2.07 8.38
6/28/2021 9:45:00 PM 20.04 68.07201 0.041 6.29 2.1 8.38
6/28/2021 10:00:00 PM 19.98 67.964 0.042 6.27 2.09 8.39
6/28/2021 10:15:00 PM 19.92 67.856 0.041 6.28 2.2 8.4
6/28/2021 10:30:00 PM 19.86 67.748 0.042 6.26 2.19 8.38
6/28/2021 10:45:00 PM 19.81 67.658 0.042 6.27 1.96 8.4
6/28/2021 11:00:00 PM 19.75 67.55 0.042 6.27 2.4 8.41
6/28/2021 11:15:00 PM 19.69 67.442 0.042 6.27 2.24 8.43
6/28/2021 11:30:00 PM 19.64 67.352 0.042 6.27 1.94 8.43
6/28/2021 11:45:00 PM 19.58 67.244 0.042 6.28 2.02 8.45
6/29/2021 12:00:00 AM 19.52 67.136 0.042 6.28 2.27 8.46
6/29/2021 12:15:00 AM 19.47 67.046 0.042 6.29 2.01 8.48
6/29/2021 12:30:00 AM 19.41 66.938 0.042 6.29 1.98 8.49
6/29/2021 12:45:00 AM 19.36 66.848 0.042 6.28 2.02 8.5
6/29/2021 1:00:00 AM 19.32 66.776 0.042 6.3 1.96 8.52
6/29/2021 1:15:00 AM 19.28 66.704 0.042 6.29 2 8.52
6/29/2021 1:30:00 AM 19.22 66.596 0.042 6.29 2.12 8.53
6/29/2021 1:45:00 AM 19.17 66.506 0.042 6.29 2.26 8.55
6/29/2021 2:00:00 AM 19.11 66.398 0.042 6.29 1.98 8.56
6/29/2021 2:15:00 AM 19.07 66.326 0.042 6.3 2.06 8.57
6/29/2021 2:30:00 AM 19.02 66.236 0.042 6.3 2.34 8.58
6/29/2021 2:45:00 AM 18.96 66.128 0.042 6.29 1.91 8.59
6/29/2021 3:00:00 AM 18.91 66.038 0.042 6.29 2.06 8.58
6/29/2021 3:15:00 AM 18.86 65.948 0.042 6.3 1.99 8.61
6/29/2021 3:30:00 AM 18.81 65.858 0.042 6.28 2.08 8.61
6/29/2021 3:45:00 AM 18.77 65.786 0.042 6.29 2 8.62
6/29/2021 4:00:00 AM 18.73 65.714 0.042 6.3 2.31 8.64
6/29/2021 4:15:00 AM 18.69 65.642 0.042 6.28 2.38 8.63
6/29/2021 4:30:00 AM 18.66 65.588 0.042 6.3 2.23 8.65
6/29/2021 4:45:00 AM 18.62 65.516 0.042 6.29 2.86 8.65
6/29/2021 5:00:00 AM 18.59 65.462 0.042 6.3 2.86 8.67
6/29/2021 5:15:00 AM 18.56 65.408 0.042 6.3 2.23 8.68
6/29/2021 5:30:00 AM 18.53 65.354 0.042 6.31 1.96 8.69
6/29/2021 5:45:00 AM 18.5 65.3 0.042 6.31 1.89 8.69
6/29/2021 6:00:00 AM 18.47 65.246 0.042 6.29 2 8.69
6/29/2021 6:15:00 AM 18.44 65.192 0.042 6.31 1.96 8.72
6/29/2021 6:30:00 AM 18.43 65.174 0.042 6.32 2.05 8.76
6/29/2021 6:45:00 AM 18.41 65.138 0.042 6.32 2.05 8.78
6/29/2021 7:00:00 AM 18.4 65.12 0.041 6.34 2.13 8.84
6/29/2021 7:15:00 AM 18.4 65.12 0.041 6.36 2.08 8.88
6/29/2021 7:30:00 AM 18.41 65.138 0.041 6.35 2.5 8.92
6/29/2021 7:45:00 AM 18.41 65.138 0.041 6.36 2.01 8.95
6/29/2021 8:00:00 AM 18.43 65.174 0.041 6.38 1.97 8.99
6/29/2021 8:15:00 AM 18.45 65.21 0.041 6.4 1.92 9.05
6/29/2021 8:30:00 AM 18.48 65.264 0.041 6.41 2 9.07
6/29/2021 8:45:00 AM 18.5 65.3 0.041 6.42 2.02 9.07
6/29/2021 9:00:00 AM 18.53 65.354 0.041 6.4 2.76 9.06
6/29/2021 9:15:00 AM 18.56 65.408 0.041 6.41 2.03 9.04
6/29/2021 9:30:00 AM 18.61 65.498 0.041 6.41 2.02 9.03
6/29/2021 9:45:00 AM 18.68 65.624 0.041 6.42 2.44 9.03
6/29/2021 10:00:00 AM 18.78 65.804 0.041 6.42 1.96 9.05
6/29/2021 10:15:00 AM 18.91 66.038 0.041 6.43 2.06 9.05
6/29/2021 10:30:00 AM 19.04 66.272 0.041 6.46 2 9.06
6/29/2021 10:45:00 AM 19.17 66.506 0.041 6.47 2.76 9.05
6/29/2021 11:00:00 AM 19.28 66.704 0.041 6.47 1.85 9.02
6/29/2021 11:15:00 AM 19.43 66.974 0.041 6.48 1.89 9.02
6/29/2021 11:30:00 AM 19.57 67.226 0.041 6.48 1.86 9
6/29/2021 11:45:00 AM 19.8 67.64 0.041 6.49 2.02 8.99
6/29/2021 12:00:00 PM 20 68 0.041 6.52 1.95 8.98
6/29/2021 12:15:00 PM 20.29 68.522 0.041 6.53 1.77 8.99
6/29/2021 12:30:00 PM 20.55 68.99 0.041 6.55 1.98 8.99
6/29/2021 12:45:00 PM 20.71 69.278 0.04 6.55 2.08 8.97
6/29/2021 1:00:00 PM 20.78 69.404 0.04 6.55 1.92 8.96
6/29/2021 1:15:00 PM 20.99 69.782 0.04 6.55 1.94 8.95
6/29/2021 1:30:00 PM 21.36 70.448 0.04 6.55 1.78 8.93
6/29/2021 1:45:00 PM 21.74 71.132 0.04 6.57 1.75 8.92
6/29/2021 2:00:00 PM 22.04 71.672 0.04 6.59 1.96 8.89
6/29/2021 2:15:00 PM 22.15 71.87 0.04 6.57 1.77 8.84
6/29/2021 2:30:00 PM 22.38 72.284 0.04 6.56 1.8 8.81
6/29/2021 2:45:00 PM 22.64 72.752 0.04 6.56 1.8 8.78
6/29/2021 3:00:00 PM 22.8 73.04 0.04 6.58 2.05 8.73
6/29/2021 3:15:00 PM 22.9 73.22 0.04 6.57 1.85 8.68
6/29/2021 3:30:00 PM 22.93 73.274 0.04 6.56 1.92 8.63
6/29/2021 3:45:00 PM 22.85 73.13 0.04 6.54 1.99 8.57
6/29/2021 4:00:00 PM 22.77 72.986 0.04 6.51 1.84 8.52
6/29/2021 4:15:00 PM 22.73 72.914 0.04 6.5 1.77 8.51
6/29/2021 4:30:00 PM 22.67 72.806 0.04 6.48 2.08 8.49
6/29/2021 4:45:00 PM 22.6 72.68 0.041 6.47 1.86 8.47
6/29/2021 5:00:00 PM 22.52 72.536 0.041 6.45 1.94 8.47
6/29/2021 5:15:00 PM 22.42 72.356 0.041 6.43 1.88 8.45
6/29/2021 5:30:00 PM 22.21 71.978 0.041 6.41 1.88 8.42
6/29/2021 5:45:00 PM 22.07 71.726 0.041 6.39 1.85 8.39
6/29/2021 6:00:00 PM 21.96 71.528 0.041 6.38 1.85 8.38
6/29/2021 6:15:00 PM 21.86 71.348 0.041 6.37 1.9 8.36
6/29/2021 6:30:00 PM 21.77 71.186 0.041 6.35 1.82 8.33
6/29/2021 6:45:00 PM 21.67 71.006 0.041 6.35 1.94 8.34
6/29/2021 7:00:00 PM 21.62 70.916 0.041 6.33 1.96 8.32
6/29/2021 7:15:00 PM 21.52 70.736 0.041 6.33 2.03 8.32
6/29/2021 7:30:00 PM 21.46 70.628 0.041 6.31 1.99 8.31
6/29/2021 7:45:00 PM 21.37 70.466 0.041 6.32 3.34 8.31
6/29/2021 8:00:00 PM 21.26 70.268 0.042 6.3 1.91 8.3
6/29/2021 8:15:00 PM 21.18 70.124 0.042 6.31 1.96 8.3
6/29/2021 8:30:00 PM 21.1 69.98 0.042 6.28 1.87 8.25
6/29/2021 8:45:00 PM 21 69.8 0.042 6.28 1.94 8.24
6/29/2021 9:00:00 PM 20.91 69.638 0.042 6.26 2.1 8.22
6/29/2021 9:15:00 PM 20.82 69.476 0.042 6.26 2.14 8.22
6/29/2021 9:30:00 PM 20.74 69.332 0.042 6.23 2.13 8.2
6/29/2021 9:45:00 PM 20.69 69.242 0.042 6.24 2.15 8.23
6/29/2021 10:00:00 PM 20.63 69.134 0.042 6.23 2.09 8.22
6/29/2021 10:15:00 PM 20.58 69.044 0.042 6.24 2.27 8.23
6/29/2021 10:30:00 PM 20.54 68.972 0.042 6.24 2.09 8.24
6/29/2021 10:45:00 PM 20.5 68.9 0.042 6.25 2.09 8.25
6/29/2021 11:00:00 PM 20.45 68.81 0.042 6.26 1.86 8.26
6/29/2021 11:15:00 PM 20.4 68.72 0.042 6.27 2.08 8.28
6/29/2021 11:30:00 PM 20.34 68.612 0.042 6.27 1.85 8.28
6/29/2021 11:45:00 PM 20.27 68.486 0.042 6.29 2.02 8.31
6/30/2021 12:00:00 AM 20.2 68.36 0.042 6.29 2.03 8.31
6/30/2021 12:15:00 AM 20.13 68.234 0.042 6.28 1.95 8.32
6/30/2021 12:30:00 AM 20.06 68.108 0.042 6.28 2.41 8.33
6/30/2021 12:45:00 AM 19.98 67.964 0.042 6.28 1.98 8.34
6/30/2021 1:00:00 AM 19.91 67.838 0.042 6.27 4.61 8.34
6/30/2021 1:15:00 AM 19.85 67.73 0.042 6.28 3.13 8.37
6/30/2021 1:30:00 AM 19.79 67.622 0.042 6.29 2.18 8.39
6/30/2021 1:45:00 AM 19.72 67.496 0.042 6.28 1.86 8.4
6/30/2021 2:00:00 AM 19.65 67.37 0.042 6.28 2.01 8.4
6/30/2021 2:15:00 AM 19.58 67.244 0.042 6.27 2.18 8.41
6/30/2021 2:30:00 AM 19.52 67.136 0.042 6.27 2.22 8.43
6/30/2021 2:45:00 AM 19.46 67.028 0.042 6.28 2.27 8.43
6/30/2021 3:00:00 AM 19.38 66.884 0.042 6.28 2.23 8.46
6/30/2021 3:15:00 AM 19.33 66.794 0.042 6.29 2.01 8.48
6/30/2021 3:30:00 AM 19.26 66.668 0.042 6.29 2 8.49
6/30/2021 3:45:00 AM 19.2 66.56 0.042 6.28 2.02 8.48
6/30/2021 4:00:00 AM 19.14 66.452 0.042 6.27 2.07 8.49
6/30/2021 4:15:00 AM 19.09 66.362 0.042 6.28 2.41 8.5
6/30/2021 4:30:00 AM 19.03 66.254 0.042 6.29 2.34 8.54
6/30/2021 4:45:00 AM 18.98 66.164 0.042 6.27 2.06 8.51
6/30/2021 5:00:00 AM 18.93 66.074 0.042 6.29 2.14 8.52
6/30/2021 5:15:00 AM 18.89 66.002 0.042 6.28 2.43 8.55
6/30/2021 5:30:00 AM 18.86 65.948 0.042 6.28 2.15 8.56
6/30/2021 5:45:00 AM 18.83 65.894 0.042 6.28 2.08 8.56
6/30/2021 6:00:00 AM 18.79 65.82201 0.042 6.28 2.07 8.58
6/30/2021 6:15:00 AM 18.77 65.786 0.042 6.29 2.13 8.59
6/30/2021 6:30:00 AM 18.75 65.75 0.042 6.31 2.31 8.62
6/30/2021 6:45:00 AM 18.72 65.696 0.042 6.3 1.96 8.64
6/30/2021 7:00:00 AM 18.71 65.67799 0.042 6.32 2.05 8.69
6/30/2021 7:15:00 AM 18.71 65.67799 0.042 6.32 1.92 8.74
6/30/2021 7:30:00 AM 18.72 65.696 0.042 6.34 2 8.79
6/30/2021 7:45:00 AM 18.72 65.696 0.042 6.36 1.99 8.85
6/30/2021 8:00:00 AM 18.71 65.67799 0.042 6.36 1.94 8.86
6/30/2021 8:15:00 AM 18.73 65.714 0.042 6.37 2.16 8.88
6/30/2021 8:30:00 AM 18.77 65.786 0.042 6.38 2.81 8.92
6/30/2021 8:45:00 AM 18.82 65.876 0.041 6.38 2.05 8.95
6/30/2021 9:00:00 AM 18.84 65.912 0.041 6.4 2.54 8.94
6/30/2021 9:15:00 AM 18.85 65.93 0.041 6.39 2 8.94
6/30/2021 9:30:00 AM 18.87 65.966 0.041 6.39 2.19 8.91
6/30/2021 9:45:00 AM 18.92 66.056 0.041 6.39 2 8.89
6/30/2021 10:00:00 AM 19.01 66.218 0.041 6.39 2.07 8.88
6/30/2021 10:15:00 AM 19.14 66.452 0.041 6.41 2.49 8.9
6/30/2021 10:30:00 AM 19.24 66.632 0.041 6.4 1.99 8.89
6/30/2021 10:45:00 AM 19.36 66.848 0.041 6.41 2.03 8.9
6/30/2021 11:00:00 AM 19.49 67.082 0.041 6.42 2.02 8.88
6/30/2021 11:15:00 AM 19.62 67.316 0.041 6.43 2.18 8.88
6/30/2021 11:30:00 AM 19.81 67.658 0.041 6.44 2.05 8.88
6/30/2021 11:45:00 AM 20.04 68.07201 0.041 6.47 2.28 8.92
6/30/2021 12:00:00 PM 20.28 68.504 0.041 6.47 2.01 8.93
6/30/2021 12:15:00 PM 20.37 68.666 0.041 6.47 2.12 8.92
6/30/2021 12:30:00 PM 20.45 68.81 0.041 6.49 2.1 8.91
6/30/2021 12:45:00 PM 20.58 69.044 0.041 6.47 1.91 8.92
6/30/2021 1:00:00 PM 20.81 69.458 0.041 6.49 1.94 8.91
6/30/2021 1:15:00 PM 20.9 69.62 0.041 6.49 1.81 8.88
6/30/2021 1:30:00 PM 20.99 69.782 0.041 6.49 1.88 8.84
6/30/2021 1:45:00 PM 20.96 69.728 0.041 6.5 2.04 8.83
6/30/2021 2:00:00 PM 21.28 70.304 0.041 6.48 1.84 8.8
6/30/2021 2:15:00 PM 21.52 70.736 0.041 6.51 2.23 8.79
6/30/2021 2:30:00 PM 21.47 70.646 0.041 6.52 1.9 8.7
6/30/2021 2:45:00 PM 21.52 70.736 0.041 6.49 1.98 8.68
6/30/2021 3:00:00 PM 21.62 70.916 0.041 6.48 1.87 8.69
6/30/2021 3:15:00 PM 21.76 71.168 0.041 6.47 1.86 8.7
6/30/2021 3:30:00 PM 21.89 71.402 0.041 6.5 1.85 8.72
6/30/2021 3:45:00 PM 21.88 71.384 0.041 6.49 2.05 8.71
6/30/2021 4:00:00 PM 21.89 71.402 0.04 6.51 2.07 8.72
6/30/2021 4:15:00 PM 21.79 71.222 0.04 6.51 1.96 8.66
6/30/2021 4:30:00 PM 21.64 70.952 0.041 6.48 2.16 8.57
6/30/2021 4:45:00 PM 21.49 70.682 0.041 6.45 1.93 8.51
6/30/2021 5:00:00 PM 21.3 70.34 0.04 6.41 4.38 8.45
6/30/2021 5:15:00 PM 21.01 69.818 0.037 6.38 4.98 8.46
6/30/2021 5:30:00 PM 20.76 69.368 0.034 6.31 8.84 8.47
6/30/2021 5:45:00 PM 20.43 68.774 0.044 6.29 210.87 8.4
6/30/2021 6:00:00 PM 20.3 68.54 0.043 6.33 148.06 8.38
6/30/2021 6:15:00 PM 20.22 68.396 0.04 6.29 53.4 8.39
6/30/2021 6:30:00 PM 20.12 68.216 0.039 6.26 48.85 8.43
6/30/2021 6:45:00 PM 19.97 67.946 0.04 6.25 89.51 8.5
6/30/2021 7:00:00 PM 19.88 67.784 0.04 6.27 113.22 8.53
6/30/2021 7:15:00 PM 19.79 67.622 0.04 6.28 110.41 8.55
6/30/2021 7:30:00 PM 19.71 67.478 0.04 6.27 97.67 8.56
6/30/2021 7:45:00 PM 19.64 67.352 0.039 6.27 88.43 8.57
6/30/2021 8:00:00 PM 19.59 67.262 0.039 6.27 93.37 8.57
6/30/2021 8:15:00 PM 19.54 67.172 0.039 6.27 66.75 8.58
6/30/2021 8:30:00 PM 19.49 67.082 0.039 6.27 64.76 8.59
6/30/2021 8:45:00 PM 19.44 66.992 0.041 6.28 74.58 8.6
6/30/2021 9:00:00 PM 19.39 66.902 0.042 6.3 91.2 8.6
6/30/2021 9:15:00 PM 19.34 66.812 0.043 6.33 81.92 8.61
6/30/2021 9:30:00 PM 19.29 66.722 0.043 6.33 70.95 8.62
6/30/2021 9:45:00 PM 19.24 66.632 0.043 6.34 49.03 8.63
6/30/2021 10:00:00 PM 19.19 66.542 0.043 6.33 39.74 8.63
6/30/2021 10:15:00 PM 19.13 66.434 0.043 6.33 35.27 8.63
6/30/2021 10:30:00 PM 19.08 66.344 0.043 6.33 30.34 8.65
6/30/2021 10:45:00 PM 19.02 66.236 0.043 6.33 27.44 8.67
6/30/2021 11:00:00 PM 18.96 66.128 0.043 6.33 23.96 8.68
6/30/2021 11:15:00 PM 18.91 66.038 0.043 6.32 21.09 8.7
6/30/2021 11:30:00 PM 18.86 65.948 0.043 6.33 17.75 8.71
6/30/2021 11:45:00 PM 18.81 65.858 0.042 6.32 16.13 8.72
7/1/2021 12:00:00 AM 18.76 65.768 0.042 6.32 12.97 8.75
7/1/2021 12:15:00 AM 18.72 65.696 0.042 6.32 12.71 8.75
7/1/2021 12:30:00 AM 18.67 65.606 0.042 6.31 11.33 8.77
7/1/2021 12:45:00 AM 18.63 65.534 0.042 6.32 10.24 8.76
7/1/2021 1:00:00 AM 18.59 65.462 0.042 6.32 9.49 8.78
7/1/2021 1:15:00 AM 18.55 65.39 0.042 6.31 9.09 8.79
7/1/2021 1:30:00 AM 18.51 65.318 0.042 6.31 8.47 8.81
7/1/2021 1:45:00 AM 18.47 65.246 0.042 6.3 9.2 8.8
7/1/2021 2:00:00 AM 18.44 65.192 0.042 6.31 8.49 8.83
7/1/2021 2:15:00 AM 18.41 65.138 0.042 6.3 8.22 8.82
7/1/2021 2:30:00 AM 18.38 65.084 0.042 6.3 8.2 8.83
7/1/2021 2:45:00 AM 18.36 65.048 0.042 6.3 7.66 8.83
7/1/2021 3:00:00 AM 18.33 64.994 0.042 6.28 8.35 8.81
7/1/2021 3:15:00 AM 18.3 64.94 0.042 6.29 7.56 8.82
7/1/2021 3:30:00 AM 18.27 64.886 0.042 6.29 7.38 8.83
7/1/2021 3:45:00 AM 18.25 64.85 0.042 6.3 7.39 8.84
7/1/2021 4:00:00 AM 18.23 64.814 0.042 6.3 7.13 8.85
7/1/2021 4:15:00 AM 18.2 64.76 0.042 6.29 7.83 8.85
7/1/2021 4:30:00 AM 18.16 64.688 0.042 6.3 7.83 8.86
7/1/2021 4:45:00 AM 18.14 64.652 0.042 6.29 7.1 8.86
7/1/2021 5:00:00 AM 18.11 64.598 0.042 6.3 7.48 8.87
7/1/2021 5:15:00 AM 18.09 64.562 0.042 6.3 8.11 8.88
7/1/2021 5:30:00 AM 18.06 64.508 0.042 6.31 9.33 8.9
7/1/2021 5:45:00 AM 18.03 64.454 0.042 6.33 8.73 8.9
7/1/2021 6:00:00 AM 18.01 64.418 0.042 6.32 9.18 8.92
7/1/2021 6:15:00 AM 17.98 64.364 0.042 6.32 9.1 8.93
7/1/2021 6:30:00 AM 17.96 64.328 0.042 6.33 8.03 8.95
7/1/2021 6:45:00 AM 17.94 64.292 0.041 6.33 9.31 8.96
7/1/2021 7:00:00 AM 17.92 64.256 0.041 6.33 8.48 8.97
7/1/2021 7:15:00 AM 17.9 64.22 0.041 6.33 9.04 9
7/1/2021 7:30:00 AM 17.88 64.184 0.041 6.33 8.75 9
7/1/2021 7:45:00 AM 17.86 64.148 0.041 6.32 9.22 9.02
7/1/2021 8:00:00 AM 17.84 64.112 0.042 6.33 8.73 9.03
7/1/2021 8:15:00 AM 17.81 64.058 0.042 6.34 8.97 9.05
7/1/2021 8:30:00 AM 17.79 64.022 0.042 6.34 8.69 9.06
7/1/2021 8:45:00 AM 17.77 63.986 0.042 6.34 7.62 9.06
7/1/2021 9:00:00 AM 17.75 63.95 0.042 6.34 7.92 9.08
7/1/2021 9:15:00 AM 17.74 63.932 0.042 6.34 7.96 9.1
7/1/2021 9:30:00 AM 17.73 63.914 0.042 6.35 7.38 9.13
7/1/2021 9:45:00 AM 17.74 63.932 0.042 6.36 6.76 9.16
7/1/2021 10:00:00 AM 17.75 63.95 0.042 6.38 6.76 9.2
7/1/2021 10:15:00 AM 17.74 63.932 0.042 6.4 6.43 9.19
7/1/2021 10:30:00 AM 17.74 63.932 0.042 6.4 5.72 9.19
7/1/2021 10:45:00 AM 17.75 63.95 0.042 6.42 5.5 9.21
7/1/2021 11:00:00 AM 17.78 64.004 0.041 6.43 5.87 9.24
7/1/2021 11:15:00 AM 17.82 64.076 0.041 6.43 5.71 9.27
7/1/2021 11:30:00 AM 17.83 64.094 0.041 6.44 5.2 9.24
7/1/2021 11:45:00 AM 17.82 64.076 0.041 6.45 5.28 9.21
7/1/2021 12:00:00 PM 17.83 64.094 0.041 6.45 5.32 9.21
7/1/2021 12:15:00 PM 17.84 64.112 0.041 6.45 5.35 9.22
7/1/2021 12:30:00 PM 17.85 64.13 0.041 6.46 5.29 9.22
7/1/2021 12:45:00 PM 17.86 64.148 0.041 6.46 4.85 9.22
7/1/2021 1:00:00 PM 17.87 64.166 0.041 6.47 4.92 9.23
7/1/2021 1:15:00 PM 17.89 64.202 0.041 6.47 4.69 9.23
7/1/2021 1:30:00 PM 17.9 64.22 0.041 6.49 5.18 9.25
7/1/2021 1:45:00 PM 17.93 64.274 0.041 6.51 5.18 9.27
7/1/2021 2:00:00 PM 17.95 64.31 0.041 6.51 5.12 9.27
7/1/2021 2:15:00 PM 17.97 64.346 0.041 6.5 5.48 9.26
7/1/2021 2:30:00 PM 17.98 64.364 0.041 6.51 5.75 9.27
7/1/2021 2:45:00 PM 18.01 64.418 0.041 6.51 4.98 9.26
7/1/2021 3:00:00 PM 18.03 64.454 0.041 6.51 5.11 9.26
7/1/2021 3:15:00 PM 18.07 64.526 0.041 6.51 4.92 9.27
7/1/2021 3:30:00 PM 18.09 64.562 0.041 6.51 4.83 9.25
7/1/2021 3:45:00 PM 18.09 64.562 0.041 6.5 5.14 9.23
7/1/2021 4:00:00 PM 18.1 64.58 0.041 6.49 4.85 9.2
7/1/2021 4:15:00 PM 18.12 64.616 0.041 6.48 4.79 9.2
7/1/2021 4:30:00 PM 18.15 64.67 0.04 6.49 4.76 9.21
7/1/2021 4:45:00 PM 18.18 64.724 0.04 6.49 4.74 9.21
7/1/2021 5:00:00 PM 18.21 64.778 0.04 6.49 4.67 9.21
7/1/2021 5:15:00 PM 18.21 64.778 0.04 6.49 4.26 9.2
7/1/2021 5:30:00 PM 18.21 64.778 0.04 6.48 4.12 9.17
7/1/2021 5:45:00 PM 18.17 64.706 0.04 6.46 4.35 9.13
7/1/2021 6:00:00 PM 18.14 64.652 0.04 6.43 4.49 9.07
7/1/2021 6:15:00 PM 18.1 64.58 0.04 6.43 4.24 9.05
7/1/2021 6:30:00 PM 18.07 64.526 0.04 6.42 4.01 9.03
7/1/2021 6:45:00 PM 18.04 64.472 0.04 6.4 3.91 9.03
7/1/2021 7:00:00 PM 18.02 64.436 0.04 6.39 3.95 9.02
7/1/2021 7:15:00 PM 17.99 64.382 0.04 6.38 3.73 9.02
7/1/2021 7:30:00 PM 17.97 64.346 0.04 6.37 4.29 9.01
7/1/2021 7:45:00 PM 17.94 64.292 0.04 6.35 3.8 9
7/1/2021 8:00:00 PM 17.91 64.238 0.04 6.35 3.85 9.01
7/1/2021 8:15:00 PM 17.89 64.202 0.04 6.34 4.32 9.01
7/1/2021 8:30:00 PM 17.86 64.148 0.04 6.33 5.14 9.01
7/1/2021 8:45:00 PM 17.83 64.094 0.04 6.33 4.13 9.01
7/1/2021 9:00:00 PM 17.8 64.04 0.04 6.33 3.89 9
7/1/2021 9:15:00 PM 17.77 63.986 0.04 6.31 3.9 8.98
7/1/2021 9:30:00 PM 17.74 63.932 0.04 6.32 4.47 8.98
7/1/2021 9:45:00 PM 17.71 63.878 0.04 6.32 4.42 8.99
7/1/2021 10:00:00 PM 17.68 63.824 0.04 6.31 4.41 8.99
7/1/2021 10:15:00 PM 17.66 63.788 0.04 6.31 4.52 8.99
7/1/2021 10:30:00 PM 17.64 63.752 0.04 6.32 4.68 9
7/1/2021 10:45:00 PM 17.62 63.716 0.04 6.31 3.99 8.99
7/1/2021 11:00:00 PM 17.6 63.68 0.04 6.31 4.07 8.99
7/1/2021 11:15:00 PM 17.57 63.626 0.041 6.32 3.98 8.99
7/1/2021 11:30:00 PM 17.54 63.572 0.04 6.32 4.04 9.01
7/1/2021 11:45:00 PM 17.51 63.518 0.04 6.32 4.09 9.02
7/2/2021 12:00:00 AM 17.48 63.464 0.041 6.31 3.85 9.01
7/2/2021 12:15:00 AM 17.45 63.41 0.041 6.31 3.81 9.02
7/2/2021 12:30:00 AM 17.43 63.374 0.041 6.33 3.79 9.04
7/2/2021 12:45:00 AM 17.4 63.32 0.041 6.32 4.35 9.03
7/2/2021 1:00:00 AM 17.38 63.284 0.041 6.31 3.6 9.03
7/2/2021 1:15:00 AM 17.35 63.23 0.041 6.31 3.8 9.03
7/2/2021 1:30:00 AM 17.32 63.176 0.041 6.32 3.7 9.05
7/2/2021 1:45:00 AM 17.28 63.104 0.041 6.32 3.81 9.06
7/2/2021 2:00:00 AM 17.24 63.032 0.041 6.31 4.27 9.04
7/2/2021 2:15:00 AM 17.21 62.978 0.041 6.31 3.3 9.06
7/2/2021 2:30:00 AM 17.17 62.906 0.041 6.31 3.64 9.06
7/2/2021 2:45:00 AM 17.14 62.852 0.041 6.31 4.27 9.07
7/2/2021 3:00:00 AM 17.1 62.78 0.041 6.31 3.64 9.08
7/2/2021 3:15:00 AM 17.06 62.708 0.041 6.31 3.6 9.08
7/2/2021 3:30:00 AM 17.02 62.636 0.041 6.3 3.74 9.07
7/2/2021 3:45:00 AM 16.98 62.564 0.041 6.31 3.77 9.09
7/2/2021 4:00:00 AM 16.94 62.492 0.041 6.31 4.07 9.09
7/2/2021 4:15:00 AM 16.9 62.42 0.041 6.31 3.37 9.09
7/2/2021 4:30:00 AM 16.87 62.366 0.041 6.33 3.75 9.12
7/2/2021 4:45:00 AM 16.83 62.294 0.041 6.32 3.73 9.13
7/2/2021 5:00:00 AM 16.81 62.258 0.041 6.32 3.99 9.12
7/2/2021 5:15:00 AM 16.78 62.204 0.041 6.32 3.39 9.13
7/2/2021 5:30:00 AM 16.76 62.168 0.041 6.33 3.16 9.13
7/2/2021 5:45:00 AM 16.74 62.132 0.041 6.33 3.31 9.15
7/2/2021 6:00:00 AM 16.72 62.096 0.041 6.33 4.37 9.15
7/2/2021 6:15:00 AM 16.69 62.042 0.041 6.34 3.58 9.17
7/2/2021 6:30:00 AM 16.67 62.006 0.041 6.33 3.5 9.16
7/2/2021 6:45:00 AM 16.65 61.97 0.041 6.34 3.6 9.17
7/2/2021 7:00:00 AM 16.64 61.952 0.041 6.34 3.31 9.2
7/2/2021 7:15:00 AM 16.63 61.934 0.041 6.35 3.07 9.23
7/2/2021 7:30:00 AM 16.64 61.952 0.041 6.37 3.12 9.29
7/2/2021 7:45:00 AM 16.63 61.934 0.041 6.36 3.49 9.28
7/2/2021 8:00:00 AM 16.63 61.934 0.041 6.37 2.99 9.29
7/2/2021 8:15:00 AM 16.63 61.934 0.041 6.38 3.15 9.33
7/2/2021 8:30:00 AM 16.63 61.934 0.041 6.39 3.17 9.33
7/2/2021 8:45:00 AM 16.62 61.916 0.041 6.38 3.11 9.33
7/2/2021 9:00:00 AM 16.63 61.934 0.041 6.39 3.06 9.34
7/2/2021 9:15:00 AM 16.62 61.916 0.041 6.39 2.92 9.36
7/2/2021 9:30:00 AM 16.64 61.952 0.041 6.39 3.36 9.38
7/2/2021 9:45:00 AM 16.65 61.97 0.041 6.38 3.11 9.39
7/2/2021 10:00:00 AM 16.65 61.97 0.041 6.39 3.17 9.39
7/2/2021 10:15:00 AM 16.63 61.934 0.041 6.39 2.85 9.37
7/2/2021 10:30:00 AM 16.62 61.916 0.041 6.39 3.22 9.34
7/2/2021 10:45:00 AM 16.61 61.898 0.041 6.39 3.75 9.37
7/2/2021 11:00:00 AM 16.7 62.06 0.041 6.42 3.16 9.45
7/2/2021 11:15:00 AM 16.77 62.186 0.041 6.44 3.45 9.5
7/2/2021 11:30:00 AM 16.79 62.222 0.041 6.44 3.07 9.5
7/2/2021 11:45:00 AM 16.86 62.348 0.041 6.46 3.14 9.52
7/2/2021 12:00:00 PM 16.93 62.474 0.041 6.45 2.88 9.52
7/2/2021 12:15:00 PM 17 62.6 0.041 6.46 2.79 9.51
7/2/2021 12:30:00 PM 17.2 62.96 0.041 6.47 3.03 9.5
7/2/2021 12:45:00 PM 17.47 63.446 0.041 6.49 3.1 9.49
7/2/2021 1:00:00 PM 17.66 63.788 0.041 6.51 2.71 9.45
7/2/2021 1:15:00 PM 17.82 64.076 0.041 6.53 2.88 9.44
7/2/2021 1:30:00 PM 17.96 64.328 0.041 6.52 2.77 9.41
7/2/2021 1:45:00 PM 18.15 64.67 0.041 6.53 2.86 9.38
7/2/2021 2:00:00 PM 18.04 64.472 0.041 6.5 3.13 9.34
7/2/2021 2:15:00 PM 17.89 64.202 0.041 6.5 3.05 9.27
7/2/2021 2:30:00 PM 17.83 64.094 0.041 6.48 3.32 9.25
7/2/2021 2:45:00 PM 17.98 64.364 0.041 6.48 3.14 9.3
7/2/2021 3:00:00 PM 18.04 64.472 0.041 6.48 2.96 9.35
7/2/2021 3:15:00 PM 17.98 64.364 0.041 6.49 2.99 9.37
7/2/2021 3:30:00 PM 17.96 64.328 0.041 6.48 2.77 9.37
7/2/2021 3:45:00 PM 17.89 64.202 0.041 6.49 3.13 9.36
7/2/2021 4:00:00 PM 17.82 64.076 0.041 6.46 3.68 9.32
7/2/2021 4:15:00 PM 17.74 63.932 0.041 6.45 2.74 9.31
7/2/2021 4:30:00 PM 17.66 63.788 0.041 6.45 2.93 9.31
7/2/2021 4:45:00 PM 17.58 63.644 0.041 6.46 3.42 9.3
7/2/2021 5:00:00 PM 17.52 63.536 0.041 6.44 3.07 9.29
7/2/2021 5:15:00 PM 17.47 63.446 0.042 6.42 3.16 9.27
7/2/2021 5:30:00 PM 17.44 63.392 0.041 6.43 2.85 9.3
7/2/2021 5:45:00 PM 17.43 63.374 0.041 6.43 3.01 9.31
7/2/2021 6:00:00 PM 17.39 63.302 0.042 6.43 3.05 9.28
7/2/2021 6:15:00 PM 17.36 63.248 0.042 6.43 2.98 9.28
7/2/2021 6:30:00 PM 17.31 63.158 0.042 6.42 3.15 9.27
7/2/2021 6:45:00 PM 17.26 63.068 0.042 6.43 3.02 9.28
7/2/2021 7:00:00 PM 17.21 62.978 0.042 6.42 2.87 9.25
7/2/2021 7:15:00 PM 17.15 62.87 0.042 6.4 2.99 9.21
7/2/2021 7:30:00 PM 17.09 62.762 0.042 6.38 3.31 9.17
7/2/2021 7:45:00 PM 17.03 62.654 0.042 6.37 2.88 9.16
7/2/2021 8:00:00 PM 16.96 62.528 0.042 6.37 2.91 9.19
7/2/2021 8:15:00 PM 16.9 62.42 0.042 6.36 3.05 9.17
7/2/2021 8:30:00 PM 16.82 62.276 0.042 6.34 3.03 9.16
7/2/2021 8:45:00 PM 16.75 62.15 0.042 6.33 2.75 9.15
7/2/2021 9:00:00 PM 16.68 62.024 0.042 6.35 2.94 9.17
7/2/2021 9:15:00 PM 16.63 61.934 0.043 6.3 2.81 9.12
7/2/2021 9:30:00 PM 16.57 61.826 0.042 6.32 3.2 9.17
7/2/2021 9:45:00 PM 16.53 61.754 0.042 6.33 2.67 9.17
7/2/2021 10:00:00 PM 16.48 61.664 0.042 6.33 2.78 9.19
7/2/2021 10:15:00 PM 16.43 61.574 0.043 6.31 2.99 9.16
7/2/2021 10:30:00 PM 16.38 61.484 0.043 6.32 2.78 9.18
7/2/2021 10:45:00 PM 16.31 61.358 0.043 6.28 2.77 9.15
7/2/2021 11:00:00 PM 16.26 61.268 0.043 6.3 2.74 9.2
7/2/2021 11:15:00 PM 16.21 61.178 0.043 6.31 2.92 9.22
7/2/2021 11:30:00 PM 16.17 61.106 0.043 6.32 2.75 9.24
7/2/2021 11:45:00 PM 16.11 60.998 0.043 6.32 2.8 9.25
7/3/2021 12:00:00 AM 16.05 60.89 0.042 6.31 2.77 9.26
7/3/2021 12:15:00 AM 15.99 60.782 0.043 6.31 2.62 9.26
7/3/2021 12:30:00 AM 15.95 60.71 0.043 6.32 2.65 9.28
7/3/2021 12:45:00 AM 15.89 60.602 0.043 6.31 2.77 9.3
7/3/2021 1:00:00 AM 15.84 60.512 0.043 6.3 2.83 9.29
7/3/2021 1:15:00 AM 15.8 60.44 0.043 6.29 3.02 9.3
7/3/2021 1:30:00 AM 15.75 60.35 0.043 6.31 2.85 9.32
7/3/2021 1:45:00 AM 15.71 60.278 0.043 6.29 2.72 9.31
7/3/2021 2:00:00 AM 15.67 60.206 0.043 6.29 2.74 9.33
7/3/2021 2:15:00 AM 15.63 60.134 0.043 6.29 2.67 9.34
7/3/2021 2:30:00 AM 15.6 60.08 0.043 6.31 2.72 9.36
7/3/2021 2:45:00 AM 15.57 60.026 0.043 6.31 2.77 9.36
7/3/2021 3:00:00 AM 15.53 59.954 0.043 6.3 3.05 9.36
7/3/2021 3:15:00 AM 15.5 59.9 0.043 6.3 2.81 9.38
7/3/2021 3:30:00 AM 15.47 59.846 0.043 6.3 2.57 9.37
7/3/2021 3:45:00 AM 15.45 59.81 0.043 6.29 2.61 9.37
7/3/2021 4:00:00 AM 15.42 59.756 0.043 6.3 2.98 9.38
7/3/2021 4:15:00 AM 15.4 59.72 0.043 6.28 2.74 9.39
7/3/2021 4:30:00 AM 15.37 59.666 0.043 6.3 2.59 9.41
7/3/2021 4:45:00 AM 15.34 59.612 0.043 6.3 2.85 9.41
7/3/2021 5:00:00 AM 15.31 59.558 0.043 6.29 3.03 9.41
7/3/2021 5:15:00 AM 15.29 59.522 0.043 6.29 2.64 9.41
7/3/2021 5:30:00 AM 15.27 59.486 0.043 6.28 2.65 9.41
7/3/2021 5:45:00 AM 15.25 59.45 0.043 6.3 2.59 9.43
7/3/2021 6:00:00 AM 15.24 59.432 0.043 6.29 2.78 9.44
7/3/2021 6:15:00 AM 15.23 59.414 0.043 6.3 2.58 9.44
7/3/2021 6:30:00 AM 15.22 59.396 0.043 6.3 2.82 9.45
7/3/2021 6:45:00 AM 15.21 59.378 0.043 6.29 2.64 9.48
7/3/2021 7:00:00 AM 15.21 59.378 0.043 6.31 2.65 9.5
7/3/2021 7:15:00 AM 15.2 59.36 0.043 6.3 2.45 9.49
7/3/2021 7:30:00 AM 15.21 59.378 0.043 6.31 2.55 9.52
7/3/2021 7:45:00 AM 15.22 59.396 0.043 6.33 2.83 9.58
7/3/2021 8:00:00 AM 15.23 59.414 0.043 6.33 2.81 9.58
7/3/2021 8:15:00 AM 15.26 59.468 0.043 6.34 2.59 9.61
7/3/2021 8:30:00 AM 15.3 59.54 0.042 6.35 2.71 9.68
7/3/2021 8:45:00 AM 15.33 59.594 0.042 6.36 2.81 9.69
7/3/2021 9:00:00 AM 15.36 59.648 0.042 6.38 2.49 9.71
7/3/2021 9:15:00 AM 15.4 59.72 0.042 6.37 2.49 9.72
7/3/2021 9:30:00 AM 15.44 59.792 0.042 6.39 2.41 9.72
7/3/2021 9:45:00 AM 15.49 59.882 0.042 6.4 2.54 9.73
7/3/2021 10:00:00 AM 15.54 59.972 0.042 6.39 2.61 9.74
7/3/2021 10:15:00 AM 15.62 60.116 0.042 6.42 2.81 9.78
7/3/2021 10:30:00 AM 15.66 60.188 0.042 6.44 2.47 9.77
7/3/2021 10:45:00 AM 15.69 60.242 0.042 6.44 2.4 9.75
7/3/2021 11:00:00 AM 15.71 60.278 0.042 6.45 2.48 9.72
7/3/2021 11:15:00 AM 15.76 60.368 0.042 6.44 2.77 9.7
7/3/2021 11:30:00 AM 15.88 60.584 0.042 6.45 2.55 9.75
7/3/2021 11:45:00 AM 16.05 60.89 0.042 6.48 2.5 9.77
7/3/2021 12:00:00 PM 16.21 61.178 0.042 6.5 2.41 9.77
7/3/2021 12:15:00 PM 16.41 61.538 0.042 6.5 4.41 9.75
7/3/2021 12:30:00 PM 16.49 61.682 0.042 6.51 2.86 9.72
7/3/2021 12:45:00 PM 16.58 61.844 0.042 6.51 2.63 9.7
7/3/2021 1:00:00 PM 16.72 62.096 0.042 6.52 2.44 9.69
7/3/2021 1:15:00 PM 16.79 62.222 0.042 6.51 2.5 9.67
7/3/2021 1:30:00 PM 16.76 62.168 0.042 6.51 2.35 9.63
7/3/2021 1:45:00 PM 16.8 62.24 0.042 6.51 2.42 9.64
7/3/2021 2:00:00 PM 16.81 62.258 0.042 6.51 2.63 9.6
7/3/2021 2:15:00 PM 16.79 62.222 0.042 6.48 2.53 9.56
7/3/2021 2:30:00 PM 16.97 62.546 0.042 6.5 3.11 9.6
7/3/2021 2:45:00 PM 17.17 62.906 0.042 6.53 2.45 9.61
7/3/2021 3:00:00 PM 17.22 62.996 0.042 6.51 2.49 9.54
7/3/2021 3:15:00 PM 17.23 63.014 0.042 6.51 2.72 9.51
7/3/2021 3:30:00 PM 17.23 63.014 0.042 6.5 2.45 9.48
7/3/2021 3:45:00 PM 17.32 63.176 0.042 6.5 2.83 9.5
7/3/2021 4:00:00 PM 17.47 63.446 0.042 6.52 2.56 9.5
7/3/2021 4:15:00 PM 17.55 63.59 0.042 6.51 2.68 9.48
7/3/2021 4:30:00 PM 17.58 63.644 0.042 6.51 2.37 9.44
7/3/2021 4:45:00 PM 17.53 63.554 0.042 6.5 2.6 9.41
7/3/2021 5:00:00 PM 17.46 63.428 0.042 6.48 3.13 9.39
7/3/2021 5:15:00 PM 17.4 63.32 0.042 6.47 3.77 9.39
7/3/2021 5:30:00 PM 17.34 63.212 0.042 6.46 2.51 9.34
7/3/2021 5:45:00 PM 17.3 63.14 0.042 6.45 2.54 9.34
7/3/2021 6:00:00 PM 17.31 63.158 0.042 6.45 2.46 9.34
7/3/2021 6:15:00 PM 17.3 63.14 0.042 6.43 2.66 9.32
7/3/2021 6:30:00 PM 17.25 63.05 0.042 6.41 2.54 9.26
7/3/2021 6:45:00 PM 17.21 62.978 0.042 6.4 2.48 9.22
7/3/2021 7:00:00 PM 17.2 62.96 0.043 6.38 2.39 9.22
7/3/2021 7:15:00 PM 17.18 62.924 0.043 6.38 2.63 9.22
7/3/2021 7:30:00 PM 17.15 62.87 0.043 6.37 2.47 9.18
7/3/2021 7:45:00 PM 17.13 62.834 0.043 6.37 2.43 9.16
7/3/2021 8:00:00 PM 17.1 62.78 0.043 6.35 2.44 9.12
7/3/2021 8:15:00 PM 17.07 62.726 0.043 6.34 2.69 9.11
7/3/2021 8:30:00 PM 17.03 62.654 0.043 6.34 2.47 9.11
7/3/2021 8:45:00 PM 17 62.6 0.043 6.33 2.67 9.1
7/3/2021 9:00:00 PM 16.97 62.546 0.043 6.32 2.6 9.08
7/3/2021 9:15:00 PM 16.92 62.456 0.043 6.32 2.9 9.09
7/3/2021 9:30:00 PM 16.89 62.402 0.043 6.32 2.69 9.09
7/3/2021 9:45:00 PM 16.85 62.33 0.043 6.32 2.69 9.1
7/3/2021 10:00:00 PM 16.81 62.258 0.043 6.31 2.5 9.09
7/3/2021 10:15:00 PM 16.78 62.204 0.043 6.31 2.54 9.1
7/3/2021 10:30:00 PM 16.74 62.132 0.043 6.31 2.67 9.13
7/3/2021 10:45:00 PM 16.71 62.078 0.043 6.31 2.7 9.14
7/3/2021 11:00:00 PM 16.67 62.006 0.043 6.31 2.61 9.14
7/3/2021 11:15:00 PM 16.62 61.916 0.043 6.31 2.42 9.15
7/3/2021 11:30:00 PM 16.57 61.826 0.043 6.31 2.5 9.17
7/3/2021 11:45:00 PM 16.52 61.736 0.043 6.31 2.69 9.17
7/4/2021 12:00:00 AM 16.47 61.646 0.043 6.3 2.98 9.17
7/4/2021 12:15:00 AM 16.44 61.592 0.043 6.31 2.75 9.21
7/4/2021 12:30:00 AM 16.41 61.538 0.043 6.32 2.85 9.21
7/4/2021 12:45:00 AM 16.37 61.466 0.043 6.31 2.63 9.2
7/4/2021 1:00:00 AM 16.34 61.412 0.043 6.32 2.61 9.22
7/4/2021 1:15:00 AM 16.31 61.358 0.043 6.31 2.65 9.23
7/4/2021 1:30:00 AM 16.28 61.304 0.043 6.31 2.49 9.24
7/4/2021 1:45:00 AM 16.24 61.232 0.043 6.31 3.08 9.24
7/4/2021 2:00:00 AM 16.2 61.16 0.043 6.31 2.78 9.26
7/4/2021 2:15:00 AM 16.16 61.088 0.043 6.31 2.4 9.25
7/4/2021 2:30:00 AM 16.12 61.016 0.042 6.31 2.75 9.27
7/4/2021 2:45:00 AM 16.1 60.98 0.042 6.31 2.74 9.28
7/4/2021 3:00:00 AM 16.07 60.926 0.042 6.31 2.65 9.28
7/4/2021 3:15:00 AM 16.04 60.872 0.042 6.31 2.9 9.29
7/4/2021 3:30:00 AM 16.01 60.818 0.042 6.31 2.91 9.3
7/4/2021 3:45:00 AM 15.98 60.764 0.042 6.31 2.79 9.3
7/4/2021 4:00:00 AM 15.95 60.71 0.042 6.31 2.69 9.3
7/4/2021 4:15:00 AM 15.92 60.656 0.042 6.31 2.67 9.3
7/4/2021 4:30:00 AM 15.89 60.602 0.042 6.3 2.81 9.31
7/4/2021 4:45:00 AM 15.85 60.53 0.042 6.3 2.49 9.31
7/4/2021 5:00:00 AM 15.81 60.458 0.042 6.31 2.53 9.32
7/4/2021 5:15:00 AM 15.77 60.386 0.042 6.3 2.5 9.33
7/4/2021 5:30:00 AM 15.74 60.332 0.042 6.3 2.48 9.32
7/4/2021 5:45:00 AM 15.71 60.278 0.042 6.31 2.47 9.35
7/4/2021 6:00:00 AM 15.67 60.206 0.042 6.3 2.58 9.36
7/4/2021 6:15:00 AM 15.65 60.17 0.042 6.31 2.48 9.38
7/4/2021 6:30:00 AM 15.62 60.116 0.042 6.31 2.57 9.4
7/4/2021 6:45:00 AM 15.59 60.062 0.042 6.31 2.47 9.41
7/4/2021 7:00:00 AM 15.56 60.008 0.042 6.31 2.51 9.43
7/4/2021 7:15:00 AM 15.54 59.972 0.042 6.32 2.48 9.47
7/4/2021 7:30:00 AM 15.53 59.954 0.042 6.32 2.44 9.51
7/4/2021 7:45:00 AM 15.53 59.954 0.042 6.34 2.52 9.55
7/4/2021 8:00:00 AM 15.52 59.936 0.042 6.34 2.53 9.59
7/4/2021 8:15:00 AM 15.5 59.9 0.042 6.36 2.6 9.62
7/4/2021 8:30:00 AM 15.47 59.846 0.042 6.36 2.78 9.63
7/4/2021 8:45:00 AM 15.49 59.882 0.042 6.36 2.96 9.64
7/4/2021 9:00:00 AM 15.51 59.918 0.042 6.37 2.53 9.63
7/4/2021 9:15:00 AM 15.53 59.954 0.042 6.37 2.53 9.64
7/4/2021 9:30:00 AM 15.57 60.026 0.042 6.38 2.38 9.64
7/4/2021 9:45:00 AM 15.64 60.152 0.042 6.39 2.61 9.65
7/4/2021 10:00:00 AM 15.73 60.314 0.042 6.4 2.31 9.65
7/4/2021 10:15:00 AM 15.86 60.548 0.042 6.41 2.63 9.66
7/4/2021 10:30:00 AM 15.97 60.746 0.042 6.42 2.51 9.65
7/4/2021 10:45:00 AM 16.08 60.944 0.042 6.43 2.45 9.64
7/4/2021 11:00:00 AM 16.2 61.16 0.042 6.43 2.36 9.64
7/4/2021 11:15:00 AM 16.3 61.34 0.042 6.43 2.4 9.6
7/4/2021 11:30:00 AM 16.44 61.592 0.042 6.44 2.47 9.6
7/4/2021 11:45:00 AM 16.6 61.88 0.041 6.46 2.33 9.59
7/4/2021 12:00:00 PM 16.78 62.204 0.041 6.47 2.48 9.58
7/4/2021 12:15:00 PM 16.96 62.528 0.041 6.48 2.43 9.55
7/4/2021 12:30:00 PM 17.19 62.942 0.041 6.49 2.56 9.54
7/4/2021 12:45:00 PM 17.42 63.356 0.041 6.49 2.28 9.5
7/4/2021 1:00:00 PM 17.67 63.806 0.041 6.49 2.38 9.47
7/4/2021 1:15:00 PM 17.95 64.31 0.041 6.51 2.52 9.43
7/4/2021 1:30:00 PM 18.26 64.868 0.041 6.53 2.42 9.42
7/4/2021 1:45:00 PM 18.56 65.408 0.041 6.53 2.37 9.38
7/4/2021 2:00:00 PM 18.84 65.912 0.041 6.54 2.41 9.34
7/4/2021 2:15:00 PM 19.11 66.398 0.041 6.54 2.37 9.32
7/4/2021 2:30:00 PM 19.33 66.794 0.041 6.53 2.42 9.3
7/4/2021 2:45:00 PM 19.5 67.1 0.041 6.56 2.38 9.26
7/4/2021 3:00:00 PM 19.65 67.37 0.041 6.56 2.57 9.23
7/4/2021 3:15:00 PM 19.67 67.406 0.041 6.56 2.56 9.22
7/4/2021 3:30:00 PM 19.68 67.424 0.041 6.55 2.55 9.19
7/4/2021 3:45:00 PM 19.53 67.154 0.041 6.53 2.47 9.16
7/4/2021 4:00:00 PM 19.42 66.956 0.041 6.52 2.36 9.15
7/4/2021 4:15:00 PM 19.28 66.704 0.042 6.5 2.26 9.13
7/4/2021 4:30:00 PM 19.14 66.452 0.042 6.49 2.54 9.13
7/4/2021 4:45:00 PM 19.07 66.326 0.042 6.47 2.4 9.11
7/4/2021 5:00:00 PM 19.02 66.236 0.042 6.45 2.29 9.11
7/4/2021 5:15:00 PM 18.9 66.02 0.042 6.43 2.77 9.1
7/4/2021 5:30:00 PM 18.83 65.894 0.042 6.42 2.68 9.08
7/4/2021 5:45:00 PM 18.76 65.768 0.042 6.41 2.3 9.06
7/4/2021 6:00:00 PM 18.71 65.67799 0.042 6.4 2.46 9.04
7/4/2021 6:15:00 PM 18.67 65.606 0.042 6.39 2.26 9
7/4/2021 6:30:00 PM 18.63 65.534 0.042 6.38 2.47 8.98
7/4/2021 6:45:00 PM 18.58 65.444 0.042 6.37 2.46 8.96
7/4/2021 7:00:00 PM 18.53 65.354 0.042 6.36 2.54 8.96
7/4/2021 7:15:00 PM 18.47 65.246 0.042 6.35 2.47 8.95
7/4/2021 7:30:00 PM 18.4 65.12 0.042 6.35 2.51 8.95
7/4/2021 7:45:00 PM 18.34 65.012 0.042 6.34 2.59 8.94
7/4/2021 8:00:00 PM 18.27 64.886 0.042 6.34 2.42 8.93
7/4/2021 8:15:00 PM 18.2 64.76 0.042 6.33 2.46 8.92
7/4/2021 8:30:00 PM 18.13 64.634 0.042 6.33 3.03 8.92
7/4/2021 8:45:00 PM 18.05 64.49 0.043 6.3 2.79 8.91
7/4/2021 9:00:00 PM 17.98 64.364 0.043 6.3 2.58 8.89
7/4/2021 9:15:00 PM 17.92 64.256 0.043 6.29 2.45 8.89
7/4/2021 9:30:00 PM 17.84 64.112 0.043 6.28 2.65 8.9
7/4/2021 9:45:00 PM 17.78 64.004 0.043 6.28 2.37 8.89
7/4/2021 10:00:00 PM 17.7 63.86 0.043 6.28 2.54 8.91
7/4/2021 10:15:00 PM 17.64 63.752 0.043 6.28 2.52 8.92
7/4/2021 10:30:00 PM 17.57 63.626 0.043 6.28 2.42 8.94
7/4/2021 10:45:00 PM 17.5 63.5 0.043 6.27 2.84 8.95
7/4/2021 11:00:00 PM 17.43 63.374 0.043 6.28 2.62 8.96
7/4/2021 11:15:00 PM 17.37 63.266 0.043 6.27 2.43 8.98
7/4/2021 11:30:00 PM 17.3 63.14 0.043 6.29 2.42 9
7/4/2021 11:45:00 PM 17.23 63.014 0.043 6.28 2.67 9.03
7/5/2021 12:00:00 AM 17.17 62.906 0.043 6.28 2.65 9.03
7/5/2021 12:15:00 AM 17.1 62.78 0.043 6.28 2.62 9.03
7/5/2021 12:30:00 AM 17.03 62.654 0.043 6.28 2.6 9.06
7/5/2021 12:45:00 AM 16.96 62.528 0.043 6.27 2.59 9.07
7/5/2021 1:00:00 AM 16.9 62.42 0.043 6.28 2.49 9.09
7/5/2021 1:15:00 AM 16.83 62.294 0.043 6.27 2.42 9.1
7/5/2021 1:30:00 AM 16.77 62.186 0.043 6.28 2.63 9.11
7/5/2021 1:45:00 AM 16.71 62.078 0.043 6.28 2.76 9.12
7/5/2021 2:00:00 AM 16.65 61.97 0.043 6.29 2.56 9.14
7/5/2021 2:15:00 AM 16.59 61.862 0.043 6.28 2.51 9.15
7/5/2021 2:30:00 AM 16.53 61.754 0.043 6.28 2.54 9.16
7/5/2021 2:45:00 AM 16.48 61.664 0.043 6.28 2.4 9.18
7/5/2021 3:00:00 AM 16.43 61.574 0.043 6.28 2.41 9.19
7/5/2021 3:15:00 AM 16.39 61.502 0.043 6.28 2.65 9.18
7/5/2021 3:30:00 AM 16.35 61.43 0.043 6.28 2.51 9.2
7/5/2021 3:45:00 AM 16.31 61.358 0.043 6.28 2.77 9.22
7/5/2021 4:00:00 AM 16.28 61.304 0.043 6.29 2.56 9.21
7/5/2021 4:15:00 AM 16.24 61.232 0.043 6.29 2.49 9.24
7/5/2021 4:30:00 AM 16.2 61.16 0.043 6.29 2.36 9.25
7/5/2021 4:45:00 AM 16.16 61.088 0.043 6.29 2.47 9.25
7/5/2021 5:00:00 AM 16.12 61.016 0.043 6.28 2.68 9.26
7/5/2021 5:15:00 AM 16.08 60.944 0.043 6.29 2.93 9.27
7/5/2021 5:30:00 AM 16.05 60.89 0.043 6.29 2.63 9.28
7/5/2021 5:45:00 AM 16.01 60.818 0.043 6.29 2.76 9.29
7/5/2021 6:00:00 AM 15.97 60.746 0.043 6.29 2.72 9.29
7/5/2021 6:15:00 AM 15.94 60.692 0.043 6.29 2.63 9.31
7/5/2021 6:30:00 AM 15.9 60.62 0.043 6.29 2.67 9.33
7/5/2021 6:45:00 AM 15.88 60.584 0.043 6.3 2.57 9.38
7/5/2021 7:00:00 AM 15.86 60.548 0.043 6.31 2.48 9.41
7/5/2021 7:15:00 AM 15.84 60.512 0.043 6.31 2.49 9.43
7/5/2021 7:30:00 AM 15.83 60.494 0.043 6.32 2.52 9.48
7/5/2021 7:45:00 AM 15.84 60.512 0.043 6.33 2.44 9.53
7/5/2021 8:00:00 AM 15.84 60.512 0.042 6.34 2.43 9.57
7/5/2021 8:15:00 AM 15.86 60.548 0.042 6.35 2.77 9.6
7/5/2021 8:30:00 AM 15.88 60.584 0.042 6.37 2.54 9.66
7/5/2021 8:45:00 AM 15.9 60.62 0.042 6.38 2.41 9.67
7/5/2021 9:00:00 AM 15.9 60.62 0.042 6.39 2.31 9.67
7/5/2021 9:15:00 AM 15.93 60.674 0.042 6.39 2.64 9.67
7/5/2021 9:30:00 AM 15.98 60.764 0.042 6.4 2.56 9.68
7/5/2021 9:45:00 AM 16.06 60.908 0.042 6.41 2.61 9.69
7/5/2021 10:00:00 AM 16.15 61.07 0.042 6.41 2.73 9.7
7/5/2021 10:15:00 AM 16.27 61.286 0.042 6.42 2.47 9.71
7/5/2021 10:30:00 AM 16.4 61.52 0.042 6.45 2.55 9.72
7/5/2021 10:45:00 AM 16.52 61.736 0.042 6.44 3.53 9.71
7/5/2021 11:00:00 AM 16.65 61.97 0.042 6.46 2.52 9.71
7/5/2021 11:15:00 AM 16.8 62.24 0.042 6.48 2.41 9.72
7/5/2021 11:30:00 AM 16.94 62.492 0.042 6.48 2.52 9.69
7/5/2021 11:45:00 AM 17.14 62.852 0.042 6.5 2.32 9.69
7/5/2021 12:00:00 PM 17.32 63.176 0.042 6.52 2.42 9.68
7/5/2021 12:15:00 PM 17.54 63.572 0.042 6.54 2.4 9.66
7/5/2021 12:30:00 PM 17.76 63.968 0.042 6.53 2.31 9.61
7/5/2021 12:45:00 PM 17.98 64.364 0.042 6.55 2.34 9.59
7/5/2021 1:00:00 PM 18.22 64.796 0.042 6.56 2.53 9.56
7/5/2021 1:15:00 PM 18.51 65.318 0.042 6.57 2.35 9.53
7/5/2021 1:30:00 PM 18.8 65.84 0.042 6.57 2.52 9.49
7/5/2021 1:45:00 PM 19.07 66.326 0.042 6.56 2.19 9.47
7/5/2021 2:00:00 PM 19.36 66.848 0.042 6.6 2.44 9.43
7/5/2021 2:15:00 PM 19.61 67.298 0.042 6.59 2.29 9.38
7/5/2021 2:30:00 PM 19.81 67.658 0.042 6.6 2.44 9.35
7/5/2021 2:45:00 PM 20.01 68.018 0.042 6.59 2.14 9.31
7/5/2021 3:00:00 PM 19.99 67.982 0.042 6.59 2.17 9.26
7/5/2021 3:15:00 PM 20.06 68.108 0.042 6.59 2.63 9.24
7/5/2021 3:30:00 PM 20.01 68.018 0.042 6.57 2.21 9.2
7/5/2021 3:45:00 PM 20 68 0.042 6.55 2.57 9.19
7/5/2021 4:00:00 PM 19.92 67.856 0.042 6.56 2.31 9.18
7/5/2021 4:15:00 PM 19.88 67.784 0.042 6.54 2.47 9.17
7/5/2021 4:30:00 PM 19.87 67.766 0.042 6.52 2.68 9.14
7/5/2021 4:45:00 PM 19.8 67.64 0.042 6.52 2.35 9.13
7/5/2021 5:00:00 PM 19.73 67.514 0.042 6.49 2.34 9.09
7/5/2021 5:15:00 PM 19.7 67.46 0.042 6.49 2.23 9.09
7/5/2021 5:30:00 PM 19.66 67.388 0.042 6.49 2.51 9.07
7/5/2021 5:45:00 PM 19.6 67.28 0.042 6.46 2.35 9.03
7/5/2021 6:00:00 PM 19.56 67.208 0.042 6.44 2.36 8.98
7/5/2021 6:15:00 PM 19.51 67.118 0.042 6.44 2.56 8.96
7/5/2021 6:30:00 PM 19.47 67.046 0.042 6.42 2.47 8.93
7/5/2021 6:45:00 PM 19.43 66.974 0.042 6.4 2.31 8.91
7/5/2021 7:00:00 PM 19.38 66.884 0.043 6.39 2.21 8.87
7/5/2021 7:15:00 PM 19.32 66.776 0.043 6.38 2.69 8.85
7/5/2021 7:30:00 PM 19.26 66.668 0.043 6.36 2.5 8.84
7/5/2021 7:45:00 PM 19.19 66.542 0.043 6.34 2.31 8.81
7/5/2021 8:00:00 PM 19.13 66.434 0.043 6.33 2.32 8.78
7/5/2021 8:15:00 PM 19.07 66.326 0.043 6.31 2.5 8.75
7/5/2021 8:30:00 PM 19.01 66.218 0.043 6.29 2.46 8.73
7/5/2021 8:45:00 PM 18.95 66.11 0.043 6.27 2.48 8.68
7/5/2021 9:00:00 PM 18.89 66.002 0.043 6.26 2.37 8.69
7/5/2021 9:15:00 PM 18.84 65.912 0.044 6.24 2.47 8.66
7/5/2021 9:30:00 PM 18.78 65.804 0.044 6.23 3.05 8.66
7/5/2021 9:45:00 PM 18.73 65.714 0.044 6.22 2.82 8.66
7/5/2021 10:00:00 PM 18.68 65.624 0.044 6.21 2.61 8.65
7/5/2021 10:15:00 PM 18.63 65.534 0.044 6.2 2.51 8.67
7/5/2021 10:30:00 PM 18.58 65.444 0.044 6.2 2.53 8.68
7/5/2021 10:45:00 PM 18.53 65.354 0.044 6.2 2.66 8.7
7/5/2021 11:00:00 PM 18.49 65.282 0.044 6.2 3.09 8.69
7/5/2021 11:15:00 PM 18.44 65.192 0.044 6.2 2.29 8.7
7/5/2021 11:30:00 PM 18.4 65.12 0.044 6.22 2.3 8.72
7/5/2021 11:45:00 PM 18.35 65.03 0.044 6.21 2.45 8.72
7/6/2021 12:00:00 AM 18.3 64.94 0.044 6.21 3.04 8.74
7/6/2021 12:15:00 AM 18.26 64.868 0.044 6.21 2.62 8.75
7/6/2021 12:30:00 AM 18.22 64.796 0.044 6.21 2.4 8.75
7/6/2021 12:45:00 AM 18.17 64.706 0.044 6.22 2.33 8.77
7/6/2021 1:00:00 AM 18.13 64.634 0.044 6.21 2.49 8.76
7/6/2021 1:15:00 AM 18.1 64.58 0.044 6.22 2.95 8.78
7/6/2021 1:30:00 AM 18.05 64.49 0.044 6.22 2.56 8.79
7/6/2021 1:45:00 AM 18.01 64.418 0.044 6.22 2.83 8.8
7/6/2021 2:00:00 AM 17.97 64.346 0.044 6.22 2.42 8.81
7/6/2021 2:15:00 AM 17.94 64.292 0.044 6.22 2.35 8.81
7/6/2021 2:30:00 AM 17.91 64.238 0.044 6.23 2.51 8.81
7/6/2021 2:45:00 AM 17.87 64.166 0.044 6.23 2.72 8.81
7/6/2021 3:00:00 AM 17.84 64.112 0.044 6.22 3.07 8.83
7/6/2021 3:15:00 AM 17.8 64.04 0.044 6.23 2.29 8.83
7/6/2021 3:30:00 AM 17.76 63.968 0.044 6.23 2.3 8.83
7/6/2021 3:45:00 AM 17.72 63.896 0.044 6.23 2.47 8.84
7/6/2021 4:00:00 AM 17.69 63.842 0.044 6.23 2.47 8.86
7/6/2021 4:15:00 AM 17.65 63.77 0.044 6.23 2.35 8.86
7/6/2021 4:30:00 AM 17.62 63.716 0.044 6.23 2.38 8.86
7/6/2021 4:45:00 AM 17.58 63.644 0.044 6.23 2.45 8.86
7/6/2021 5:00:00 AM 17.55 63.59 0.044 6.24 2.29 8.88
7/6/2021 5:15:00 AM 17.51 63.518 0.044 6.23 2.74 8.89
7/6/2021 5:30:00 AM 17.48 63.464 0.044 6.23 2.59 8.9
7/6/2021 5:45:00 AM 17.45 63.41 0.044 6.24 2.58 8.91
7/6/2021 6:00:00 AM 17.42 63.356 0.044 6.23 2.62 8.92
7/6/2021 6:15:00 AM 17.39 63.302 0.044 6.24 2.95 8.93
7/6/2021 6:30:00 AM 17.36 63.248 0.044 6.24 2.46 8.97
7/6/2021 6:45:00 AM 17.34 63.212 0.044 6.24 2.41 8.98
7/6/2021 7:00:00 AM 17.32 63.176 0.044 6.25 2.34 9.05
7/6/2021 7:15:00 AM 17.31 63.158 0.044 6.26 2.25 9.07
7/6/2021 7:30:00 AM 17.31 63.158 0.044 6.27 2.47 9.11
7/6/2021 7:45:00 AM 17.32 63.176 0.044 6.27 2.4 9.14
7/6/2021 8:00:00 AM 17.33 63.194 0.044 6.28 2.32 9.18
7/6/2021 8:15:00 AM 17.35 63.23 0.044 6.29 2.38 9.19
7/6/2021 8:30:00 AM 17.39 63.302 0.043 6.3 2.46 9.23
7/6/2021 8:45:00 AM 17.44 63.392 0.043 6.31 2.33 9.28
7/6/2021 9:00:00 AM 17.5 63.5 0.043 6.32 2.3 9.31
7/6/2021 9:15:00 AM 17.58 63.644 0.043 6.32 2.38 9.34
7/6/2021 9:30:00 AM 17.67 63.806 0.043 6.35 2.46 9.36
7/6/2021 9:45:00 AM 17.78 64.004 0.043 6.38 2.61 9.36
7/6/2021 10:00:00 AM 17.88 64.184 0.043 6.39 2.55 9.37
7/6/2021 10:15:00 AM 18.02 64.436 0.043 6.4 5.48 9.37
7/6/2021 10:30:00 AM 18.15 64.67 0.043 6.42 2.4 9.36
7/6/2021 10:45:00 AM 18.27 64.886 0.043 6.45 2.4 9.36
7/6/2021 11:00:00 AM 18.39 65.102 0.043 6.47 2.47 9.36
7/6/2021 11:15:00 AM 18.49 65.282 0.043 6.48 2.24 9.35
7/6/2021 11:30:00 AM 18.64 65.552 0.043 6.49 2.24 9.32
7/6/2021 11:45:00 AM 18.81 65.858 0.043 6.49 2.41 9.31
7/6/2021 12:00:00 PM 18.99 66.182 0.043 6.49 2.33 9.31
7/6/2021 12:15:00 PM 19.2 66.56 0.042 6.51 2.24 9.31
7/6/2021 12:30:00 PM 19.48 67.064 0.042 6.52 2.42 9.29
7/6/2021 12:45:00 PM 19.68 67.424 0.042 6.55 2.34 9.25
7/6/2021 1:00:00 PM 19.83 67.694 0.042 6.55 2.48 9.22
7/6/2021 1:15:00 PM 20.1 68.18 0.042 6.57 2.13 9.21
7/6/2021 1:30:00 PM 20.35 68.63 0.042 6.56 2.36 9.19
7/6/2021 1:45:00 PM 20.47 68.846 0.042 6.58 2.39 9.16
7/6/2021 2:00:00 PM 20.4 68.72 0.042 6.57 2.34 9.14
7/6/2021 2:15:00 PM 20.37 68.666 0.042 6.56 2.29 9.11
7/6/2021 2:30:00 PM 20.45 68.81 0.042 6.57 2.34 9.14
7/6/2021 2:45:00 PM 20.5 68.9 0.042 6.57 2.51 9.13
7/6/2021 3:00:00 PM 20.66 69.188 0.042 6.56 3.04 9.11
7/6/2021 3:15:00 PM 20.86 69.548 0.042 6.57 2.38 9.09
7/6/2021 3:30:00 PM 20.99 69.782 0.042 6.56 2.21 9.07
7/6/2021 3:45:00 PM 21 69.8 0.042 6.57 2.52 9.01
7/6/2021 4:00:00 PM 20.9 69.62 0.042 6.54 2.27 8.93
7/6/2021 4:15:00 PM 20.79 69.422 0.042 6.51 2.26 8.9
7/6/2021 4:30:00 PM 20.65 69.17 0.042 6.49 2.27 8.83
7/6/2021 4:45:00 PM 20.49 68.882 0.043 6.45 2.28 8.77
7/6/2021 5:00:00 PM 20.31 68.558 0.043 6.42 2.31 8.76
7/6/2021 5:15:00 PM 20.2 68.36 0.043 6.39 2.38 8.71
7/6/2021 5:30:00 PM 20.13 68.234 0.043 6.37 2.47 8.7
7/6/2021 5:45:00 PM 20.04 68.07201 0.043 6.35 2.26 8.65
7/6/2021 6:00:00 PM 19.96 67.92799 0.043 6.33 2.29 8.67
7/6/2021 6:15:00 PM 19.9 67.82 0.043 6.34 2.43 8.7
7/6/2021 6:30:00 PM 19.87 67.766 0.043 6.32 2.62 8.71
7/6/2021 6:45:00 PM 19.85 67.73 0.043 6.33 2.52 8.77
7/6/2021 7:00:00 PM 19.82 67.676 0.043 6.34 2.48 8.79
7/6/2021 7:15:00 PM 19.79 67.622 0.043 6.35 2.34 8.75
7/6/2021 7:30:00 PM 19.75 67.55 0.043 6.33 2.42 8.68
7/6/2021 7:45:00 PM 19.71 67.478 0.044 6.32 2.51 8.63
7/6/2021 8:00:00 PM 19.66 67.388 0.044 6.31 2.51 8.6
7/6/2021 8:15:00 PM 19.61 67.298 0.044 6.3 2.28 8.58
7/6/2021 8:30:00 PM 19.55 67.19 0.044 6.28 2.33 8.57
7/6/2021 8:45:00 PM 19.52 67.136 0.044 6.28 2.32 8.56
7/6/2021 9:00:00 PM 19.47 67.046 0.044 6.27 2.57 8.53
7/6/2021 9:15:00 PM 19.41 66.938 0.044 6.28 2.45 8.52
7/6/2021 9:30:00 PM 19.34 66.812 0.044 6.27 2.6 8.51
7/6/2021 9:45:00 PM 19.29 66.722 0.044 6.27 2.37 8.5
7/6/2021 10:00:00 PM 19.22 66.596 0.044 6.26 2.36 8.51
7/6/2021 10:15:00 PM 19.17 66.506 0.044 6.25 2.36 8.52
7/6/2021 10:30:00 PM 19.11 66.398 0.044 6.25 2.3 8.53
7/6/2021 10:45:00 PM 19.06 66.308 0.044 6.25 2.5 8.54
7/6/2021 11:00:00 PM 19.01 66.218 0.044 6.25 2.22 8.56
7/6/2021 11:15:00 PM 18.96 66.128 0.044 6.24 2.34 8.55
7/6/2021 11:30:00 PM 18.92 66.056 0.044 6.23 2.57 8.59
7/6/2021 11:45:00 PM 18.87 65.966 0.044 6.25 2.35 8.6
7/7/2021 12:00:00 AM 18.84 65.912 0.044 6.25 2.25 8.6
7/7/2021 12:15:00 AM 18.8 65.84 0.044 6.24 2.39 8.6
7/7/2021 12:30:00 AM 18.76 65.768 0.044 6.24 2.55 8.61
7/7/2021 12:45:00 AM 18.73 65.714 0.044 6.25 2.29 8.62
7/7/2021 1:00:00 AM 18.7 65.66 0.044 6.25 2.53 8.62
7/7/2021 1:15:00 AM 18.66 65.588 0.044 6.25 2.33 8.63
7/7/2021 1:30:00 AM 18.63 65.534 0.044 6.26 2.56 8.63
7/7/2021 1:45:00 AM 18.61 65.498 0.044 6.25 2.25 8.64
7/7/2021 2:00:00 AM 18.57 65.426 0.044 6.25 2.52 8.65
7/7/2021 2:15:00 AM 18.55 65.39 0.044 6.26 2.28 8.65
7/7/2021 2:30:00 AM 18.52 65.336 0.044 6.25 2.27 8.66
7/7/2021 2:45:00 AM 18.5 65.3 0.044 6.25 2.44 8.66
7/7/2021 3:00:00 AM 18.47 65.246 0.044 6.24 2.45 8.67
7/7/2021 3:15:00 AM 18.44 65.192 0.044 6.24 2.45 8.69
7/7/2021 3:30:00 AM 18.41 65.138 0.044 6.25 2.33 8.67
7/7/2021 3:45:00 AM 18.39 65.102 0.044 6.25 2.37 8.69
7/7/2021 4:00:00 AM 18.36 65.048 0.044 6.25 2.31 8.69
7/7/2021 4:15:00 AM 18.33 64.994 0.044 6.25 2.52 8.71
7/7/2021 4:30:00 AM 18.3 64.94 0.044 6.25 2.49 8.7
7/7/2021 4:45:00 AM 18.27 64.886 0.044 6.24 2.36 8.69
7/7/2021 5:00:00 AM 18.24 64.832 0.044 6.24 2.46 8.72
7/7/2021 5:15:00 AM 18.23 64.814 0.044 6.25 2.59 8.72
7/7/2021 5:30:00 AM 18.21 64.778 0.044 6.25 2.74 8.72
7/7/2021 5:45:00 AM 18.19 64.742 0.044 6.25 2.39 8.71
7/7/2021 6:00:00 AM 18.17 64.706 0.044 6.24 2.43 8.73
7/7/2021 6:15:00 AM 18.15 64.67 0.044 6.25 2.4 8.76
7/7/2021 6:30:00 AM 18.13 64.634 0.044 6.25 2.44 8.75
7/7/2021 6:45:00 AM 18.12 64.616 0.044 6.24 2.36 8.74
7/7/2021 7:00:00 AM 18.1 64.58 0.044 6.25 2.39 8.79
7/7/2021 7:15:00 AM 18.09 64.562 0.044 6.25 2.29 8.81
7/7/2021 7:30:00 AM 18.09 64.562 0.044 6.25 2.24 8.82
7/7/2021 7:45:00 AM 18.08 64.544 0.044 6.26 2.31 8.86
7/7/2021 8:00:00 AM 18.09 64.562 0.044 6.27 2.27 8.91
7/7/2021 8:15:00 AM 18.1 64.58 0.044 6.29 2.3 8.97
7/7/2021 8:30:00 AM 18.11 64.598 0.044 6.29 2.43 8.99
7/7/2021 8:45:00 AM 18.15 64.67 0.044 6.32 2.31 9.1
7/7/2021 9:00:00 AM 18.19 64.742 0.044 6.33 2.41 9.14
7/7/2021 9:15:00 AM 18.23 64.814 0.043 6.34 2.49 9.18
7/7/2021 9:30:00 AM 18.28 64.904 0.043 6.36 2.23 9.17
7/7/2021 9:45:00 AM 18.35 65.03 0.043 6.36 2.46 9.18
7/7/2021 10:00:00 AM 18.44 65.192 0.043 6.38 2.39 9.16
7/7/2021 10:15:00 AM 18.57 65.426 0.043 6.39 2.77 9.22
7/7/2021 10:30:00 AM 18.68 65.624 0.043 6.41 2.21 9.21
7/7/2021 10:45:00 AM 18.81 65.858 0.043 6.42 2.28 9.23
7/7/2021 11:00:00 AM 18.94 66.092 0.043 6.42 2.48 9.24
7/7/2021 11:15:00 AM 19.06 66.308 0.043 6.44 2.43 9.24
7/7/2021 11:30:00 AM 19.16 66.488 0.043 6.44 2.14 9.24
7/7/2021 11:45:00 AM 19.25 66.65 0.043 6.46 2.18 9.21
7/7/2021 12:00:00 PM 19.39 66.902 0.043 6.47 2.29 9.21
7/7/2021 12:15:00 PM 19.59 67.262 0.043 6.51 2.49 9.2
7/7/2021 12:30:00 PM 19.79 67.622 0.043 6.5 2.41 9.18
7/7/2021 12:45:00 PM 20.08 68.144 0.043 6.52 2.35 9.18
7/7/2021 1:00:00 PM 20.39 68.702 0.043 6.55 2.26 9.17
7/7/2021 1:15:00 PM 20.59 69.062 0.043 6.55 2.37 9.12
7/7/2021 1:30:00 PM 20.75 69.35 0.042 6.56 2.23 9.08
7/7/2021 1:45:00 PM 20.93 69.674 0.042 6.58 2.35 9.05
7/7/2021 2:00:00 PM 20.91 69.638 0.042 6.56 2.29 8.97
7/7/2021 2:15:00 PM 20.95 69.71 0.042 6.54 2.25 8.95
7/7/2021 2:30:00 PM 21.17 70.106 0.043 6.53 2.27 8.94
7/7/2021 2:45:00 PM 21.37 70.466 0.043 6.56 2.15 8.92
7/7/2021 3:00:00 PM 21.57 70.826 0.043 6.55 2.2 8.95
7/7/2021 3:15:00 PM 21.72 71.096 0.042 6.56 2.2 8.96
7/7/2021 3:30:00 PM 21.78 71.204 0.042 6.58 2.26 8.93
7/7/2021 3:45:00 PM 21.75 71.15 0.042 6.56 2.29 8.86
7/7/2021 4:00:00 PM 21.73 71.114 0.042 6.54 2.23 8.83
7/7/2021 4:15:00 PM 21.71 71.078 0.042 6.54 2.2 8.8
7/7/2021 4:30:00 PM 21.65 70.97 0.042 6.53 2.19 8.8
7/7/2021 4:45:00 PM 21.6 70.88 0.043 6.51 2.17 8.77
7/7/2021 5:00:00 PM 21.55 70.79 0.043 6.5 2.22 8.74
7/7/2021 5:15:00 PM 21.4 70.52 0.043 6.47 2.12 8.72
7/7/2021 5:30:00 PM 21.27 70.286 0.043 6.45 2.45 8.68
7/7/2021 5:45:00 PM 21.17 70.106 0.043 6.44 2.28 8.65
7/7/2021 6:00:00 PM 21.1 69.98 0.043 6.41 2.27 8.62
7/7/2021 6:15:00 PM 21.02 69.836 0.043 6.39 2.25 8.58
7/7/2021 6:30:00 PM 20.96 69.728 0.043 6.38 2.19 8.57
7/7/2021 6:45:00 PM 20.88 69.584 0.043 6.35 2.28 8.5
7/7/2021 7:00:00 PM 20.82 69.476 0.043 6.35 2.08 8.47
7/7/2021 7:15:00 PM 20.74 69.332 0.044 6.34 2.36 8.42
7/7/2021 7:30:00 PM 20.64 69.152 0.044 6.33 2.33 8.37
7/7/2021 7:45:00 PM 20.51 68.918 0.044 6.31 2.48 8.32
7/7/2021 8:00:00 PM 20.37 68.666 0.043 6.28 2.67 8.29
7/7/2021 8:15:00 PM 20.26 68.468 0.043 6.26 2.9 8.24
7/7/2021 8:30:00 PM 20.15 68.27 0.043 6.25 2.65 8.23
7/7/2021 8:45:00 PM 20.04 68.07201 0.043 6.25 2.95 8.26
7/7/2021 9:00:00 PM 19.98 67.964 0.043 6.24 2.91 8.25
7/7/2021 9:15:00 PM 19.9 67.82 0.044 6.24 2.64 8.28
7/7/2021 9:30:00 PM 19.84 67.712 0.044 6.25 3.08 8.3
7/7/2021 9:45:00 PM 19.79 67.622 0.044 6.24 2.67 8.27
7/7/2021 10:00:00 PM 19.74 67.532 0.044 6.24 3.11 8.3
7/7/2021 10:15:00 PM 19.69 67.442 0.044 6.25 2.55 8.32
7/7/2021 10:30:00 PM 19.63 67.334 0.044 6.25 2.75 8.33
7/7/2021 10:45:00 PM 19.56 67.208 0.044 6.25 2.76 8.38
7/7/2021 11:00:00 PM 19.5 67.1 0.044 6.25 2.48 8.39
7/7/2021 11:15:00 PM 19.44 66.992 0.044 6.26 2.84 8.41
7/7/2021 11:30:00 PM 19.39 66.902 0.044 6.26 2.48 8.44
7/7/2021 11:45:00 PM 19.34 66.812 0.044 6.26 2.46 8.44
7/8/2021 12:00:00 AM 19.29 66.722 0.044 6.26 2.9 8.46
7/8/2021 12:15:00 AM 19.24 66.632 0.044 6.27 2.87 8.48
7/8/2021 12:30:00 AM 19.19 66.542 0.044 6.26 3.13 8.46
7/8/2021 12:45:00 AM 19.14 66.452 0.044 6.26 3.43 8.48
7/8/2021 1:00:00 AM 19.1 66.38 0.044 6.27 2.94 8.48
7/8/2021 1:15:00 AM 19.05 66.29 0.044 6.26 3.03 8.51
7/8/2021 1:30:00 AM 19 66.2 0.044 6.27 3.05 8.53
7/8/2021 1:45:00 AM 18.96 66.128 0.044 6.27 3.37 8.52
7/8/2021 2:00:00 AM 18.93 66.074 0.044 6.27 2.72 8.53
7/8/2021 2:15:00 AM 18.89 66.002 0.044 6.27 2.53 8.54
7/8/2021 2:30:00 AM 18.85 65.93 0.044 6.27 2.64 8.53
7/8/2021 2:45:00 AM 18.82 65.876 0.044 6.27 2.58 8.55
7/8/2021 3:00:00 AM 18.78 65.804 0.044 6.28 2.47 8.57
7/8/2021 3:15:00 AM 18.75 65.75 0.044 6.27 2.58 8.56
7/8/2021 3:30:00 AM 18.71 65.67799 0.044 6.26 2.86 8.57
7/8/2021 3:45:00 AM 18.68 65.624 0.044 6.26 2.65 8.57
7/8/2021 4:00:00 AM 18.64 65.552 0.044 6.27 3.02 8.6
7/8/2021 4:15:00 AM 18.61 65.498 0.044 6.27 2.46 8.59
7/8/2021 4:30:00 AM 18.58 65.444 0.044 6.28 2.6 8.6
7/8/2021 4:45:00 AM 18.55 65.39 0.044 6.28 2.5 8.62
7/8/2021 5:00:00 AM 18.52 65.336 0.044 6.27 2.43 8.61
7/8/2021 5:15:00 AM 18.48 65.264 0.044 6.28 2.72 8.62
7/8/2021 5:30:00 AM 18.46 65.228 0.044 6.28 2.39 8.62
7/8/2021 5:45:00 AM 18.43 65.174 0.044 6.28 2.5 8.64
7/8/2021 6:00:00 AM 18.4 65.12 0.044 6.28 2.46 8.65
7/8/2021 6:15:00 AM 18.37 65.066 0.044 6.29 2.61 8.66
7/8/2021 6:30:00 AM 18.35 65.03 0.044 6.28 2.37 8.68
7/8/2021 6:45:00 AM 18.32 64.976 0.044 6.29 2.42 8.69
7/8/2021 7:00:00 AM 18.29 64.922 0.044 6.29 2.22 8.72
7/8/2021 7:15:00 AM 18.27 64.886 0.044 6.29 2.32 8.73
7/8/2021 7:30:00 AM 18.25 64.85 0.044 6.3 2.36 8.76
7/8/2021 7:45:00 AM 18.23 64.814 0.044 6.3 2.44 8.78
7/8/2021 8:00:00 AM 18.22 64.796 0.044 6.31 2.31 8.84
7/8/2021 8:15:00 AM 18.22 64.796 0.044 6.32 2.76 8.86
7/8/2021 8:30:00 AM 18.21 64.778 0.044 6.33 2.6 8.92
7/8/2021 8:45:00 AM 18.21 64.778 0.044 6.33 2.47 8.93
7/8/2021 9:00:00 AM 18.22 64.796 0.044 6.34 2.29 8.97
7/8/2021 9:15:00 AM 18.22 64.796 0.044 6.34 2.53 8.98
7/8/2021 9:30:00 AM 18.23 64.814 0.043 6.34 2.31 8.97
7/8/2021 9:45:00 AM 18.24 64.832 0.043 6.35 2.37 9.02
7/8/2021 10:00:00 AM 18.27 64.886 0.043 6.35 2.41 9.06
7/8/2021 10:15:00 AM 18.32 64.976 0.043 6.36 2.34 9.13
7/8/2021 10:30:00 AM 18.39 65.102 0.043 6.38 2.55 9.22
7/8/2021 10:45:00 AM 18.46 65.228 0.043 6.4 2.54 9.24
7/8/2021 11:00:00 AM 18.57 65.426 0.043 6.41 2.64 9.31
7/8/2021 11:15:00 AM 18.65 65.57 0.043 6.46 2.54 9.34
7/8/2021 11:30:00 AM 18.76 65.768 0.043 6.45 2.27 9.32
7/8/2021 11:45:00 AM 18.86 65.948 0.043 6.49 2.25 9.33
7/8/2021 12:00:00 PM 18.91 66.038 0.043 6.49 2.36 9.28
7/8/2021 12:15:00 PM 18.91 66.038 0.043 6.48 2.43 9.24
7/8/2021 12:30:00 PM 18.91 66.038 0.043 6.46 2.41 9.17
7/8/2021 12:45:00 PM 18.89 66.002 0.043 6.45 2.76 9.11
7/8/2021 1:00:00 PM 18.9 66.02 0.043 6.45 2.51 9.13
7/8/2021 1:15:00 PM 18.92 66.056 0.043 6.45 2.17 9.14
7/8/2021 1:30:00 PM 18.94 66.092 0.043 6.45 2.95 9.19
7/8/2021 1:45:00 PM 18.91 66.038 0.043 6.45 2.71 9.13
7/8/2021 2:00:00 PM 18.9 66.02 0.043 6.45 2.37 9.08
7/8/2021 2:15:00 PM 18.89 66.002 0.043 6.43 2.68 9.04
7/8/2021 2:30:00 PM 18.89 66.002 0.043 6.42 2.41 9.04
7/8/2021 2:45:00 PM 18.93 66.074 0.043 6.43 2.34 9.12
7/8/2021 3:00:00 PM 18.95 66.11 0.043 6.44 2.37 9.16
7/8/2021 3:15:00 PM 18.95 66.11 0.043 6.44 2.36 9.12
7/8/2021 3:30:00 PM 18.95 66.11 0.043 6.43 2.3 9.06
7/8/2021 3:45:00 PM 18.97 66.146 0.043 6.43 2.43 9.07
7/8/2021 4:00:00 PM 19.02 66.236 0.043 6.44 2.42 9.12
7/8/2021 4:15:00 PM 19.11 66.398 0.043 6.47 2.35 9.17
7/8/2021 4:30:00 PM 19.14 66.452 0.043 6.5 2.28 9.19
7/8/2021 4:45:00 PM 19.13 66.434 0.043 6.47 2.43 9.11
7/8/2021 5:00:00 PM 19.14 66.452 0.043 6.47 2.17 9.11
7/8/2021 5:15:00 PM 19.15 66.47 0.043 6.48 2.28 9.1
7/8/2021 5:30:00 PM 19.14 66.452 0.043 6.46 2.38 9.09
7/8/2021 5:45:00 PM 19.15 66.47 0.043 6.45 2.42 9.07
7/8/2021 6:00:00 PM 19.15 66.47 0.043 6.45 2.42 9.06
7/8/2021 6:15:00 PM 19.13 66.434 0.043 6.45 2.42 9.07
7/8/2021 6:30:00 PM 19.08 66.344 0.043 6.43 2.31 8.96
7/8/2021 6:45:00 PM 19.03 66.254 0.043 6.41 2.23 8.87
7/8/2021 7:00:00 PM 18.99 66.182 0.043 6.39 2.23 8.81
7/8/2021 7:15:00 PM 18.96 66.128 0.043 6.36 2.27 8.78
7/8/2021 7:30:00 PM 18.92 66.056 0.043 6.35 2.35 8.76
7/8/2021 7:45:00 PM 18.89 66.002 0.043 6.35 2.35 8.76
7/8/2021 8:00:00 PM 18.85 65.93 0.044 6.35 2.34 8.75
7/8/2021 8:15:00 PM 18.82 65.876 0.044 6.32 2.24 8.72
7/8/2021 8:30:00 PM 18.79 65.82201 0.044 6.32 2.32 8.68
7/8/2021 8:45:00 PM 18.76 65.768 0.044 6.31 2.53 8.68
7/8/2021 9:00:00 PM 18.73 65.714 0.044 6.3 2.52 8.66
7/8/2021 9:15:00 PM 18.68 65.624 0.044 6.29 2.85 8.65
7/8/2021 9:30:00 PM 18.66 65.588 0.044 6.26 3.3 8.64
7/8/2021 9:45:00 PM 18.63 65.534 0.044 6.25 2.39 8.63
7/8/2021 10:00:00 PM 18.6 65.48 0.044 6.24 2.33 8.63
7/8/2021 10:15:00 PM 18.57 65.426 0.044 6.23 2.51 8.64
7/8/2021 10:30:00 PM 18.55 65.39 0.044 6.23 2.62 8.63
7/8/2021 10:45:00 PM 18.53 65.354 0.044 6.23 2.35 8.63
7/8/2021 11:00:00 PM 18.5 65.3 0.044 6.23 2.85 8.65
7/8/2021 11:15:00 PM 18.47 65.246 0.044 6.23 2.54 8.65
7/8/2021 11:30:00 PM 18.45 65.21 0.044 6.24 2.31 8.67
7/8/2021 11:45:00 PM 18.42 65.156 0.044 6.23 2.38 8.65
7/9/2021 12:00:00 AM 18.4 65.12 0.044 6.24 2.5 8.68
7/9/2021 12:15:00 AM 18.38 65.084 0.044 6.24 2.51 8.67
7/9/2021 12:30:00 AM 18.35 65.03 0.044 6.24 2.5 8.69
7/9/2021 12:45:00 AM 18.32 64.976 0.044 6.26 2.22 8.7
7/9/2021 1:00:00 AM 18.3 64.94 0.044 6.26 2.49 8.69
7/9/2021 1:15:00 AM 18.27 64.886 0.044 6.26 2.24 8.71
7/9/2021 1:30:00 AM 18.24 64.832 0.044 6.27 2.31 8.71
7/9/2021 1:45:00 AM 18.21 64.778 0.044 6.26 2.42 8.71
7/9/2021 2:00:00 AM 18.18 64.724 0.044 6.27 2.45 8.71
7/9/2021 2:15:00 AM 18.16 64.688 0.044 6.26 2.42 8.71
7/9/2021 2:30:00 AM 18.14 64.652 0.044 6.27 2.74 8.74
7/9/2021 2:45:00 AM 18.13 64.634 0.044 6.28 2.2 8.73
7/9/2021 3:00:00 AM 18.11 64.598 0.044 6.28 2.43 8.74
7/9/2021 3:15:00 AM 18.09 64.562 0.044 6.29 2.51 8.76
7/9/2021 3:30:00 AM 18.07 64.526 0.044 6.28 2.51 8.76
7/9/2021 3:45:00 AM 18.05 64.49 0.044 6.28 2.36 8.74
7/9/2021 4:00:00 AM 18.03 64.454 0.044 6.29 2.32 8.76
7/9/2021 4:15:00 AM 18 64.4 0.044 6.29 2.47 8.76
7/9/2021 4:30:00 AM 17.98 64.364 0.044 6.27 2.32 8.77
7/9/2021 4:45:00 AM 17.96 64.328 0.044 6.29 2.35 8.77
7/9/2021 5:00:00 AM 17.94 64.292 0.044 6.28 2.38 8.75
7/9/2021 5:15:00 AM 17.92 64.256 0.044 6.28 2.25 8.77
7/9/2021 5:30:00 AM 17.89 64.202 0.044 6.28 2.8 8.77
7/9/2021 5:45:00 AM 17.88 64.184 0.044 6.28 2.3 8.8
7/9/2021 6:00:00 AM 17.86 64.148 0.044 6.29 2.36 8.8
7/9/2021 6:15:00 AM 17.84 64.112 0.044 6.28 2.57 8.82
7/9/2021 6:30:00 AM 17.83 64.094 0.044 6.29 2.56 8.84
7/9/2021 6:45:00 AM 17.81 64.058 0.044 6.29 2.45 8.86
7/9/2021 7:00:00 AM 17.81 64.058 0.044 6.31 2.39 8.91
7/9/2021 7:15:00 AM 17.81 64.058 0.044 6.3 2.37 8.95
7/9/2021 7:30:00 AM 17.83 64.094 0.043 6.32 2.64 9.01
7/9/2021 7:45:00 AM 17.84 64.112 0.043 6.33 2.44 9.05
7/9/2021 8:00:00 AM 17.85 64.13 0.043 6.33 2.44 9.07
7/9/2021 8:15:00 AM 17.88 64.184 0.043 6.36 2.42 9.11
7/9/2021 8:30:00 AM 17.9 64.22 0.043 6.36 2.34 9.14
7/9/2021 8:45:00 AM 17.92 64.256 0.043 6.37 2.45 9.14
7/9/2021 9:00:00 AM 17.94 64.292 0.043 6.37 2.29 9.15
7/9/2021 9:15:00 AM 17.96 64.328 0.043 6.39 2.28 9.19
7/9/2021 9:30:00 AM 17.97 64.346 0.043 6.39 2.29 9.16
7/9/2021 9:45:00 AM 18.02 64.436 0.043 6.39 2.42 9.2
7/9/2021 10:00:00 AM 18.05 64.49 0.043 6.39 2.58 9.25
7/9/2021 10:15:00 AM 18.08 64.544 0.043 6.4 2.36 9.25
7/9/2021 10:30:00 AM 18.12 64.616 0.043 6.41 2.38 9.27
7/9/2021 10:45:00 AM 18.22 64.796 0.043 6.43 2.25 9.34
7/9/2021 11:00:00 AM 18.25 64.85 0.043 6.44 2.37 9.32
7/9/2021 11:15:00 AM 18.25 64.85 0.043 6.42 2.49 9.25
7/9/2021 11:30:00 AM 18.26 64.868 0.043 6.43 2.37 9.23
7/9/2021 11:45:00 AM 18.31 64.958 0.043 6.44 2.34 9.27
7/9/2021 12:00:00 PM 18.4 65.12 0.042 6.43 2.28 9.3
7/9/2021 12:15:00 PM 18.57 65.426 0.042 6.47 2.31 9.38
7/9/2021 12:30:00 PM 18.81 65.858 0.042 6.5 2.32 9.39
7/9/2021 12:45:00 PM 19.02 66.236 0.042 6.52 2.43 9.35
7/9/2021 1:00:00 PM 19.15 66.47 0.042 6.52 2.33 9.31
7/9/2021 1:15:00 PM 19.49 67.082 0.042 6.53 2.4 9.29
7/9/2021 1:30:00 PM 19.87 67.766 0.042 6.56 2.62 9.26
7/9/2021 1:45:00 PM 20.09 68.162 0.042 6.57 2.26 9.2
7/9/2021 2:00:00 PM 20.1 68.18 0.042 6.56 2.43 9.04
7/9/2021 2:15:00 PM 20.28 68.504 0.042 6.56 2.37 9.08
7/9/2021 2:30:00 PM 20.23 68.414 0.042 6.54 2.46 9
7/9/2021 2:45:00 PM 20.27 68.486 0.042 6.53 2.31 9
7/9/2021 3:00:00 PM 20.41 68.738 0.042 6.55 2.44 9.03
7/9/2021 3:15:00 PM 20.53 68.954 0.042 6.54 2.37 9.02
7/9/2021 3:30:00 PM 20.45 68.81 0.042 6.55 2.35 9.02
7/9/2021 3:45:00 PM 20.4 68.72 0.042 6.54 3.44 9.01
7/9/2021 4:00:00 PM 20.36 68.648 0.042 6.55 2.47 9.02
7/9/2021 4:15:00 PM 20.36 68.648 0.042 6.56 2.47 9
7/9/2021 4:30:00 PM 20.34 68.612 0.042 6.55 2.45 8.98
7/9/2021 4:45:00 PM 20.31 68.558 0.042 6.52 2.51 8.93
7/9/2021 5:00:00 PM 20.25 68.45 0.042 6.52 2.78 8.93
7/9/2021 5:15:00 PM 20.21 68.378 0.042 6.51 2.88 8.91
7/9/2021 5:30:00 PM 20.12 68.216 0.042 6.48 3.67 8.85
7/9/2021 5:45:00 PM 20.04 68.07201 0.043 6.46 3.9 8.81
7/9/2021 6:00:00 PM 19.97 67.946 0.043 6.44 3.89 8.76
7/9/2021 6:15:00 PM 19.93 67.874 0.043 6.42 3.51 8.71
7/9/2021 6:30:00 PM 19.88 67.784 0.043 6.4 3.35 8.69
7/9/2021 6:45:00 PM 19.82 67.676 0.043 6.39 3.08 8.69
7/9/2021 7:00:00 PM 19.77 67.586 0.043 6.39 2.81 8.68
7/9/2021 7:15:00 PM 19.71 67.478 0.043 6.38 3.02 8.66
7/9/2021 7:30:00 PM 19.65 67.37 0.043 6.37 2.96 8.64
7/9/2021 7:45:00 PM 19.57 67.226 0.042 6.36 3.1 8.66
7/9/2021 8:00:00 PM 19.52 67.136 0.043 6.36 3.37 8.65
7/9/2021 8:15:00 PM 19.47 67.046 0.043 6.35 3.73 8.66
7/9/2021 8:30:00 PM 19.4 66.92 0.043 6.34 4.9 8.63
7/9/2021 8:45:00 PM 19.33 66.794 0.043 6.33 6.08 8.62
7/9/2021 9:00:00 PM 19.25 66.65 0.044 6.33 7.22 8.61
7/9/2021 9:15:00 PM 19.19 66.542 0.044 6.34 6.91 8.59
7/9/2021 9:30:00 PM 19.1 66.38 0.045 6.33 7.46 8.6
7/9/2021 9:45:00 PM 19.03 66.254 0.045 6.33 6.86 8.61
7/9/2021 10:00:00 PM 18.95 66.11 0.045 6.33 5.82 8.62
7/9/2021 10:15:00 PM 18.86 65.948 0.045 6.33 4.47 8.64
7/9/2021 10:30:00 PM 18.77 65.786 0.045 6.33 4.48 8.65
7/9/2021 10:45:00 PM 18.68 65.624 0.045 6.32 3.68 8.69
7/9/2021 11:00:00 PM 18.58 65.444 0.045 6.32 3.26 8.72
7/9/2021 11:15:00 PM 18.5 65.3 0.044 6.32 3.07 8.72
7/9/2021 11:30:00 PM 18.4 65.12 0.044 6.31 2.78 8.72
7/9/2021 11:45:00 PM 18.31 64.958 0.044 6.31 2.98 8.77
7/10/2021 12:00:00 AM 18.25 64.85 0.044 6.32 2.76 8.79
7/10/2021 12:15:00 AM 18.19 64.742 0.044 6.31 2.79 8.79
7/10/2021 12:30:00 AM 18.13 64.634 0.044 6.3 2.78 8.79
7/10/2021 12:45:00 AM 18.07 64.526 0.044 6.31 2.88 8.83
7/10/2021 1:00:00 AM 18.02 64.436 0.043 6.3 2.66 8.83
7/10/2021 1:15:00 AM 17.98 64.364 0.043 6.3 2.67 8.84
7/10/2021 1:30:00 AM 17.93 64.274 0.043 6.3 2.68 8.85
7/10/2021 1:45:00 AM 17.88 64.184 0.043 6.31 2.65 8.88
7/10/2021 2:00:00 AM 17.85 64.13 0.043 6.31 2.77 8.87
7/10/2021 2:15:00 AM 17.8 64.04 0.043 6.3 2.68 8.88
7/10/2021 2:30:00 AM 17.75 63.95 0.043 6.3 2.64 8.89
7/10/2021 2:45:00 AM 17.72 63.896 0.043 6.31 2.5 8.9
7/10/2021 3:00:00 AM 17.69 63.842 0.043 6.29 2.45 8.9
7/10/2021 3:15:00 AM 17.65 63.77 0.043 6.29 2.48 8.89
7/10/2021 3:30:00 AM 17.62 63.716 0.043 6.29 2.6 8.9
7/10/2021 3:45:00 AM 17.59 63.662 0.043 6.31 2.45 8.93
7/10/2021 4:00:00 AM 17.56 63.608 0.043 6.3 2.38 8.93
7/10/2021 4:15:00 AM 17.53 63.554 0.043 6.3 2.92 8.92
7/10/2021 4:30:00 AM 17.51 63.518 0.043 6.29 2.44 8.93
7/10/2021 4:45:00 AM 17.48 63.464 0.043 6.28 2.51 8.91
7/10/2021 5:00:00 AM 17.46 63.428 0.043 6.29 2.73 8.93
7/10/2021 5:15:00 AM 17.43 63.374 0.043 6.29 2.44 8.95
7/10/2021 5:30:00 AM 17.41 63.338 0.043 6.29 2.38 8.94
7/10/2021 5:45:00 AM 17.38 63.284 0.043 6.28 2.69 8.94
7/10/2021 6:00:00 AM 17.36 63.248 0.043 6.29 2.39 8.97
7/10/2021 6:15:00 AM 17.34 63.212 0.043 6.29 3.15 8.97
7/10/2021 6:30:00 AM 17.32 63.176 0.043 6.28 2.49 8.99
7/10/2021 6:45:00 AM 17.3 63.14 0.043 6.28 2.42 8.99
7/10/2021 7:00:00 AM 17.3 63.14 0.043 6.29 2.39 9.05
7/10/2021 7:15:00 AM 17.29 63.122 0.042 6.31 2.63 9.11
7/10/2021 7:30:00 AM 17.29 63.122 0.042 6.33 2.54 9.13
7/10/2021 7:45:00 AM 17.29 63.122 0.042 6.32 2.34 9.15
7/10/2021 8:00:00 AM 17.3 63.14 0.042 6.33 2.37 9.2
7/10/2021 8:15:00 AM 17.33 63.194 0.042 6.34 2.59 9.25
7/10/2021 8:30:00 AM 17.35 63.23 0.042 6.36 2.52 9.29
7/10/2021 8:45:00 AM 17.37 63.266 0.042 6.37 2.47 9.32
7/10/2021 9:00:00 AM 17.42 63.356 0.042 6.38 2.33 9.34
7/10/2021 9:15:00 AM 17.45 63.41 0.042 6.38 2.55 9.34
7/10/2021 9:30:00 AM 17.48 63.464 0.042 6.38 2.43 9.34
7/10/2021 9:45:00 AM 17.54 63.572 0.042 6.41 2.27 9.37
7/10/2021 10:00:00 AM 17.62 63.716 0.042 6.41 2.61 9.38
7/10/2021 10:15:00 AM 17.71 63.878 0.042 6.41 2.4 9.44
7/10/2021 10:30:00 AM 17.8 64.04 0.042 6.45 2.46 9.49
7/10/2021 10:45:00 AM 17.84 64.112 0.042 6.46 2.29 9.47
7/10/2021 11:00:00 AM 17.95 64.31 0.042 6.47 2.27 9.47
7/10/2021 11:15:00 AM 18.05 64.49 0.042 6.48 2.32 9.47
7/10/2021 11:30:00 AM 18.18 64.724 0.042 6.48 2.46 9.45
7/10/2021 11:45:00 AM 18.4 65.12 0.042 6.5 2.54 9.44
7/10/2021 12:00:00 PM 18.53 65.354 0.042 6.51 2.18 9.43
7/10/2021 12:15:00 PM 18.74 65.732 0.042 6.52 2.57 9.4
7/10/2021 12:30:00 PM 18.93 66.074 0.042 6.51 2.4 9.4
7/10/2021 12:45:00 PM 19.01 66.218 0.042 6.54 2.16 9.38
7/10/2021 1:00:00 PM 19.21 66.578 0.042 6.54 2.31 9.36
7/10/2021 1:15:00 PM 19.26 66.668 0.042 6.55 2.39 9.36
7/10/2021 1:30:00 PM 19.21 66.578 0.042 6.53 2.29 9.35
7/10/2021 1:45:00 PM 19.28 66.704 0.042 6.53 2.24 9.37
7/10/2021 2:00:00 PM 19.43 66.974 0.042 6.57 2.77 9.41
7/10/2021 2:15:00 PM 19.47 67.046 0.042 6.55 2.27 9.41
7/10/2021 2:30:00 PM 19.39 66.902 0.042 6.56 2.21 9.37
7/10/2021 2:45:00 PM 19.36 66.848 0.042 6.53 2.39 9.33
7/10/2021 3:00:00 PM 19.36 66.848 0.042 6.53 2.45 9.37
7/10/2021 3:15:00 PM 19.35 66.83 0.042 6.53 2.24 9.36
7/10/2021 3:30:00 PM 19.36 66.848 0.042 6.51 2.27 9.34
7/10/2021 3:45:00 PM 19.43 66.974 0.042 6.51 2.97 9.35
7/10/2021 4:00:00 PM 19.51 67.118 0.042 6.51 2.24 9.27
7/10/2021 4:15:00 PM 19.61 67.298 0.042 6.49 2.39 9.21
7/10/2021 4:30:00 PM 19.67 67.406 0.042 6.51 2.26 9.15
7/10/2021 4:45:00 PM 19.71 67.478 0.042 6.49 2.25 9.11
7/10/2021 5:00:00 PM 19.72 67.496 0.042 6.5 2.13 9.08
7/10/2021 5:15:00 PM 19.62 67.316 0.042 6.48 2.3 9.04
7/10/2021 5:30:00 PM 19.51 67.118 0.042 6.46 2.3 9.02
7/10/2021 5:45:00 PM 19.48 67.064 0.042 6.44 2.26 9.03
7/10/2021 6:00:00 PM 19.43 66.974 0.042 6.43 2.24 9.05
7/10/2021 6:15:00 PM 19.38 66.884 0.042 6.44 2.25 9.05
7/10/2021 6:30:00 PM 19.35 66.83 0.042 6.42 2.37 9.04
7/10/2021 6:45:00 PM 19.28 66.704 0.042 6.41 2.23 8.99
7/10/2021 7:00:00 PM 19.24 66.632 0.042 6.4 2.18 8.94
7/10/2021 7:15:00 PM 19.22 66.596 0.043 6.38 2.2 8.91
7/10/2021 7:30:00 PM 19.19 66.542 0.043 6.38 2.21 8.9
7/10/2021 7:45:00 PM 19.15 66.47 0.043 6.36 2.36 8.85
7/10/2021 8:00:00 PM 19.09 66.362 0.043 6.35 2.4 8.81
7/10/2021 8:15:00 PM 19.01 66.218 0.043 6.33 2.42 8.76
7/10/2021 8:30:00 PM 18.96 66.128 0.043 6.31 2.41 8.72
7/10/2021 8:45:00 PM 18.9 66.02 0.043 6.3 2.35 8.68
7/10/2021 9:00:00 PM 18.84 65.912 0.043 6.3 2.36 8.67
7/10/2021 9:15:00 PM 18.78 65.804 0.043 6.29 2.38 8.63
7/10/2021 9:30:00 PM 18.72 65.696 0.044 6.28 2.17 8.62
7/10/2021 9:45:00 PM 18.66 65.588 0.044 6.29 2.31 8.64
7/10/2021 10:00:00 PM 18.6 65.48 0.044 6.26 2.4 8.65
7/10/2021 10:15:00 PM 18.55 65.39 0.044 6.27 2.92 8.64
7/10/2021 10:30:00 PM 18.49 65.282 0.043 6.27 2.5 8.67
7/10/2021 10:45:00 PM 18.44 65.192 0.044 6.25 2.38 8.66
7/10/2021 11:00:00 PM 18.37 65.066 0.043 6.26 2.42 8.7
7/10/2021 11:15:00 PM 18.32 64.976 0.043 6.26 2.39 8.69
7/10/2021 11:30:00 PM 18.25 64.85 0.043 6.27 2.27 8.7
7/10/2021 11:45:00 PM 18.19 64.742 0.043 6.27 2.26 8.72
7/11/2021 12:00:00 AM 18.13 64.634 0.043 6.26 2.42 8.73
7/11/2021 12:15:00 AM 18.07 64.526 0.043 6.27 2.29 8.75
7/11/2021 12:30:00 AM 18 64.4 0.043 6.26 2.25 8.75
7/11/2021 12:45:00 AM 17.95 64.31 0.043 6.27 2.25 8.79
7/11/2021 1:00:00 AM 17.87 64.166 0.043 6.26 2.39 8.79
7/11/2021 1:15:00 AM 17.83 64.094 0.043 6.26 2.17 8.79
7/11/2021 1:30:00 AM 17.76 63.968 0.043 6.26 2.2 8.8
7/11/2021 1:45:00 AM 17.69 63.842 0.044 6.26 2.4 8.83
7/11/2021 2:00:00 AM 17.64 63.752 0.044 6.25 2.24 8.81
7/11/2021 2:15:00 AM 17.57 63.626 0.044 6.25 2.25 8.83
7/11/2021 2:30:00 AM 17.51 63.518 0.044 6.25 2.28 8.84
7/11/2021 2:45:00 AM 17.46 63.428 0.044 6.25 2.24 8.85
7/11/2021 3:00:00 AM 17.4 63.32 0.044 6.24 2.41 8.87
7/11/2021 3:15:00 AM 17.36 63.248 0.044 6.24 2.46 8.88
7/11/2021 3:30:00 AM 17.32 63.176 0.044 6.25 2.52 8.9
7/11/2021 3:45:00 AM 17.27 63.086 0.044 6.26 2.45 8.9
7/11/2021 4:00:00 AM 17.23 63.014 0.044 6.26 2.36 8.91
7/11/2021 4:30:00 AM 17.15 62.87 0.044 6.23 2.42 8.91
7/11/2021 4:45:00 AM 17.13 62.834 0.044 6.25 2.12 8.92
7/11/2021 5:00:00 AM 17.1 62.78 0.044 6.25 2.23 8.94
7/11/2021 5:15:00 AM 17.07 62.726 0.044 6.25 2.44 8.94
7/11/2021 5:30:00 AM 17.04 62.672 0.044 6.24 2.42 8.93
7/11/2021 5:45:00 AM 17.01 62.618 0.044 6.25 2.36 8.94
7/11/2021 6:00:00 AM 16.98 62.564 0.044 6.25 2.95 8.95
7/11/2021 6:15:00 AM 16.96 62.528 0.044 6.26 2.26 8.97
7/11/2021 6:30:00 AM 16.94 62.492 0.044 6.25 2.22 8.98
7/11/2021 6:45:00 AM 16.92 62.456 0.044 6.26 2.33 9.01
7/11/2021 7:00:00 AM 16.91 62.438 0.044 6.26 2.48 9.03
7/11/2021 7:15:00 AM 16.91 62.438 0.044 6.25 2.18 9.04
7/11/2021 7:30:00 AM 16.92 62.456 0.043 6.27 2.17 9.13
7/11/2021 7:45:00 AM 16.93 62.474 0.043 6.29 2.12 9.18
7/11/2021 8:00:00 AM 16.94 62.492 0.043 6.3 2.38 9.21
7/11/2021 8:15:00 AM 16.96 62.528 0.043 6.3 2.16 9.26
7/11/2021 8:30:00 AM 16.99 62.582 0.043 6.31 2.19 9.3
7/11/2021 8:45:00 AM 17.03 62.654 0.043 6.32 2.28 9.33
7/11/2021 9:00:00 AM 17.08 62.744 0.043 6.34 2.23 9.37
7/11/2021 9:15:00 AM 17.12 62.816 0.043 6.35 2.25 9.39
7/11/2021 9:30:00 AM 17.18 62.924 0.043 6.35 2.21 9.4
7/11/2021 9:45:00 AM 17.26 63.068 0.043 6.38 2.17 9.43
7/11/2021 10:00:00 AM 17.4 63.32 0.043 6.4 2.15 9.47
7/11/2021 10:15:00 AM 17.5 63.5 0.043 6.4 2.18 9.51
7/11/2021 10:30:00 AM 17.58 63.644 0.043 6.42 2.15 9.51
7/11/2021 10:45:00 AM 17.63 63.734 0.043 6.42 2.21 9.49
7/11/2021 11:00:00 AM 17.7 63.86 0.043 6.44 2.63 9.45
7/11/2021 11:15:00 AM 17.76 63.968 0.043 6.44 2.4 9.48
7/11/2021 11:30:00 AM 17.85 64.13 0.043 6.46 2.24 9.5
7/11/2021 11:45:00 AM 17.91 64.238 0.043 6.46 2.15 9.53
7/11/2021 12:00:00 PM 17.95 64.31 0.043 6.47 2.26 9.53
7/11/2021 12:15:00 PM 17.98 64.364 0.043 6.46 2.09 9.49
7/11/2021 12:30:00 PM 18.06 64.508 0.042 6.48 2.12 9.52
7/11/2021 12:45:00 PM 18.17 64.706 0.042 6.48 2.31 9.54
7/11/2021 1:00:00 PM 18.24 64.832 0.042 6.52 2.34 9.54
7/11/2021 1:15:00 PM 18.3 64.94 0.042 6.5 2.17 9.55
7/11/2021 1:30:00 PM 18.34 65.012 0.042 6.5 2.22 9.51
7/11/2021 1:45:00 PM 18.34 65.012 0.042 6.49 2.27 9.47
7/11/2021 2:00:00 PM 18.34 65.012 0.042 6.5 2.39 9.38
7/11/2021 2:15:00 PM 18.32 64.976 0.043 6.47 2.28 9.27
7/11/2021 2:30:00 PM 18.31 64.958 0.043 6.45 2.12 9.19
7/11/2021 2:45:00 PM 18.35 65.03 0.043 6.43 2.14 9.19
7/11/2021 3:00:00 PM 18.46 65.228 0.043 6.42 2.14 9.28
7/11/2021 3:15:00 PM 18.52 65.336 0.042 6.47 2.11 9.36
7/11/2021 3:30:00 PM 18.58 65.444 0.042 6.5 2.49 9.4
7/11/2021 3:45:00 PM 18.61 65.498 0.042 6.5 2.16 9.38
7/11/2021 4:00:00 PM 18.6 65.48 0.042 6.49 2.22 9.31
7/11/2021 4:15:00 PM 18.59 65.462 0.042 6.46 2.57 9.15
7/11/2021 4:30:00 PM 18.62 65.516 0.041 6.41 3.42 9.01
7/11/2021 4:45:00 PM 18.61 65.498 0.041 6.38 3.23 8.92
7/11/2021 5:00:00 PM 18.59 65.462 0.04 6.35 3.04 8.9
7/11/2021 5:15:00 PM 18.57 65.426 0.04 6.33 7.08 8.85
7/11/2021 5:30:00 PM 18.44 65.192 0.042 6.3 15.67 8.79
7/11/2021 5:45:00 PM 18.43 65.174 0.041 6.29 11.32 8.77
7/11/2021 6:00:00 PM 18.5 65.3 0.039 6.29 15.56 8.83
7/11/2021 6:15:00 PM 18.51 65.318 0.039 6.25 43.72 8.83
7/11/2021 6:30:00 PM 18.51 65.318 0.04 6.3 131.28 8.82
7/11/2021 6:45:00 PM 18.47 65.246 0.038 6.28 75.47 8.84
7/11/2021 7:00:00 PM 18.41 65.138 0.038 6.26 95.12 8.86
7/11/2021 7:15:00 PM 18.34 65.012 0.038 6.24 73.36 8.9
7/11/2021 7:30:00 PM 18.28 64.904 0.038 6.23 90.85 8.92
7/11/2021 7:45:00 PM 18.2 64.76 0.038 6.23 87.87 8.95
7/11/2021 8:00:00 PM 18.12 64.616 0.038 6.22 87.32 8.99
7/11/2021 8:15:00 PM 18.01 64.418 0.038 6.21 91.55 9.04
7/11/2021 8:30:00 PM 17.86 64.148 0.037 6.18 117.28 9.1
7/11/2021 8:45:00 PM 17.77 63.986 0.036 6.16 104.8 9.15
7/11/2021 9:00:00 PM 17.69 63.842 0.035 6.13 86.88 9.19
7/11/2021 9:15:00 PM 17.6 63.68 0.034 6.1 80.59 9.22
7/11/2021 9:30:00 PM 17.54 63.572 0.033 6.06 76.4 9.23
7/11/2021 9:45:00 PM 17.52 63.536 0.034 6.07 75.73 9.24
7/11/2021 10:00:00 PM 17.51 63.518 0.035 6.11 76.13 9.24
7/11/2021 10:15:00 PM 17.5 63.5 0.035 6.11 70.68 9.25
7/11/2021 10:30:00 PM 17.52 63.536 0.034 6.11 69.7 9.25
7/11/2021 10:45:00 PM 17.54 63.572 0.034 6.1 64.28 9.24
7/11/2021 11:00:00 PM 17.51 63.518 0.034 6.09 48.79 9.24
7/11/2021 11:15:00 PM 17.47 63.446 0.034 6.08 42.2 9.26
7/11/2021 11:30:00 PM 17.43 63.374 0.034 6.09 37.91 9.26
7/11/2021 11:45:00 PM 17.41 63.338 0.033 6.07 39.12 9.27
7/12/2021 12:00:00 AM 17.38 63.284 0.033 6.06 33.27 9.27
7/12/2021 12:15:00 AM 17.36 63.248 0.033 6.06 38.35 9.27
7/12/2021 12:30:00 AM 17.35 63.23 0.033 6.06 34.26 9.28
7/12/2021 12:45:00 AM 17.34 63.212 0.033 6.07 34.64 9.28
7/12/2021 1:00:00 AM 17.32 63.176 0.033 6.07 30.45 9.28
7/12/2021 1:15:00 AM 17.31 63.158 0.033 6.07 27.79 9.27
7/12/2021 1:30:00 AM 17.3 63.14 0.033 6.07 27.62 9.27
7/12/2021 1:45:00 AM 17.29 63.122 0.033 6.07 22.38 9.27
7/12/2021 2:00:00 AM 17.28 63.104 0.033 6.07 20.44 9.27
7/12/2021 2:15:00 AM 17.26 63.068 0.033 6.05 18.25 9.26
7/12/2021 2:30:00 AM 17.25 63.05 0.033 6.04 17.98 9.26
7/12/2021 2:45:00 AM 17.23 63.014 0.033 6.05 16.6 9.25
7/12/2021 3:00:00 AM 17.21 62.978 0.033 6.02 16.14 9.24
7/12/2021 3:15:00 AM 17.19 62.942 0.033 6.03 15.87 9.24
7/12/2021 3:30:00 AM 17.17 62.906 0.033 6.03 14.47 9.25
7/12/2021 3:45:00 AM 17.15 62.87 0.033 6.01 14.93 9.25
7/12/2021 4:00:00 AM 17.13 62.834 0.033 6.02 13.35 9.27
7/12/2021 4:15:00 AM 17.11 62.798 0.034 6.01 13.81 9.26
7/12/2021 4:30:00 AM 17.09 62.762 0.034 6.01 12.41 9.26
7/12/2021 4:45:00 AM 17.07 62.726 0.034 6.01 12.85 9.27
7/12/2021 5:00:00 AM 17.06 62.708 0.034 6.01 11.82 9.27
7/12/2021 5:15:00 AM 17.04 62.672 0.034 6.02 12.94 9.27
7/12/2021 5:30:00 AM 17.02 62.636 0.034 6.02 11.78 9.27
7/12/2021 5:45:00 AM 17 62.6 0.034 6.02 12.27 9.28
7/12/2021 6:00:00 AM 16.98 62.564 0.034 6.02 11.49 9.28
7/12/2021 6:15:00 AM 16.97 62.546 0.035 6.02 10.56 9.29
7/12/2021 6:30:00 AM 16.95 62.51 0.035 6.02 10.34 9.3
7/12/2021 6:45:00 AM 16.94 62.492 0.035 6.03 10.87 9.3
7/12/2021 7:00:00 AM 16.93 62.474 0.035 6.03 9.49 9.32
7/12/2021 7:15:00 AM 16.92 62.456 0.035 6.02 9.24 9.33
7/12/2021 7:30:00 AM 16.91 62.438 0.035 6.03 10.54 9.33
7/12/2021 7:45:00 AM 16.9 62.42 0.035 6.04 8.83 9.35
7/12/2021 8:00:00 AM 16.91 62.438 0.035 6.05 8.59 9.39
7/12/2021 8:15:00 AM 16.93 62.474 0.035 6.05 8.44 9.42
7/12/2021 8:30:00 AM 16.94 62.492 0.035 6.07 8.41 9.42
7/12/2021 8:45:00 AM 16.94 62.492 0.035 6.08 8.17 9.43
7/12/2021 9:00:00 AM 16.95 62.51 0.035 6.08 8.12 9.44
7/12/2021 9:15:00 AM 16.99 62.582 0.035 6.1 7.8 9.47
7/12/2021 9:30:00 AM 17.03 62.654 0.036 6.12 7.91 9.48
7/12/2021 9:45:00 AM 17.1 62.78 0.036 6.14 7.26 9.5
7/12/2021 10:00:00 AM 17.14 62.852 0.036 6.18 7.36 9.51
7/12/2021 10:15:00 AM 17.16 62.888 0.036 6.2 7.15 9.5
7/12/2021 10:30:00 AM 17.18 62.924 0.036 6.22 7.14 9.49
7/12/2021 10:45:00 AM 17.22 62.996 0.036 6.22 7.08 9.49
7/12/2021 11:00:00 AM 17.27 63.086 0.036 6.25 7.14 9.49
7/12/2021 11:15:00 AM 17.35 63.23 0.036 6.26 6.9 9.48
7/12/2021 11:30:00 AM 17.46 63.428 0.036 6.28 7.43 9.48
7/12/2021 11:45:00 AM 17.59 63.662 0.036 6.3 7.39 9.48
7/12/2021 12:00:00 PM 17.58 63.644 0.036 6.3 6.53 9.43
7/12/2021 12:15:00 PM 17.58 63.644 0.036 6.31 6.44 9.45
7/12/2021 12:30:00 PM 17.6 63.68 0.036 6.3 7.71 9.45
7/12/2021 12:45:00 PM 17.63 63.734 0.036 6.3 6.46 9.41
7/12/2021 1:00:00 PM 17.71 63.878 0.036 6.3 6.44 9.45
7/12/2021 1:15:00 PM 17.8 64.04 0.036 6.32 6.5 9.47
7/12/2021 1:30:00 PM 17.97 64.346 0.036 6.34 5.94 9.46
7/12/2021 1:45:00 PM 18.01 64.418 0.036 6.34 6.58 9.42
7/12/2021 2:00:00 PM 18.07 64.526 0.036 6.35 6.44 9.42
7/12/2021 2:15:00 PM 18.16 64.688 0.036 6.34 6.68 9.41
7/12/2021 2:30:00 PM 18.21 64.778 0.036 6.35 5.97 9.39
7/12/2021 2:45:00 PM 18.17 64.706 0.036 6.34 6.25 9.37
7/12/2021 3:00:00 PM 18.11 64.598 0.036 6.32 5.81 9.31
7/12/2021 3:15:00 PM 18.25 64.85 0.036 6.32 5.5 9.34
7/12/2021 3:30:00 PM 18.3 64.94 0.036 6.32 5.54 9.33
7/12/2021 3:45:00 PM 18.34 65.012 0.036 6.32 5.81 9.32
7/12/2021 4:00:00 PM 18.34 65.012 0.036 6.33 5.39 9.32
7/12/2021 4:15:00 PM 18.37 65.066 0.036 6.32 5.48 9.29
7/12/2021 4:30:00 PM 18.34 65.012 0.036 6.31 6.26 9.27
7/12/2021 4:45:00 PM 18.32 64.976 0.036 6.31 5.84 9.26
7/12/2021 5:00:00 PM 18.33 64.994 0.036 6.3 5.5 9.26
7/12/2021 5:15:00 PM 18.33 64.994 0.036 6.31 5.55 9.23
7/12/2021 5:30:00 PM 18.31 64.958 0.036 6.29 4.91 9.2
7/12/2021 5:45:00 PM 18.29 64.922 0.036 6.27 5.57 9.2
7/12/2021 6:00:00 PM 18.28 64.904 0.036 6.25 5.13 9.2
7/12/2021 6:15:00 PM 18.27 64.886 0.036 6.25 5.09 9.18
7/12/2021 6:30:00 PM 18.27 64.886 0.037 6.25 4.9 9.16
7/12/2021 6:45:00 PM 18.28 64.904 0.037 6.25 4.84 9.2
7/12/2021 7:00:00 PM 18.27 64.886 0.037 6.24 5.38 9.19
7/12/2021 7:15:00 PM 18.26 64.868 0.037 6.25 4.79 9.16
7/12/2021 7:30:00 PM 18.23 64.814 0.037 6.25 4.92 9.14
7/12/2021 7:45:00 PM 18.21 64.778 0.037 6.25 5.19 9.12
7/12/2021 8:00:00 PM 18.18 64.724 0.037 6.23 5.07 9.11
7/12/2021 8:15:00 PM 18.13 64.634 0.037 6.21 5.22 9.1
7/12/2021 8:30:00 PM 18.1 64.58 0.037 6.19 5.01 9.08
7/12/2021 8:45:00 PM 18.06 64.508 0.037 6.18 5.51 9.08
7/12/2021 9:00:00 PM 18.03 64.454 0.037 6.16 5.02 9.06
7/12/2021 9:15:00 PM 18 64.4 0.037 6.16 4.76 9.06
7/12/2021 9:30:00 PM 17.98 64.364 0.037 6.15 5.19 9.06
7/12/2021 9:45:00 PM 17.95 64.31 0.037 6.13 6.07 9.07
7/12/2021 10:00:00 PM 17.93 64.274 0.037 6.13 4.92 9.07
7/12/2021 10:15:00 PM 17.91 64.238 0.037 6.13 4.96 9.07
7/12/2021 10:30:00 PM 17.88 64.184 0.037 6.13 5.27 9.09
7/12/2021 10:45:00 PM 17.86 64.148 0.037 6.12 4.8 9.08
7/12/2021 11:00:00 PM 17.84 64.112 0.037 6.12 4.92 9.07
7/12/2021 11:15:00 PM 17.81 64.058 0.037 6.12 4.92 9.1
7/12/2021 11:30:00 PM 17.79 64.022 0.038 6.11 5.61 9.09
7/12/2021 11:45:00 PM 17.76 63.968 0.038 6.1 4.54 9.08
7/13/2021 12:00:00 AM 17.75 63.95 0.038 6.11 4.62 9.11
7/13/2021 12:15:00 AM 17.73 63.914 0.038 6.1 4.93 9.1
7/13/2021 12:30:00 AM 17.71 63.878 0.038 6.11 4.69 9.1
7/13/2021 12:45:00 AM 17.7 63.86 0.038 6.11 4.56 9.1
7/13/2021 1:00:00 AM 17.68 63.824 0.038 6.1 4.68 9.1
7/13/2021 1:15:00 AM 17.66 63.788 0.038 6.11 4.91 9.12
7/13/2021 1:30:00 AM 17.64 63.752 0.038 6.1 4.46 9.12
7/13/2021 1:45:00 AM 17.62 63.716 0.038 6.11 4.26 9.12
7/13/2021 2:00:00 AM 17.6 63.68 0.038 6.11 4.23 9.14
7/13/2021 2:15:00 AM 17.58 63.644 0.038 6.09 4.71 9.13
7/13/2021 2:30:00 AM 17.57 63.626 0.038 6.09 4.45 9.13
7/13/2021 2:45:00 AM 17.56 63.608 0.038 6.08 4.61 9.13
7/13/2021 3:00:00 AM 17.55 63.59 0.038 6.09 4.61 9.14
7/13/2021 3:15:00 AM 17.53 63.554 0.038 6.09 4.05 9.14
7/13/2021 3:30:00 AM 17.51 63.518 0.038 6.09 4.5 9.14
7/13/2021 3:45:00 AM 17.5 63.5 0.038 6.08 4.64 9.14
7/13/2021 4:00:00 AM 17.48 63.464 0.038 6.09 4.3 9.15
7/13/2021 4:15:00 AM 17.47 63.446 0.038 6.08 4.35 9.15
7/13/2021 4:30:00 AM 17.46 63.428 0.038 6.09 4.55 9.15
7/13/2021 4:45:00 AM 17.44 63.392 0.038 6.09 4.09 9.17
7/13/2021 5:00:00 AM 17.43 63.374 0.038 6.09 4.46 9.16
7/13/2021 5:15:00 AM 17.42 63.356 0.038 6.09 4.78 9.17
7/13/2021 5:30:00 AM 17.41 63.338 0.038 6.09 4.36 9.17
7/13/2021 5:45:00 AM 17.4 63.32 0.038 6.08 4.22 9.17
7/13/2021 6:00:00 AM 17.39 63.302 0.038 6.08 5.7 9.18
7/13/2021 6:15:00 AM 17.38 63.284 0.038 6.1 4.43 9.19
7/13/2021 6:30:00 AM 17.37 63.266 0.038 6.11 4.58 9.21
7/13/2021 6:45:00 AM 17.37 63.266 0.038 6.12 4.2 9.22
7/13/2021 7:00:00 AM 17.37 63.266 0.038 6.13 4.4 9.25
7/13/2021 7:15:00 AM 17.37 63.266 0.038 6.15 4.47 9.28
7/13/2021 7:30:00 AM 17.36 63.248 0.038 6.16 4.2 9.25
7/13/2021 7:45:00 AM 17.35 63.23 0.038 6.17 4.17 9.24
7/13/2021 8:00:00 AM 17.34 63.212 0.038 6.17 4.28 9.23
7/13/2021 8:15:00 AM 17.34 63.212 0.038 6.17 3.94 9.28
7/13/2021 8:30:00 AM 17.35 63.23 0.038 6.18 4.15 9.32
7/13/2021 8:45:00 AM 17.37 63.266 0.038 6.18 3.9 9.34
7/13/2021 9:00:00 AM 17.39 63.302 0.038 6.19 4.26 9.38
7/13/2021 9:15:00 AM 17.42 63.356 0.038 6.2 3.95 9.41
7/13/2021 9:30:00 AM 17.45 63.41 0.038 6.2 4.42 9.42
7/13/2021 9:45:00 AM 17.48 63.464 0.038 6.24 4.07 9.44
7/13/2021 10:00:00 AM 17.51 63.518 0.038 6.23 4 9.44
7/13/2021 10:15:00 AM 17.53 63.554 0.038 6.24 4.18 9.43
7/13/2021 10:30:00 AM 17.58 63.644 0.037 6.25 4.48 9.44
7/13/2021 10:45:00 AM 17.66 63.788 0.037 6.27 4.01 9.47
7/13/2021 11:00:00 AM 17.76 63.968 0.037 6.29 4.06 9.46
7/13/2021 11:15:00 AM 17.85 64.13 0.037 6.32 3.98 9.43
7/13/2021 11:30:00 AM 17.93 64.274 0.037 6.31 3.8 9.42
7/13/2021 11:45:00 AM 18.04 64.472 0.037 6.33 4.09 9.41
7/13/2021 12:00:00 PM 18.17 64.706 0.037 6.35 3.61 9.4
7/13/2021 12:15:00 PM 18.33 64.994 0.037 6.36 4.34 9.38
7/13/2021 12:30:00 PM 18.51 65.318 0.037 6.37 3.84 9.35
7/13/2021 12:45:00 PM 18.68 65.624 0.037 6.38 4.11 9.34
7/13/2021 1:00:00 PM 18.89 66.002 0.037 6.4 3.72 9.31
7/13/2021 1:15:00 PM 18.94 66.092 0.037 6.41 3.67 9.27
7/13/2021 1:30:00 PM 18.92 66.056 0.037 6.37 3.89 9.18
7/13/2021 1:45:00 PM 19 66.2 0.037 6.39 3.48 9.23
7/13/2021 2:00:00 PM 19.17 66.506 0.037 6.4 3.47 9.26
7/13/2021 2:15:00 PM 19.38 66.884 0.037 6.41 3.93 9.24
7/13/2021 2:30:00 PM 19.53 67.154 0.037 6.42 4.08 9.22
7/13/2021 2:45:00 PM 19.74 67.532 0.037 6.43 4.08 9.21
7/13/2021 3:00:00 PM 19.85 67.73 0.037 6.43 3.41 9.17
7/13/2021 3:15:00 PM 19.99 67.982 0.037 6.45 3.44 9.18
7/13/2021 3:30:00 PM 19.93 67.874 0.037 6.43 3.93 9.1
7/13/2021 3:45:00 PM 19.9 67.82 0.037 6.42 3.4 9.1
7/13/2021 4:00:00 PM 19.91 67.838 0.037 6.39 3.61 9.05
7/13/2021 4:15:00 PM 19.89 67.802 0.037 6.4 3.45 9.03
7/13/2021 4:30:00 PM 19.88 67.784 0.037 6.38 4.34 9.02
7/13/2021 4:45:00 PM 19.86 67.748 0.037 6.37 3.43 9.02
7/13/2021 5:00:00 PM 19.86 67.748 0.037 6.37 3.46 8.99
7/13/2021 5:15:00 PM 19.82 67.676 0.037 6.35 3.28 8.96
7/13/2021 5:30:00 PM 19.78 67.604 0.037 6.33 3.74 8.93
7/13/2021 5:45:00 PM 19.76 67.568 0.037 6.32 3.5 8.91
7/13/2021 6:00:00 PM 19.73 67.514 0.037 6.31 3.73 8.91
7/13/2021 6:15:00 PM 19.7 67.46 0.037 6.3 3.49 8.92
7/13/2021 6:30:00 PM 19.65 67.37 0.037 6.29 3.66 8.85
7/13/2021 6:45:00 PM 19.58 67.244 0.037 6.27 4.76 8.79
7/13/2021 7:00:00 PM 19.49 67.082 0.036 6.23 5.08 8.78
7/13/2021 7:15:00 PM 19.37 66.866 0.037 6.23 7.12 8.78
7/13/2021 7:30:00 PM 19.27 66.686 0.038 6.23 14.97 8.75
7/13/2021 7:45:00 PM 19.19 66.542 0.038 6.23 11.91 8.79
7/13/2021 8:00:00 PM 19.13 66.434 0.037 6.23 8.34 8.81
7/13/2021 8:15:00 PM 19.06 66.308 0.037 6.22 6.92 8.83
7/13/2021 8:30:00 PM 18.97 66.146 0.038 6.23 14.86 8.86
7/13/2021 8:45:00 PM 18.86 65.948 0.038 6.23 19.43 8.88
7/13/2021 9:00:00 PM 18.78 65.804 0.038 6.23 15.1 8.9
7/13/2021 9:15:00 PM 18.71 65.67799 0.038 6.22 14.73 8.91
7/13/2021 9:30:00 PM 18.67 65.606 0.038 6.22 14.93 8.93
7/13/2021 9:45:00 PM 18.62 65.516 0.038 6.23 19.23 8.94
7/13/2021 10:00:00 PM 18.53 65.354 0.039 6.25 22.31 8.97
7/13/2021 10:15:00 PM 18.42 65.156 0.039 6.27 18.53 9.01
7/13/2021 10:30:00 PM 18.29 64.922 0.039 6.26 18.78 9.05
7/13/2021 10:45:00 PM 18.22 64.796 0.039 6.25 14.9 9.07
7/13/2021 11:00:00 PM 18.17 64.706 0.039 6.25 12.98 9.08
7/13/2021 11:15:00 PM 18.13 64.634 0.039 6.25 10.4 9.08
7/13/2021 11:30:00 PM 18.11 64.598 0.038 6.26 10.63 9.1
7/13/2021 11:45:00 PM 18.1 64.58 0.038 6.25 10.96 9.1
7/14/2021 12:00:00 AM 18.09 64.562 0.038 6.26 11.56 9.11
7/14/2021 12:15:00 AM 18.07 64.526 0.038 6.26 11.74 9.1
7/14/2021 12:30:00 AM 18.05 64.49 0.038 6.26 13.57 9.12
7/14/2021 12:45:00 AM 18.02 64.436 0.038 6.26 10.86 9.13
7/14/2021 1:00:00 AM 17.98 64.364 0.038 6.25 11.42 9.13
7/14/2021 1:15:00 AM 17.94 64.292 0.038 6.24 9.54 9.15
7/14/2021 1:30:00 AM 17.9 64.22 0.037 6.25 11.49 9.15
7/14/2021 1:45:00 AM 17.86 64.148 0.037 6.24 10.47 9.16
7/14/2021 2:00:00 AM 17.82 64.076 0.037 6.24 10.03 9.17
7/14/2021 2:15:00 AM 17.79 64.022 0.037 6.24 9.92 9.18
7/14/2021 2:30:00 AM 17.75 63.95 0.037 6.23 8.33 9.19
7/14/2021 2:45:00 AM 17.72 63.896 0.037 6.24 8.72 9.19
7/14/2021 3:00:00 AM 17.68 63.824 0.037 6.24 7.92 9.21
7/14/2021 3:15:00 AM 17.65 63.77 0.037 6.24 7.87 9.21
7/14/2021 3:30:00 AM 17.61 63.698 0.037 6.25 6.89 9.21
7/14/2021 3:45:00 AM 17.58 63.644 0.037 6.24 7.83 9.22
7/14/2021 4:00:00 AM 17.54 63.572 0.037 6.24 6.43 9.23
7/14/2021 4:15:00 AM 17.51 63.518 0.037 6.24 6.95 9.24
7/14/2021 4:30:00 AM 17.48 63.464 0.037 6.23 7.28 9.24
7/14/2021 4:45:00 AM 17.45 63.41 0.037 6.23 6.28 9.24
7/14/2021 5:00:00 AM 17.42 63.356 0.037 6.24 6.5 9.25
7/14/2021 5:15:00 AM 17.39 63.302 0.037 6.23 6.9 9.26
7/14/2021 5:30:00 AM 17.36 63.248 0.037 6.23 6.59 9.27
7/14/2021 5:45:00 AM 17.33 63.194 0.037 6.23 6.39 9.27
7/14/2021 6:00:00 AM 17.3 63.14 0.037 6.24 6.71 9.28
7/14/2021 6:15:00 AM 17.28 63.104 0.037 6.23 6.26 9.29
7/14/2021 6:30:00 AM 17.25 63.05 0.037 6.24 5.91 9.3
7/14/2021 6:45:00 AM 17.23 63.014 0.037 6.23 6.27 9.31
7/14/2021 7:00:00 AM 17.21 62.978 0.037 6.24 6.23 9.32
7/14/2021 7:15:00 AM 17.19 62.942 0.037 6.23 5.97 9.34
7/14/2021 7:30:00 AM 17.18 62.924 0.037 6.24 6.01 9.35
7/14/2021 7:45:00 AM 17.16 62.888 0.037 6.25 5.67 9.37
7/14/2021 8:00:00 AM 17.15 62.87 0.037 6.24 5.94 9.39
7/14/2021 8:15:00 AM 17.15 62.87 0.037 6.25 5.62 9.41
7/14/2021 8:30:00 AM 17.14 62.852 0.037 6.24 5.66 9.43
7/14/2021 8:45:00 AM 17.14 62.852 0.037 6.25 5.41 9.42
7/14/2021 9:00:00 AM 17.13 62.834 0.037 6.25 5.86 9.43
7/14/2021 9:15:00 AM 17.12 62.816 0.037 6.25 5.18 9.43
7/14/2021 9:30:00 AM 17.13 62.834 0.037 6.26 5.59 9.44
7/14/2021 9:45:00 AM 17.13 62.834 0.037 6.26 4.85 9.46
7/14/2021 10:00:00 AM 17.15 62.87 0.037 6.27 4.89 9.5
7/14/2021 10:15:00 AM 17.19 62.942 0.037 6.28 5.18 9.54
7/14/2021 10:30:00 AM 17.23 63.014 0.037 6.3 8.1 9.54
7/14/2021 10:45:00 AM 17.25 63.05 0.037 6.32 4.91 9.56
7/14/2021 11:00:00 AM 17.27 63.086 0.037 6.34 5.38 9.55
7/14/2021 11:15:00 AM 17.35 63.23 0.037 6.36 4.86 9.56
7/14/2021 11:30:00 AM 17.46 63.428 0.037 6.37 4.88 9.57
7/14/2021 11:45:00 AM 17.5 63.5 0.037 6.38 4.91 9.54
7/14/2021 12:00:00 PM 17.57 63.626 0.037 6.38 4.77 9.54
7/14/2021 12:15:00 PM 17.71 63.878 0.037 6.42 4.7 9.55
7/14/2021 12:30:00 PM 17.81 64.058 0.037 6.43 5.12 9.54
7/14/2021 12:45:00 PM 17.88 64.184 0.037 6.44 4.43 9.52
7/14/2021 1:00:00 PM 17.95 64.31 0.037 6.44 4.6 9.52
7/14/2021 1:15:00 PM 18.04 64.472 0.037 6.45 4.82 9.51
7/14/2021 1:30:00 PM 18.13 64.634 0.037 6.46 4.81 9.49
7/14/2021 1:45:00 PM 18.31 64.958 0.037 6.46 4.94 9.48
7/14/2021 2:00:00 PM 18.32 64.976 0.037 6.46 4.62 9.46
7/14/2021 2:15:00 PM 18.43 65.174 0.037 6.47 4.69 9.45
7/14/2021 2:30:00 PM 18.55 65.39 0.037 6.47 4.67 9.42
7/14/2021 2:45:00 PM 18.67 65.606 0.037 6.47 4.66 9.42
7/14/2021 3:00:00 PM 18.7 65.66 0.037 6.48 4.69 9.37
7/14/2021 3:15:00 PM 18.74 65.732 0.037 6.45 4.69 9.36
7/14/2021 3:30:00 PM 18.8 65.84 0.037 6.46 4.74 9.35
7/14/2021 3:45:00 PM 18.8 65.84 0.037 6.46 4.62 9.32
7/14/2021 4:00:00 PM 18.78 65.804 0.037 6.44 4.6 9.29
7/14/2021 4:15:00 PM 18.73 65.714 0.037 6.43 4.38 9.27
7/14/2021 4:30:00 PM 18.7 65.66 0.037 6.41 4.43 9.26
7/14/2021 4:45:00 PM 18.73 65.714 0.037 6.42 4.85 9.27
7/14/2021 5:00:00 PM 18.71 65.67799 0.037 6.4 4.31 9.25
7/14/2021 5:15:00 PM 18.68 65.624 0.037 6.39 5.16 9.23
7/14/2021 5:30:00 PM 18.63 65.534 0.037 6.38 4.62 9.22
7/14/2021 5:45:00 PM 18.59 65.462 0.037 6.37 4.25 9.2
7/14/2021 6:00:00 PM 18.54 65.372 0.037 6.36 4.24 9.19
7/14/2021 6:15:00 PM 18.48 65.264 0.038 6.34 4.46 9.19
7/14/2021 6:30:00 PM 18.43 65.174 0.038 6.32 4.49 9.18
7/14/2021 6:45:00 PM 18.39 65.102 0.038 6.32 4.45 9.17
7/14/2021 7:00:00 PM 18.33 64.994 0.038 6.31 4.5 9.17
7/14/2021 7:15:00 PM 18.27 64.886 0.038 6.3 4.02 9.17
7/14/2021 7:30:00 PM 18.21 64.778 0.038 6.29 4.39 9.16
7/14/2021 7:45:00 PM 18.15 64.67 0.038 6.29 4.51 9.15
7/14/2021 8:00:00 PM 18.09 64.562 0.038 6.27 4.53 9.15
7/14/2021 8:15:00 PM 18.03 64.454 0.038 6.26 4.26 9.16
7/14/2021 8:30:00 PM 17.97 64.346 0.038 6.26 4.45 9.15
7/14/2021 8:45:00 PM 17.91 64.238 0.038 6.24 4.32 9.15
7/14/2021 9:00:00 PM 17.85 64.13 0.038 6.24 4.96 9.15
7/14/2021 9:15:00 PM 17.8 64.04 0.038 6.25 4.48 9.16
7/14/2021 9:30:00 PM 17.75 63.95 0.038 6.23 4.32 9.17
7/14/2021 9:45:00 PM 17.7 63.86 0.038 6.24 4.77 9.17
7/14/2021 10:00:00 PM 17.65 63.77 0.038 6.23 4.38 9.19
7/14/2021 10:15:00 PM 17.6 63.68 0.038 6.24 4.22 9.2
7/14/2021 10:30:00 PM 17.56 63.608 0.038 6.24 4.44 9.21
7/14/2021 10:45:00 PM 17.51 63.518 0.038 6.24 4.45 9.22
7/14/2021 11:00:00 PM 17.46 63.428 0.038 6.24 4.37 9.23
7/14/2021 11:15:00 PM 17.42 63.356 0.038 6.25 4.37 9.24
7/14/2021 11:30:00 PM 17.38 63.284 0.038 6.25 3.86 9.24
7/14/2021 11:45:00 PM 17.33 63.194 0.038 6.25 4.07 9.25
7/15/2021 12:00:00 AM 17.29 63.122 0.038 6.24 4 9.26
7/15/2021 12:15:00 AM 17.25 63.05 0.038 6.24 4.17 9.27
7/15/2021 12:30:00 AM 17.21 62.978 0.038 6.25 4.69 9.29
7/15/2021 12:45:00 AM 17.17 62.906 0.038 6.25 3.78 9.29
7/15/2021 1:00:00 AM 17.13 62.834 0.038 6.25 4.05 9.29
7/15/2021 1:15:00 AM 17.09 62.762 0.038 6.24 3.92 9.3
7/15/2021 1:30:00 AM 17.04 62.672 0.038 6.25 4.11 9.31
7/15/2021 1:45:00 AM 17 62.6 0.039 6.26 4.46 9.32
7/15/2021 2:00:00 AM 16.96 62.528 0.039 6.25 4.48 9.33
7/15/2021 2:15:00 AM 16.93 62.474 0.039 6.25 5.15 9.34
7/15/2021 2:30:00 AM 16.9 62.42 0.039 6.25 4.46 9.34
7/15/2021 2:45:00 AM 16.86 62.348 0.039 6.26 4.21 9.35
7/15/2021 3:00:00 AM 16.82 62.276 0.038 6.26 4.02 9.37
7/15/2021 3:15:00 AM 16.78 62.204 0.039 6.25 4.04 9.36
7/15/2021 3:30:00 AM 16.75 62.15 0.039 6.27 4.21 9.38
7/15/2021 3:45:00 AM 16.72 62.096 0.039 6.26 5.2 9.37
7/15/2021 4:00:00 AM 16.69 62.042 0.039 6.26 4.32 9.37
7/15/2021 4:15:00 AM 16.66 61.988 0.039 6.26 3.87 9.4
7/15/2021 4:30:00 AM 16.63 61.934 0.039 6.25 4.06 9.4
7/15/2021 4:45:00 AM 16.6 61.88 0.039 6.25 4.17 9.4
7/15/2021 5:00:00 AM 16.57 61.826 0.039 6.25 4.27 9.41
7/15/2021 5:15:00 AM 16.55 61.79 0.039 6.26 4.01 9.42
7/15/2021 5:30:00 AM 16.52 61.736 0.039 6.25 4.39 9.42
7/15/2021 5:45:00 AM 16.5 61.7 0.039 6.25 5.06 9.42
7/15/2021 6:00:00 AM 16.48 61.664 0.039 6.25 4.2 9.43
7/15/2021 6:15:00 AM 16.46 61.628 0.039 6.26 4.1 9.44
7/15/2021 6:30:00 AM 16.44 61.592 0.039 6.26 4.22 9.46
7/15/2021 6:45:00 AM 16.42 61.556 0.039 6.26 3.89 9.48
7/15/2021 7:00:00 AM 16.41 61.538 0.039 6.28 4 9.49
7/15/2021 7:15:00 AM 16.39 61.502 0.039 6.28 4.09 9.52
7/15/2021 7:30:00 AM 16.39 61.502 0.039 6.29 3.97 9.54
7/15/2021 7:45:00 AM 16.39 61.502 0.039 6.3 3.94 9.57
7/15/2021 8:00:00 AM 16.38 61.484 0.039 6.31 3.56 9.59
7/15/2021 8:15:00 AM 16.37 61.466 0.039 6.3 4.03 9.6
7/15/2021 8:30:00 AM 16.38 61.484 0.038 6.31 3.9 9.62
7/15/2021 8:45:00 AM 16.41 61.538 0.038 6.32 3.73 9.65
7/15/2021 9:00:00 AM 16.43 61.574 0.038 6.34 3.63 9.64
7/15/2021 9:15:00 AM 16.45 61.61 0.038 6.33 3.76 9.65
7/15/2021 9:30:00 AM 16.49 61.682 0.038 6.34 3.86 9.65
7/15/2021 9:45:00 AM 16.53 61.754 0.038 6.34 3.64 9.66
7/15/2021 10:00:00 AM 16.59 61.862 0.038 6.35 3.51 9.66
7/15/2021 10:15:00 AM 16.65 61.97 0.038 6.35 3.81 9.65
7/15/2021 10:30:00 AM 16.71 62.078 0.038 6.36 3.71 9.67
7/15/2021 10:45:00 AM 16.79 62.222 0.038 6.38 3.69 9.65
7/15/2021 11:00:00 AM 16.88 62.384 0.038 6.38 4.22 9.66
7/15/2021 11:15:00 AM 16.97 62.546 0.038 6.4 3.52 9.66
7/15/2021 11:30:00 AM 17.07 62.726 0.038 6.42 4.67 9.66
7/15/2021 11:45:00 AM 17.14 62.852 0.038 6.42 3.99 9.64
7/15/2021 12:00:00 PM 17.25 63.05 0.038 6.44 3.98 9.63
7/15/2021 12:15:00 PM 17.37 63.266 0.038 6.44 3.7 9.62
7/15/2021 12:30:00 PM 17.53 63.554 0.038 6.46 3.84 9.62
7/15/2021 12:45:00 PM 17.68 63.824 0.038 6.46 4.08 9.6
7/15/2021 1:00:00 PM 17.72 63.896 0.038 6.48 3.91 9.55
7/15/2021 1:15:00 PM 17.71 63.878 0.038 6.47 3.67 9.54
7/15/2021 1:30:00 PM 17.73 63.914 0.038 6.46 4.12 9.56
7/15/2021 1:45:00 PM 17.85 64.13 0.038 6.47 3.77 9.56
7/15/2021 2:00:00 PM 18.04 64.472 0.038 6.48 3.68 9.56
7/15/2021 2:15:00 PM 18.18 64.724 0.038 6.49 3.6 9.52
7/15/2021 2:30:00 PM 18.19 64.742 0.038 6.48 3.57 9.47
7/15/2021 2:45:00 PM 18.18 64.724 0.038 6.48 3.86 9.47
7/15/2021 3:00:00 PM 18.27 64.886 0.038 6.48 3.67 9.48
7/15/2021 3:15:00 PM 18.29 64.922 0.038 6.47 4.36 9.44
7/15/2021 3:30:00 PM 18.36 65.048 0.038 6.48 3.64 9.46
7/15/2021 3:45:00 PM 18.4 65.12 0.038 6.46 3.46 9.43
7/15/2021 4:00:00 PM 18.44 65.192 0.038 6.47 4 9.42
7/15/2021 4:15:00 PM 18.44 65.192 0.038 6.46 3.77 9.39
7/15/2021 4:30:00 PM 18.44 65.192 0.038 6.46 3.77 9.37
7/15/2021 4:45:00 PM 18.43 65.174 0.038 6.45 3.52 9.33
7/15/2021 5:00:00 PM 18.43 65.174 0.038 6.44 3.71 9.34
7/15/2021 5:15:00 PM 18.39 65.102 0.038 6.41 3.48 9.29
7/15/2021 5:30:00 PM 18.37 65.066 0.038 6.39 3.57 9.28
7/15/2021 5:45:00 PM 18.38 65.084 0.038 6.39 3.74 9.31
7/15/2021 6:00:00 PM 18.36 65.048 0.038 6.38 3.55 9.26
7/15/2021 6:15:00 PM 18.4 65.12 0.038 6.37 4.69 9.19
7/15/2021 6:30:00 PM 18.36 65.048 0.038 6.34 5.28 9.18
7/15/2021 6:45:00 PM 18.29 64.922 0.038 6.33 5.72 9.16
7/15/2021 7:00:00 PM 18.22 64.796 0.039 6.32 7.01 9.13
7/15/2021 7:15:00 PM 18.16 64.688 0.039 6.3 5.09 9.12
7/15/2021 7:30:00 PM 18.1 64.58 0.038 6.3 4.72 9.14
7/15/2021 7:45:00 PM 18.04 64.472 0.038 6.3 4.9 9.14
7/15/2021 8:00:00 PM 17.99 64.382 0.039 6.28 7.63 9.11
7/15/2021 8:15:00 PM 17.94 64.292 0.039 6.27 6.6 9.1
7/15/2021 8:30:00 PM 17.89 64.202 0.039 6.25 6.45 9.1
7/15/2021 8:45:00 PM 17.83 64.094 0.039 6.24 5.33 9.08
7/15/2021 9:00:00 PM 17.79 64.022 0.039 6.23 4.91 9.08
7/15/2021 9:15:00 PM 17.74 63.932 0.039 6.23 5.02 9.09
7/15/2021 9:30:00 PM 17.69 63.842 0.039 6.22 5.21 9.09
7/15/2021 9:45:00 PM 17.66 63.788 0.039 6.22 5.24 9.1
7/15/2021 10:00:00 PM 17.63 63.734 0.039 6.22 4.77 9.1
7/15/2021 10:15:00 PM 17.59 63.662 0.039 6.22 4.78 9.12
7/15/2021 10:30:00 PM 17.56 63.608 0.039 6.22 4.01 9.13
7/15/2021 10:45:00 PM 17.53 63.554 0.039 6.22 4.15 9.14
7/15/2021 11:00:00 PM 17.51 63.518 0.039 6.22 4.23 9.14
7/15/2021 11:15:00 PM 17.49 63.482 0.039 6.22 3.81 9.14
7/15/2021 11:30:00 PM 17.46 63.428 0.039 6.24 3.96 9.16
7/15/2021 11:45:00 PM 17.44 63.392 0.039 6.24 4 9.15
7/16/2021 12:00:00 AM 17.42 63.356 0.039 6.25 4.17 9.17
7/16/2021 12:15:00 AM 17.39 63.302 0.039 6.24 4.14 9.16
7/16/2021 12:30:00 AM 17.37 63.266 0.039 6.25 4.03 9.17
7/16/2021 12:45:00 AM 17.35 63.23 0.039 6.25 4.1 9.17
7/16/2021 1:00:00 AM 17.33 63.194 0.039 6.25 3.81 9.17
7/16/2021 1:15:00 AM 17.31 63.158 0.039 6.25 3.82 9.18
7/16/2021 1:30:00 AM 17.29 63.122 0.039 6.26 3.84 9.19
7/16/2021 1:45:00 AM 17.27 63.086 0.039 6.25 3.88 9.18
7/16/2021 2:00:00 AM 17.25 63.05 0.039 6.26 4.13 9.21
7/16/2021 2:15:00 AM 17.23 63.014 0.039 6.25 3.73 9.2
7/16/2021 2:30:00 AM 17.2 62.96 0.039 6.26 3.5 9.21
7/16/2021 2:45:00 AM 17.18 62.924 0.039 6.25 3.66 9.2
7/16/2021 3:00:00 AM 17.15 62.87 0.039 6.25 3.91 9.22
7/16/2021 3:15:00 AM 17.12 62.816 0.039 6.25 3.4 9.21
7/16/2021 3:30:00 AM 17.09 62.762 0.039 6.24 3.62 9.22
7/16/2021 3:45:00 AM 17.06 62.708 0.039 6.25 3.41 9.23
7/16/2021 4:00:00 AM 17.03 62.654 0.039 6.24 3.71 9.24
7/16/2021 4:15:00 AM 17.01 62.618 0.039 6.24 4.06 9.24
7/16/2021 4:30:00 AM 16.98 62.564 0.039 6.24 3.65 9.25
7/16/2021 4:45:00 AM 16.95 62.51 0.039 6.24 3.65 9.26
7/16/2021 5:00:00 AM 16.93 62.474 0.039 6.24 3.74 9.27
7/16/2021 5:15:00 AM 16.9 62.42 0.039 6.23 3.64 9.26
7/16/2021 5:30:00 AM 16.88 62.384 0.039 6.23 3.97 9.27
7/16/2021 5:45:00 AM 16.85 62.33 0.039 6.22 3.69 9.28
7/16/2021 6:00:00 AM 16.83 62.294 0.039 6.22 3.46 9.29
7/16/2021 6:15:00 AM 16.8 62.24 0.039 6.22 3.48 9.29
7/16/2021 6:30:00 AM 16.78 62.204 0.039 6.23 3.43 9.31
7/16/2021 6:45:00 AM 16.77 62.186 0.039 6.23 3.57 9.34
7/16/2021 7:00:00 AM 16.76 62.168 0.039 6.23 3.41 9.37
7/16/2021 7:15:00 AM 16.76 62.168 0.039 6.23 3.5 9.39
7/16/2021 7:30:00 AM 16.76 62.168 0.039 6.24 3.56 9.43
7/16/2021 7:45:00 AM 16.76 62.168 0.039 6.25 3.31 9.44
7/16/2021 8:00:00 AM 16.76 62.168 0.039 6.25 3.34 9.46
7/16/2021 8:15:00 AM 16.76 62.168 0.039 6.25 3.36 9.46
7/16/2021 8:30:00 AM 16.75 62.15 0.039 6.25 3.43 9.47
7/16/2021 8:45:00 AM 16.78 62.204 0.039 6.25 3.49 9.5
7/16/2021 9:00:00 AM 16.8 62.24 0.039 6.26 3.6 9.5
7/16/2021 9:15:00 AM 16.84 62.312 0.039 6.27 3.35 9.52
7/16/2021 9:30:00 AM 16.88 62.384 0.039 6.28 3.45 9.52
7/16/2021 9:45:00 AM 16.94 62.492 0.039 6.3 3.54 9.55
7/16/2021 10:00:00 AM 17.02 62.636 0.039 6.31 3.32 9.57
7/16/2021 10:15:00 AM 17.1 62.78 0.039 6.34 3.49 9.6
7/16/2021 10:30:00 AM 17.19 62.942 0.039 6.36 3.37 9.62
7/16/2021 10:45:00 AM 17.29 63.122 0.039 6.37 3.44 9.62
7/16/2021 11:00:00 AM 17.31 63.158 0.039 6.38 3.28 9.57
7/16/2021 11:15:00 AM 17.29 63.122 0.039 6.37 3.26 9.51
7/16/2021 11:30:00 AM 17.31 63.158 0.039 6.38 3.27 9.55
7/16/2021 11:45:00 AM 17.36 63.248 0.039 6.39 3.75 9.58
7/16/2021 12:00:00 PM 17.42 63.356 0.039 6.4 3.22 9.61
7/16/2021 12:15:00 PM 17.47 63.446 0.039 6.4 3.46 9.6
7/16/2021 12:30:00 PM 17.56 63.608 0.038 6.42 3.27 9.63
7/16/2021 12:45:00 PM 17.66 63.788 0.038 6.43 3.77 9.62
7/16/2021 1:00:00 PM 17.78 64.004 0.038 6.43 3.22 9.58
7/16/2021 1:15:00 PM 17.91 64.238 0.038 6.43 3.14 9.53
7/16/2021 1:30:00 PM 17.99 64.382 0.038 6.44 3.2 9.52
7/16/2021 1:45:00 PM 18.05 64.49 0.038 6.44 3.22 9.52
7/16/2021 2:00:00 PM 18.11 64.598 0.038 6.43 3.33 9.49
7/16/2021 2:15:00 PM 18.12 64.616 0.038 6.44 3.18 9.43
7/16/2021 2:30:00 PM 18.15 64.67 0.038 6.42 3.12 9.44
7/16/2021 2:45:00 PM 18.16 64.688 0.038 6.41 3.25 9.43
7/16/2021 3:00:00 PM 18.22 64.796 0.038 6.41 3.37 9.4
7/16/2021 3:15:00 PM 18.22 64.796 0.038 6.41 3.52 9.36
7/16/2021 3:30:00 PM 18.17 64.706 0.038 6.4 3.19 9.34
7/16/2021 3:45:00 PM 18.11 64.598 0.039 6.37 3.1 9.23
7/16/2021 4:00:00 PM 18.22 64.796 0.037 6.35 4.86 9.15
7/16/2021 4:15:00 PM 18.38 65.084 0.036 6.33 7.16 9.09
7/16/2021 4:30:00 PM 18.47 65.246 0.036 6.28 37.81 9.05
7/16/2021 4:45:00 PM 18.54 65.372 0.036 6.29 53.59 9.01
7/16/2021 5:00:00 PM 18.39 65.102 0.035 6.28 66.51 9.07
7/16/2021 5:15:00 PM 18.36 65.048 0.035 6.26 97.82 9.05
7/16/2021 5:30:00 PM 18.29 64.922 0.035 6.22 114.16 9.06
7/16/2021 5:45:00 PM 18.14 64.652 0.038 6.24 124.07 9.11
7/16/2021 6:00:00 PM 17.96 64.328 0.038 6.26 97.12 9.16
7/16/2021 6:15:00 PM 17.8 64.04 0.038 6.23 75.53 9.2
7/16/2021 6:30:00 PM 17.63 63.734 0.038 6.2 68.36 9.23
7/16/2021 6:45:00 PM 17.52 63.536 0.038 6.19 59.82 9.28
7/16/2021 7:00:00 PM 17.43 63.374 0.038 6.19 52.18 9.31
7/16/2021 7:15:00 PM 17.33 63.194 0.038 6.18 43.83 9.33
7/16/2021 7:30:00 PM 17.24 63.032 0.038 6.17 41.13 9.34
7/16/2021 7:45:00 PM 17.15 62.87 0.038 6.15 37.96 9.36
7/16/2021 8:00:00 PM 17.06 62.708 0.038 6.15 38.9 9.37
7/16/2021 8:15:00 PM 16.97 62.546 0.038 6.15 34.3 9.38
7/16/2021 8:30:00 PM 16.88 62.384 0.038 6.13 30.95 9.4
7/16/2021 8:45:00 PM 16.81 62.258 0.038 6.15 29.39 9.41
7/16/2021 9:00:00 PM 16.75 62.15 0.038 6.14 27.22 9.43
7/16/2021 9:15:00 PM 16.68 62.024 0.038 6.15 28.44 9.45
7/16/2021 9:30:00 PM 16.62 61.916 0.038 6.15 26.02 9.45
7/16/2021 9:45:00 PM 16.56 61.808 0.038 6.16 25.19 9.48
7/16/2021 10:00:00 PM 16.49 61.682 0.038 6.16 23.79 9.49
7/16/2021 10:15:00 PM 16.43 61.574 0.038 6.16 21.22 9.5
7/16/2021 10:30:00 PM 16.38 61.484 0.038 6.17 20.88 9.52
7/16/2021 10:45:00 PM 16.33 61.394 0.038 6.17 19.54 9.52
7/16/2021 11:00:00 PM 16.28 61.304 0.038 6.16 18.77 9.53
7/16/2021 11:15:00 PM 16.23 61.214 0.038 6.17 18.38 9.54
7/16/2021 11:30:00 PM 16.18 61.124 0.038 6.16 18.83 9.56
7/16/2021 11:45:00 PM 16.14 61.052 0.038 6.16 17.26 9.56
7/17/2021 12:00:00 AM 16.1 60.98 0.038 6.16 19.06 9.58
7/17/2021 12:15:00 AM 16.05 60.89 0.039 6.15 16.75 9.58
7/17/2021 12:30:00 AM 16.01 60.818 0.039 6.16 15.53 9.59
7/17/2021 12:45:00 AM 15.97 60.746 0.039 6.16 15.03 9.6
7/17/2021 1:00:00 AM 15.94 60.692 0.039 6.15 14.39 9.61
7/17/2021 1:15:00 AM 15.9 60.62 0.039 6.15 14.03 9.62
7/17/2021 1:30:00 AM 15.86 60.548 0.039 6.15 15.99 9.63
7/17/2021 1:45:00 AM 15.82 60.476 0.039 6.15 14 9.63
7/17/2021 2:00:00 AM 15.79 60.422 0.039 6.16 13.97 9.64
7/17/2021 2:15:00 AM 15.75 60.35 0.039 6.15 13.76 9.65
7/17/2021 2:30:00 AM 15.71 60.278 0.039 6.14 13.43 9.66
7/17/2021 2:45:00 AM 15.67 60.206 0.039 6.15 14.91 9.66
7/17/2021 3:00:00 AM 15.64 60.152 0.039 6.16 12.95 9.67
7/17/2021 3:15:00 AM 15.61 60.098 0.039 6.15 11.74 9.68
7/17/2021 3:30:00 AM 15.57 60.026 0.039 6.16 12.91 9.69
7/17/2021 3:45:00 AM 15.54 59.972 0.039 6.15 12.23 9.7
7/17/2021 4:00:00 AM 15.5 59.9 0.039 6.15 12.06 9.71
7/17/2021 4:15:00 AM 15.47 59.846 0.039 6.16 12.25 9.72
7/17/2021 4:30:00 AM 15.44 59.792 0.039 6.15 13.46 9.72
7/17/2021 4:45:00 AM 15.41 59.738 0.039 6.16 11.43 9.73
7/17/2021 5:00:00 AM 15.38 59.684 0.039 6.16 10.98 9.74
7/17/2021 5:15:00 AM 15.36 59.648 0.039 6.15 11.97 9.74
7/17/2021 5:30:00 AM 15.32 59.576 0.039 6.16 11.25 9.75
7/17/2021 5:45:00 AM 15.3 59.54 0.039 6.16 12.35 9.75
7/17/2021 6:00:00 AM 15.27 59.486 0.039 6.16 11.1 9.77
7/17/2021 6:15:00 AM 15.24 59.432 0.039 6.15 10.77 9.78
7/17/2021 6:30:00 AM 15.22 59.396 0.039 6.17 10.6 9.79
7/17/2021 6:45:00 AM 15.2 59.36 0.039 6.17 10.37 9.8
7/17/2021 7:00:00 AM 15.18 59.324 0.039 6.17 9.94 9.81
7/17/2021 7:15:00 AM 15.16 59.288 0.039 6.18 10.33 9.81
7/17/2021 7:30:00 AM 15.14 59.252 0.039 6.18 9.68 9.84
7/17/2021 7:45:00 AM 15.12 59.216 0.039 6.2 10.31 9.85
7/17/2021 8:00:00 AM 15.1 59.18 0.039 6.19 9.27 9.85
7/17/2021 8:15:00 AM 15.09 59.162 0.039 6.2 10.21 9.86
7/17/2021 8:30:00 AM 15.09 59.162 0.039 6.19 9.85 9.89
7/17/2021 8:45:00 AM 15.09 59.162 0.039 6.21 9.16 9.92
7/17/2021 9:00:00 AM 15.1 59.18 0.039 6.22 9.12 9.94
7/17/2021 9:15:00 AM 15.11 59.198 0.039 6.22 9.11 9.94
7/17/2021 9:30:00 AM 15.09 59.162 0.039 6.22 9.17 9.91
7/17/2021 9:45:00 AM 15.12 59.216 0.039 6.22 9.46 9.88
7/17/2021 10:00:00 AM 15.12 59.216 0.039 6.22 9.32 9.91
7/17/2021 10:15:00 AM 15.13 59.234 0.039 6.22 8.68 9.91
7/17/2021 10:30:00 AM 15.16 59.288 0.039 6.22 10.03 9.93
7/17/2021 10:45:00 AM 15.18 59.324 0.038 6.24 9.65 9.95
7/17/2021 11:00:00 AM 15.25 59.45 0.038 6.25 9.91 9.97
7/17/2021 11:15:00 AM 15.28 59.504 0.038 6.26 9.25 9.98
7/17/2021 11:30:00 AM 15.32 59.576 0.038 6.26 9.2 9.96
7/17/2021 11:45:00 AM 15.33 59.594 0.038 6.27 8.72 9.96
7/17/2021 12:00:00 PM 15.36 59.648 0.038 6.27 8.57 9.96
7/17/2021 12:15:00 PM 15.44 59.792 0.038 6.28 8.86 9.95
7/17/2021 12:30:00 PM 15.54 59.972 0.038 6.3 8.34 9.96
7/17/2021 12:45:00 PM 15.6 60.08 0.038 6.32 8.7 9.95
7/17/2021 1:00:00 PM 15.6 60.08 0.038 6.31 8.4 9.92
7/17/2021 1:15:00 PM 15.57 60.026 0.038 6.29 8.88 9.86
7/17/2021 1:30:00 PM 15.57 60.026 0.038 6.28 8.69 9.8
7/17/2021 1:45:00 PM 15.86 60.548 0.037 6.28 9.52 9.73
7/17/2021 2:00:00 PM 16.04 60.872 0.037 6.29 55.34 9.66
7/17/2021 2:15:00 PM 16.05 60.89 0.037 6.26 27.69 9.69
7/17/2021 2:30:00 PM 16.12 61.016 0.036 6.27 69.03 9.69
7/17/2021 2:45:00 PM 16.11 60.998 0.036 6.23 93.13 9.65
7/17/2021 3:00:00 PM 16.08 60.944 0.037 6.22 122.46 9.63
7/17/2021 3:15:00 PM 16.08 60.944 0.038 6.24 111.93 9.64
7/17/2021 3:30:00 PM 15.96 60.728 0.039 6.25 99.28 9.66
7/17/2021 3:45:00 PM 15.86 60.548 0.04 6.26 95.7 9.68
7/17/2021 4:00:00 PM 15.73 60.314 0.038 6.23 86.37 9.7
7/17/2021 4:15:00 PM 15.62 60.116 0.038 6.2 76.01 9.72
7/17/2021 4:30:00 PM 15.54 59.972 0.037 6.18 69.56 9.74
7/17/2021 4:45:00 PM 15.48 59.864 0.037 6.17 63.02 9.75
7/17/2021 5:00:00 PM 15.43 59.774 0.037 6.15 61.94 9.76
7/17/2021 5:15:00 PM 15.35 59.63 0.036 6.14 56.74 9.77
7/17/2021 5:30:00 PM 15.28 59.504 0.036 6.13 54.92 9.8
7/17/2021 5:45:00 PM 15.21 59.378 0.036 6.12 58.06 9.82
7/17/2021 6:00:00 PM 15.15 59.27 0.036 6.11 63.02 9.83
7/17/2021 6:15:00 PM 15.12 59.216 0.035 6.11 55.25 9.84
7/17/2021 6:30:00 PM 15.08 59.144 0.035 6.1 53.22 9.85
7/17/2021 6:45:00 PM 15.04 59.072 0.035 6.1 51.51 9.86
7/17/2021 7:00:00 PM 15 59 0.035 6.09 44.35 9.87
7/17/2021 7:15:00 PM 14.95 58.91 0.035 6.11 43.13 9.88
7/17/2021 7:30:00 PM 14.9 58.82 0.035 6.09 31.08 9.89
7/17/2021 7:45:00 PM 14.85 58.73 0.035 6.08 41.69 9.9
7/17/2021 8:00:00 PM 14.8 58.64 0.035 6.08 41.32 9.91
7/17/2021 8:15:00 PM 14.76 58.568 0.035 6.07 35.39 9.91
7/17/2021 8:30:00 PM 14.71 58.478 0.035 6.07 36.77 9.92
7/17/2021 8:45:00 PM 14.66 58.388 0.035 6.06 35.08 9.93
7/17/2021 9:00:00 PM 14.62 58.316 0.035 6.05 31.62 9.93
7/17/2021 9:15:00 PM 14.58 58.244 0.035 6.05 31.2 9.94
7/17/2021 9:30:00 PM 14.54 58.172 0.035 6.03 31.13 9.95
7/17/2021 9:45:00 PM 14.51 58.118 0.035 6.04 30.12 9.96
7/17/2021 10:00:00 PM 14.47 58.046 0.035 6.03 28.69 9.97
7/17/2021 10:15:00 PM 14.44 57.992 0.036 6.03 27.41 9.98
7/17/2021 10:30:00 PM 14.4 57.92 0.036 6.02 26.67 9.98
7/17/2021 10:45:00 PM 14.37 57.866 0.036 6.03 25.96 9.99
7/17/2021 11:00:00 PM 14.35 57.83 0.036 6.01 26.02 9.99
7/17/2021 11:15:00 PM 14.32 57.776 0.036 6.02 25.06 10
7/17/2021 11:30:00 PM 14.29 57.722 0.036 6.02 24.35 10
7/17/2021 11:45:00 PM 14.27 57.686 0.036 6.03 23.67 10.01
7/18/2021 12:00:00 AM 14.26 57.668 0.036 6.03 21.97 10.02
7/18/2021 12:15:00 AM 14.24 57.632 0.036 6.06 22.98 10.03
7/18/2021 12:30:00 AM 14.22 57.596 0.036 6.08 22.64 10.04
7/18/2021 12:45:00 AM 14.2 57.56 0.036 6.09 22.08 10.04
7/18/2021 1:00:00 AM 14.19 57.542 0.036 6.1 22.83 10.04
7/18/2021 1:15:00 AM 14.18 57.524 0.035 6.12 21.04 10.06
7/18/2021 1:30:00 AM 14.16 57.488 0.035 6.11 21.94 10.06
7/18/2021 1:45:00 AM 14.14 57.452 0.035 6.12 20.62 10.07
7/18/2021 2:00:00 AM 14.12 57.416 0.035 6.12 19.33 10.07
7/18/2021 2:15:00 AM 14.1 57.38 0.035 6.12 18.75 10.08
7/18/2021 2:30:00 AM 14.08 57.344 0.035 6.12 19.67 10.09
7/18/2021 2:45:00 AM 14.05 57.29 0.035 6.11 20.06 10.09
7/18/2021 3:00:00 AM 14.05 57.29 0.035 6.11 20.02 10.1
7/18/2021 3:15:00 AM 14.04 57.272 0.035 6.12 20.59 10.09
7/18/2021 3:30:00 AM 14.03 57.254 0.035 6.12 21.72 10.1
7/18/2021 3:45:00 AM 14.03 57.254 0.034 6.1 22.79 10.09
7/18/2021 4:00:00 AM 14.05 57.29 0.034 6.08 23.89 10.1
7/18/2021 4:30:00 AM 14.09 57.362 0.034 6.07 31.07 10.09
7/18/2021 4:45:00 AM 14.14 57.452 0.034 6.06 35.81 10.08
7/18/2021 5:00:00 AM 14.18 57.524 0.033 6.07 41.35 10.06
7/18/2021 5:15:00 AM 14.22 57.596 0.033 6.05 44.57 10.06
7/18/2021 5:30:00 AM 14.26 57.668 0.033 6.04 44.76 10.06
7/18/2021 5:45:00 AM 14.29 57.722 0.033 6.04 44.59 10.06
7/18/2021 6:00:00 AM 14.3 57.74 0.033 6.03 47.54 10.05
7/18/2021 6:15:00 AM 14.34 57.812 0.032 6.01 52.71 10.05
7/18/2021 6:30:00 AM 14.37 57.866 0.032 6 50.44 10.05
7/18/2021 6:45:00 AM 14.4 57.92 0.032 6 52.55 10.04
7/18/2021 7:00:00 AM 14.43 57.974 0.031 5.99 56.76 10.04
7/18/2021 7:15:00 AM 14.47 58.046 0.031 5.99 50.72 10.04
7/18/2021 7:30:00 AM 14.48 58.064 0.031 5.98 52.21 10.03
7/18/2021 7:45:00 AM 14.49 58.082 0.031 5.98 48.18 10.03
7/18/2021 8:00:00 AM 14.51 58.118 0.03 5.97 46.56 10.03
7/18/2021 8:15:00 AM 14.51 58.118 0.03 5.99 43.32 10.03
7/18/2021 8:30:00 AM 14.51 58.118 0.03 5.98 48.76 10.04
7/18/2021 8:45:00 AM 14.51 58.118 0.03 5.96 37.65 10.05
7/18/2021 9:00:00 AM 14.51 58.118 0.03 5.97 34.52 10.05
7/18/2021 9:15:00 AM 14.51 58.118 0.03 5.97 33.54 10.06
7/18/2021 9:30:00 AM 14.51 58.118 0.03 5.98 31.37 10.06
7/18/2021 9:45:00 AM 14.5 58.1 0.03 5.95 31.09 10.07
7/18/2021 10:00:00 AM 14.5 58.1 0.03 5.97 26.18 10.08
7/18/2021 10:15:00 AM 14.5 58.1 0.03 5.97 25.53 10.09
7/18/2021 10:30:00 AM 14.5 58.1 0.03 5.96 24.97 10.09
7/18/2021 10:45:00 AM 14.49 58.082 0.03 5.95 21.75 10.1
7/18/2021 11:00:00 AM 14.47 58.046 0.03 5.98 21.63 10.1
7/18/2021 11:15:00 AM 14.47 58.046 0.03 5.99 21.03 10.11
7/18/2021 11:30:00 AM 14.46 58.028 0.03 5.98 19.76 10.11
7/18/2021 11:45:00 AM 14.45 58.01 0.03 5.98 18.92 10.12
7/18/2021 12:00:00 PM 14.44 57.992 0.03 5.99 18.39 10.12
7/18/2021 12:15:00 PM 14.44 57.992 0.03 6 17.47 10.12
7/18/2021 12:30:00 PM 14.43 57.974 0.03 5.99 17.88 10.12
7/18/2021 12:45:00 PM 14.43 57.974 0.03 6.01 16.32 10.13
7/18/2021 1:00:00 PM 14.42 57.956 0.03 6 16.23 10.14
7/18/2021 1:15:00 PM 14.43 57.974 0.03 6 16.45 10.14
7/18/2021 1:30:00 PM 14.44 57.992 0.03 6.01 15.9 10.14
7/18/2021 1:45:00 PM 14.46 58.028 0.03 6.02 15.4 10.15
7/18/2021 2:00:00 PM 14.48 58.064 0.031 6.03 15.38 10.15
7/18/2021 2:15:00 PM 14.52 58.136 0.031 6.03 14.11 10.14
7/18/2021 2:30:00 PM 14.53 58.154 0.031 6.03 15.26 10.14
7/18/2021 2:45:00 PM 14.61 58.298 0.031 6.05 14.79 10.13
7/18/2021 3:00:00 PM 14.64 58.352 0.031 6.06 13.48 10.12
7/18/2021 3:15:00 PM 14.68 58.424 0.031 6.04 13.67 10.11
7/18/2021 3:30:00 PM 14.69 58.442 0.031 6.05 13.74 10.1
7/18/2021 3:45:00 PM 14.72 58.496 0.031 6.07 13.51 10.1
7/18/2021 4:00:00 PM 14.72 58.496 0.031 6.05 13.45 10.09
7/18/2021 4:15:00 PM 14.73 58.514 0.031 6.05 13.4 10.08
7/18/2021 4:30:00 PM 14.72 58.496 0.031 6.04 13.21 10.07
7/18/2021 4:45:00 PM 14.73 58.514 0.031 6.05 12.45 10.06
7/18/2021 5:00:00 PM 14.73 58.514 0.031 6.05 12.52 10.06
7/18/2021 5:15:00 PM 14.71 58.478 0.031 6.04 12.09 10.06
7/18/2021 5:30:00 PM 14.69 58.442 0.031 6.04 12.26 10.05
7/18/2021 5:45:00 PM 14.67 58.406 0.031 6.04 12.19 10.05
7/18/2021 6:00:00 PM 14.63 58.334 0.031 6.02 11.76 10.05
7/18/2021 6:15:00 PM 14.61 58.298 0.031 6.01 11.39 10.05
7/18/2021 6:30:00 PM 14.59 58.262 0.031 6.02 11.39 10.05
7/18/2021 6:45:00 PM 14.56 58.208 0.031 6.01 10.73 10.05
7/18/2021 7:00:00 PM 14.53 58.154 0.031 6 10.76 10.05
7/18/2021 7:15:00 PM 14.5 58.1 0.031 6 10.86 10.05
7/18/2021 7:30:00 PM 14.47 58.046 0.031 6 10.36 10.05
7/18/2021 7:45:00 PM 14.43 57.974 0.032 5.98 10.5 10.06
7/18/2021 8:00:00 PM 14.4 57.92 0.032 6 10.5 10.06
7/18/2021 8:15:00 PM 14.36 57.848 0.032 6 10.72 10.06
7/18/2021 8:30:00 PM 14.33 57.794 0.032 5.97 9.84 10.07
7/18/2021 8:45:00 PM 14.3 57.74 0.032 5.99 10.62 10.07
7/18/2021 9:00:00 PM 14.26 57.668 0.032 5.98 10.29 10.09
7/18/2021 9:15:00 PM 14.23 57.614 0.032 5.98 10.89 10.08
7/18/2021 9:30:00 PM 14.2 57.56 0.032 6 10.5 10.1
7/18/2021 9:45:00 PM 14.18 57.524 0.032 5.98 10.34 10.1
7/18/2021 10:00:00 PM 14.15 57.47 0.032 5.98 10.03 10.11
7/18/2021 10:15:00 PM 14.12 57.416 0.032 5.99 10.2 10.11
7/18/2021 10:30:00 PM 14.09 57.362 0.032 5.99 9.76 10.12
7/18/2021 10:45:00 PM 14.05 57.29 0.032 5.99 9.86 10.12
7/18/2021 11:00:00 PM 14.03 57.254 0.032 5.99 9.67 10.14
7/18/2021 11:15:00 PM 14 57.2 0.032 6 9.2 10.14
7/18/2021 11:30:00 PM 13.97 57.146 0.032 5.99 9.53 10.16
7/18/2021 11:45:00 PM 13.94 57.092 0.032 6 8.83 10.16
7/19/2021 12:00:00 AM 13.91 57.038 0.032 5.99 8.91 10.16
7/19/2021 12:15:00 AM 13.89 57.002 0.032 5.98 10.29 10.17
7/19/2021 12:30:00 AM 13.86 56.948 0.032 5.99 8.85 10.18
7/19/2021 12:45:00 AM 13.83 56.894 0.032 5.99 8.56 10.18
7/19/2021 1:00:00 AM 13.81 56.858 0.032 5.98 8.67 10.19
7/19/2021 1:15:00 AM 13.79 56.822 0.032 6 8.71 10.19
7/19/2021 1:30:00 AM 13.77 56.786 0.032 6 8.53 10.21
7/19/2021 1:45:00 AM 13.75 56.75 0.032 5.99 8.66 10.2
7/19/2021 2:00:00 AM 13.72 56.696 0.032 5.99 8.78 10.2
7/19/2021 2:15:00 AM 13.7 56.66 0.032 6 8.7 10.21
7/19/2021 2:30:00 AM 13.68 56.624 0.032 5.98 8.73 10.22
7/19/2021 2:45:00 AM 13.66 56.588 0.032 5.99 8.16 10.22
7/19/2021 3:00:00 AM 13.65 56.57 0.032 5.99 9.04 10.23
7/19/2021 3:15:00 AM 13.63 56.534 0.032 5.98 8.62 10.23
7/19/2021 3:30:00 AM 13.62 56.516 0.032 5.99 8.3 10.23
7/19/2021 3:45:00 AM 13.6 56.48 0.032 5.99 8.48 10.23
7/19/2021 4:00:00 AM 13.59 56.462 0.032 5.98 7.8 10.24
7/19/2021 4:15:00 AM 13.57 56.426 0.032 5.98 8.04 10.24
7/19/2021 4:30:00 AM 13.55 56.39 0.032 5.98 8.1 10.24
7/19/2021 4:45:00 AM 13.54 56.372 0.032 5.99 7.86 10.25
7/19/2021 5:00:00 AM 13.52 56.336 0.032 5.98 7.46 10.25
7/19/2021 5:15:00 AM 13.51 56.318 0.032 6 7.95 10.26
7/19/2021 5:30:00 AM 13.5 56.3 0.032 5.99 8.16 10.26
7/19/2021 5:45:00 AM 13.48 56.264 0.032 5.98 8.38 10.26
7/19/2021 6:00:00 AM 13.47 56.246 0.032 5.98 7.74 10.27
7/19/2021 6:15:00 AM 13.46 56.228 0.032 5.99 7.58 10.27
7/19/2021 6:30:00 AM 13.45 56.21 0.032 5.98 7.54 10.27
7/19/2021 6:45:00 AM 13.44 56.192 0.032 5.97 8.26 10.28
7/19/2021 7:00:00 AM 13.43 56.174 0.032 5.98 7.68 10.29
7/19/2021 7:15:00 AM 13.42 56.156 0.032 5.99 7.71 10.29
7/19/2021 7:30:00 AM 13.42 56.156 0.032 5.99 7.79 10.3
7/19/2021 7:45:00 AM 13.41 56.138 0.032 6.01 7.38 10.31
7/19/2021 8:00:00 AM 13.41 56.138 0.032 6 7.37 10.32
7/19/2021 8:15:00 AM 13.42 56.156 0.032 5.99 7.25 10.33
7/19/2021 8:30:00 AM 13.42 56.156 0.032 6 7.27 10.33
7/19/2021 8:45:00 AM 13.43 56.174 0.032 6.01 7.35 10.34
7/19/2021 9:00:00 AM 13.44 56.192 0.032 6.01 7.11 10.34
7/19/2021 9:15:00 AM 13.45 56.21 0.032 6.02 6.56 10.34
7/19/2021 9:30:00 AM 13.48 56.264 0.032 6.02 7.42 10.34
7/19/2021 9:45:00 AM 13.51 56.318 0.032 6.02 7.09 10.35
7/19/2021 10:00:00 AM 13.53 56.354 0.032 6.01 6.87 10.34
7/19/2021 10:15:00 AM 13.57 56.426 0.032 6.02 7.07 10.34
7/19/2021 10:30:00 AM 13.6 56.48 0.032 6.03 6.81 10.34
7/19/2021 10:45:00 AM 13.65 56.57 0.032 6.04 6.48 10.33
7/19/2021 11:00:00 AM 13.69 56.642 0.032 6.04 6.54 10.32
7/19/2021 11:15:00 AM 13.75 56.75 0.032 6.05 6.54 10.31
7/19/2021 11:30:00 AM 13.81 56.858 0.032 6.05 6.62 10.31
7/19/2021 11:45:00 AM 13.88 56.984 0.032 6.07 6.91 10.28
7/19/2021 12:00:00 PM 13.96 57.128 0.032 6.07 6.82 10.28
7/19/2021 12:15:00 PM 14.04 57.272 0.032 6.08 6.51 10.26
7/19/2021 12:30:00 PM 14.13 57.434 0.032 6.09 6.47 10.24
7/19/2021 12:45:00 PM 14.21 57.578 0.032 6.09 6.76 10.23
7/19/2021 1:00:00 PM 14.29 57.722 0.031 6.09 6.89 10.22
7/19/2021 1:15:00 PM 14.37 57.866 0.031 6.1 6.5 10.2
7/19/2021 1:30:00 PM 14.47 58.046 0.031 6.11 6.66 10.18
7/19/2021 1:45:00 PM 14.54 58.172 0.031 6.11 6.7 10.17
7/19/2021 2:00:00 PM 14.64 58.352 0.031 6.13 6.68 10.15
7/19/2021 2:15:00 PM 14.7 58.46 0.031 6.13 6.58 10.13
7/19/2021 2:30:00 PM 14.74 58.532 0.031 6.13 6.27 10.12
7/19/2021 2:45:00 PM 14.77 58.586 0.031 6.13 6.91 10.11
7/19/2021 3:00:00 PM 14.8 58.64 0.031 6.12 6.98 10.1
7/19/2021 3:15:00 PM 14.85 58.73 0.031 6.13 6.71 10.08
7/19/2021 3:30:00 PM 14.89 58.802 0.031 6.12 6.74 10.07
7/19/2021 3:45:00 PM 14.9 58.82 0.031 6.13 6.95 10.06
7/19/2021 4:00:00 PM 14.92 58.856 0.031 6.12 6.46 10.05
7/19/2021 4:15:00 PM 14.94 58.892 0.031 6.13 6.65 10.03
7/19/2021 4:30:00 PM 14.95 58.91 0.031 6.11 6.65 10.02
7/19/2021 4:45:00 PM 14.95 58.91 0.032 6.12 6.56 10.01
7/19/2021 5:00:00 PM 14.94 58.892 0.032 6.1 6.29 10
7/19/2021 5:15:00 PM 14.95 58.91 0.032 6.09 6.5 9.99
7/19/2021 5:30:00 PM 14.95 58.91 0.032 6.08 6.66 9.98
7/19/2021 5:45:00 PM 14.95 58.91 0.032 6.08 6.71 9.98
7/19/2021 6:00:00 PM 14.93 58.874 0.032 6.08 6.55 9.97
7/19/2021 6:15:00 PM 14.92 58.856 0.032 6.06 7.43 9.97
7/19/2021 6:30:00 PM 14.9 58.82 0.032 6.06 6.41 9.96
7/19/2021 6:45:00 PM 14.89 58.802 0.032 6.05 6.31 9.96
7/19/2021 7:00:00 PM 14.87 58.766 0.032 6.03 6.32 9.95
7/19/2021 7:15:00 PM 14.85 58.73 0.032 6.03 6.2 9.95
7/19/2021 7:30:00 PM 14.83 58.694 0.032 6.02 6.42 9.94
7/19/2021 7:45:00 PM 14.81 58.658 0.032 6 7.14 9.93
7/19/2021 8:00:00 PM 14.79 58.622 0.032 5.99 6.76 9.93
7/19/2021 8:15:00 PM 14.77 58.586 0.032 5.99 6.3 9.93
7/19/2021 8:30:00 PM 14.74 58.532 0.032 5.97 5.87 9.92
7/19/2021 8:45:00 PM 14.72 58.496 0.032 5.97 6.01 9.93
7/19/2021 9:00:00 PM 14.69 58.442 0.032 5.98 6.38 9.93
7/19/2021 9:15:00 PM 14.67 58.406 0.032 5.96 6.11 9.94
7/19/2021 9:30:00 PM 14.65 58.37 0.032 5.99 6.05 9.94
7/19/2021 9:45:00 PM 14.62 58.316 0.032 5.98 6.16 9.95
7/19/2021 10:00:00 PM 14.6 58.28 0.032 5.98 6.09 9.95
7/19/2021 10:15:00 PM 14.57 58.226 0.032 6 6.3 9.96
7/19/2021 10:30:00 PM 14.55 58.19 0.032 5.99 6.08 9.97
7/19/2021 10:45:00 PM 14.53 58.154 0.032 5.99 6.65 9.97
7/19/2021 11:00:00 PM 14.5 58.1 0.032 5.99 6.15 9.98
7/19/2021 11:15:00 PM 14.48 58.064 0.032 6 5.89 9.98
7/19/2021 11:30:00 PM 14.46 58.028 0.032 6 5.69 9.99
7/19/2021 11:45:00 PM 14.43 57.974 0.032 6 5.94 9.99
7/20/2021 12:00:00 AM 14.41 57.938 0.032 5.99 5.86 10
7/20/2021 12:15:00 AM 14.38 57.884 0.032 6 5.42 10
7/20/2021 12:30:00 AM 14.36 57.848 0.032 6.01 5.71 10.01
7/20/2021 12:45:00 AM 14.33 57.794 0.032 6 5.26 10.01
7/20/2021 1:00:00 AM 14.31 57.758 0.032 6 5.15 10.01
7/20/2021 1:15:00 AM 14.29 57.722 0.032 6.01 6.17 10.02
7/20/2021 1:30:00 AM 14.27 57.686 0.032 6 5.56 10.03
7/20/2021 1:45:00 AM 14.24 57.632 0.032 6.01 5.87 10.04
7/20/2021 2:00:00 AM 14.23 57.614 0.032 6 5.2 10.04
7/20/2021 2:15:00 AM 14.21 57.578 0.032 6.01 5.44 10.04
7/20/2021 2:30:00 AM 14.19 57.542 0.032 6.01 5.33 10.05
7/20/2021 2:45:00 AM 14.17 57.506 0.032 6.02 5.35 10.05
7/20/2021 3:00:00 AM 14.15 57.47 0.032 6 5.42 10.05
7/20/2021 3:15:00 AM 14.14 57.452 0.032 6 5.48 10.06
7/20/2021 3:30:00 AM 14.12 57.416 0.032 6 5.73 10.05
7/20/2021 3:45:00 AM 14.1 57.38 0.032 6.01 5.18 10.06
7/20/2021 4:00:00 AM 14.09 57.362 0.032 6.02 5.23 10.06
7/20/2021 4:15:00 AM 14.07 57.326 0.032 6 5.73 10.07
7/20/2021 4:30:00 AM 14.06 57.308 0.032 6.01 4.95 10.06
7/20/2021 4:45:00 AM 14.04 57.272 0.032 6.02 5.05 10.06
7/20/2021 5:00:00 AM 14.03 57.254 0.032 6.01 4.84 10.08
7/20/2021 5:15:00 AM 14.01 57.218 0.032 6.02 5 10.06
7/20/2021 5:30:00 AM 13.99 57.182 0.032 6.02 5.19 10.08
7/20/2021 5:45:00 AM 13.98 57.164 0.032 6 5.37 10.08
7/20/2021 6:00:00 AM 13.97 57.146 0.032 6.01 5.39 10.08
7/20/2021 6:15:00 AM 13.95 57.11 0.032 6.01 5.17 10.08
7/20/2021 6:30:00 AM 13.94 57.092 0.032 6.02 5.62 10.1
7/20/2021 6:45:00 AM 13.93 57.074 0.032 6.02 5.11 10.11
7/20/2021 7:00:00 AM 13.91 57.038 0.032 6.02 5.25 10.11
7/20/2021 7:15:00 AM 13.91 57.038 0.032 6.01 5.23 10.12
7/20/2021 7:30:00 AM 13.9 57.02 0.032 6.02 5.12 10.13
7/20/2021 7:45:00 AM 13.9 57.02 0.032 6.04 5.19 10.14
7/20/2021 8:00:00 AM 13.89 57.002 0.032 6.03 5.16 10.14
7/20/2021 8:15:00 AM 13.89 57.002 0.032 6.04 4.91 10.16
7/20/2021 8:30:00 AM 13.9 57.02 0.032 6.05 4.84 10.16
7/20/2021 8:45:00 AM 13.91 57.038 0.032 6.06 4.81 10.17
7/20/2021 9:00:00 AM 13.93 57.074 0.032 6.06 4.8 10.18
7/20/2021 9:15:00 AM 13.94 57.092 0.032 6.06 4.88 10.2
7/20/2021 9:30:00 AM 13.97 57.146 0.032 6.08 4.8 10.2
7/20/2021 9:45:00 AM 13.99 57.182 0.032 6.08 4.85 10.21
7/20/2021 10:00:00 AM 14.03 57.254 0.032 6.08 5.03 10.21
7/20/2021 10:15:00 AM 14.06 57.308 0.032 6.1 5.07 10.2
7/20/2021 10:30:00 AM 14.1 57.38 0.032 6.1 5.11 10.2
7/20/2021 10:45:00 AM 14.14 57.452 0.032 6.11 4.82 10.2
7/20/2021 11:00:00 AM 14.19 57.542 0.032 6.1 4.81 10.19
7/20/2021 11:15:00 AM 14.25 57.65 0.032 6.12 4.68 10.2
7/20/2021 11:30:00 AM 14.31 57.758 0.032 6.12 4.63 10.19
7/20/2021 11:45:00 AM 14.35 57.83 0.032 6.13 5.55 10.17
7/20/2021 12:00:00 PM 14.4 57.92 0.032 6.11 4.73 10.15
7/20/2021 12:15:00 PM 14.48 58.064 0.032 6.12 4.84 10.15
7/20/2021 12:30:00 PM 14.55 58.19 0.032 6.13 4.98 10.14
7/20/2021 12:45:00 PM 14.58 58.244 0.032 6.12 4.94 10.12
7/20/2021 1:00:00 PM 14.66 58.388 0.032 6.13 4.69 10.11
7/20/2021 1:15:00 PM 14.72 58.496 0.032 6.13 4.9 10.09
7/20/2021 1:30:00 PM 14.81 58.658 0.032 6.14 4.74 10.08
7/20/2021 1:45:00 PM 14.91 58.838 0.032 6.14 5.11 10.07
7/20/2021 2:00:00 PM 15.01 59.018 0.032 6.16 4.77 10.05
7/20/2021 2:15:00 PM 15.12 59.216 0.032 6.17 5.02 10.03
7/20/2021 2:30:00 PM 15.21 59.378 0.032 6.17 4.97 10.01
7/20/2021 2:45:00 PM 15.25 59.45 0.032 6.18 4.78 10
7/20/2021 3:00:00 PM 15.28 59.504 0.032 6.17 4.8 9.99
7/20/2021 3:15:00 PM 15.3 59.54 0.032 6.17 5.07 9.97
7/20/2021 3:30:00 PM 15.31 59.558 0.032 6.14 4.95 9.95
7/20/2021 3:45:00 PM 15.35 59.63 0.032 6.15 4.89 9.94
7/20/2021 4:00:00 PM 15.4 59.72 0.032 6.15 4.99 9.92
7/20/2021 4:15:00 PM 15.42 59.756 0.032 6.14 4.93 9.91
7/20/2021 4:30:00 PM 15.45 59.81 0.032 6.14 4.86 9.9
7/20/2021 4:45:00 PM 15.45 59.81 0.032 6.14 4.81 9.89
7/20/2021 5:00:00 PM 15.45 59.81 0.032 6.12 4.88 9.88
7/20/2021 5:15:00 PM 15.45 59.81 0.032 6.12 4.79 9.87
7/20/2021 5:30:00 PM 15.44 59.792 0.032 6.12 5.15 9.86
7/20/2021 5:45:00 PM 15.43 59.774 0.032 6.12 4.9 9.85
7/20/2021 6:00:00 PM 15.41 59.738 0.032 6.11 5.41 9.84
7/20/2021 6:15:00 PM 15.4 59.72 0.032 6.1 5.31 9.83
7/20/2021 6:30:00 PM 15.39 59.702 0.032 6.08 5.16 9.82
7/20/2021 6:45:00 PM 15.38 59.684 0.032 6.07 5.55 9.81
7/20/2021 7:00:00 PM 15.36 59.648 0.032 6.05 5.01 9.8
7/20/2021 7:15:00 PM 15.34 59.612 0.032 6.05 4.93 9.79
7/20/2021 7:30:00 PM 15.32 59.576 0.032 6.04 5.03 9.78
7/20/2021 7:45:00 PM 15.3 59.54 0.032 6.02 4.62 9.76
7/20/2021 8:00:00 PM 15.28 59.504 0.032 6.01 4.77 9.76
7/20/2021 8:15:00 PM 15.26 59.468 0.032 5.99 4.74 9.76
7/20/2021 8:30:00 PM 15.24 59.432 0.032 5.98 5.04 9.75
7/20/2021 8:45:00 PM 15.22 59.396 0.032 5.98 4.84 9.75
7/20/2021 9:00:00 PM 15.2 59.36 0.032 5.97 4.96 9.76
7/20/2021 9:15:00 PM 15.18 59.324 0.032 5.97 5.27 9.75
7/20/2021 9:30:00 PM 15.16 59.288 0.032 5.96 4.81 9.76
7/20/2021 9:45:00 PM 15.15 59.27 0.032 5.96 4.71 9.76
7/20/2021 10:00:00 PM 15.15 59.27 0.032 6 4.66 9.77
7/20/2021 10:15:00 PM 15.14 59.252 0.032 6.04 4.88 9.77
7/20/2021 10:30:00 PM 15.12 59.216 0.032 6.03 4.9 9.78
7/20/2021 10:45:00 PM 15.09 59.162 0.032 6.04 4.83 9.79
7/20/2021 11:00:00 PM 15.07 59.126 0.032 6.04 4.82 9.79
7/20/2021 11:15:00 PM 15.04 59.072 0.032 6.05 4.41 9.8
7/20/2021 11:30:00 PM 15.02 59.036 0.032 6.04 4.75 9.8
7/20/2021 11:45:00 PM 15 59 0.032 6.04 4.87 9.81
7/21/2021 12:00:00 AM 14.97 58.946 0.032 6.05 4.75 9.81
7/21/2021 12:15:00 AM 14.95 58.91 0.032 6.05 4.69 9.82
7/21/2021 12:30:00 AM 14.92 58.856 0.032 6.05 4.36 9.83
7/21/2021 12:45:00 AM 14.9 58.82 0.032 6.05 4.36 9.84
7/21/2021 1:00:00 AM 14.88 58.784 0.032 6.04 4.68 9.84
7/21/2021 1:15:00 AM 14.87 58.766 0.032 6.05 4.66 9.84
7/21/2021 1:30:00 AM 14.85 58.73 0.032 6.04 4.46 9.85
7/21/2021 1:45:00 AM 14.84 58.712 0.032 6.04 4.58 9.85
7/21/2021 2:00:00 AM 14.83 58.694 0.032 6.03 4.79 9.85
7/21/2021 2:15:00 AM 14.81 58.658 0.032 6.04 5.02 9.85
7/21/2021 2:30:00 AM 14.79 58.622 0.032 6.04 4.86 9.86
7/21/2021 2:45:00 AM 14.77 58.586 0.032 6.04 5.01 9.85
7/21/2021 3:00:00 AM 14.75 58.55 0.032 6.04 4.85 9.86
7/21/2021 3:15:00 AM 14.73 58.514 0.032 6.03 6.07 9.86
7/21/2021 3:30:00 AM 14.71 58.478 0.032 6.04 4.88 9.87
7/21/2021 3:45:00 AM 14.69 58.442 0.032 6.05 4.8 9.87
7/21/2021 4:00:00 AM 14.67 58.406 0.032 6.03 5.42 9.88
7/21/2021 4:15:00 AM 14.65 58.37 0.032 6.03 4.62 9.88
7/21/2021 4:30:00 AM 14.63 58.334 0.032 6.03 4.63 9.88
7/21/2021 4:45:00 AM 14.61 58.298 0.032 6.03 4.56 9.89
7/21/2021 5:00:00 AM 14.6 58.28 0.032 6.04 4.44 9.89
7/21/2021 5:15:00 AM 14.59 58.262 0.032 6.04 4.66 9.89
7/21/2021 5:30:00 AM 14.57 58.226 0.032 6.05 4.62 9.9
7/21/2021 5:45:00 AM 14.56 58.208 0.032 6.03 4.79 9.9
7/21/2021 6:00:00 AM 14.55 58.19 0.032 6.04 4.98 9.91
7/21/2021 6:15:00 AM 14.55 58.19 0.032 6.04 4.98 9.91
7/21/2021 6:30:00 AM 14.53 58.154 0.032 6.04 4.87 9.91
7/21/2021 6:45:00 AM 14.52 58.136 0.032 6.05 5.1 9.91
7/21/2021 7:00:00 AM 14.51 58.118 0.032 6.03 4.81 9.91
7/21/2021 7:15:00 AM 14.5 58.1 0.032 6.04 5.2 9.93
7/21/2021 7:30:00 AM 14.5 58.1 0.032 6.04 5.98 9.94
7/21/2021 7:45:00 AM 14.49 58.082 0.032 6.05 5.26 9.97
7/21/2021 8:00:00 AM 14.49 58.082 0.032 6.06 5.33 9.99
7/21/2021 8:15:00 AM 14.49 58.082 0.032 6.07 4.92 10.01
7/21/2021 8:30:00 AM 14.5 58.1 0.032 6.06 4.87 10.01
7/21/2021 8:45:00 AM 14.5 58.1 0.032 6.05 5.04 10
7/21/2021 9:00:00 AM 14.51 58.118 0.032 6.06 4.99 10.01
7/21/2021 9:15:00 AM 14.51 58.118 0.032 6.05 4.85 10.02
7/21/2021 9:30:00 AM 14.54 58.172 0.031 6.06 4.65 10.04
7/21/2021 9:45:00 AM 14.55 58.19 0.031 6.07 4.57 10.05
7/21/2021 10:00:00 AM 14.56 58.208 0.031 6.08 4.65 10.05
7/21/2021 10:15:00 AM 14.58 58.244 0.031 6.09 4.78 10.05
7/21/2021 10:30:00 AM 14.62 58.316 0.031 6.11 4.88 10.06
7/21/2021 10:45:00 AM 14.66 58.388 0.031 6.09 4.83 10.06
7/21/2021 11:00:00 AM 14.71 58.478 0.031 6.11 5.08 10.06
7/21/2021 11:15:00 AM 14.75 58.55 0.031 6.12 5.27 10.05
7/21/2021 11:30:00 AM 14.81 58.658 0.031 6.13 5.16 10.05
7/21/2021 11:45:00 AM 14.85 58.73 0.031 6.12 5.33 10.04
7/21/2021 12:00:00 PM 14.96 58.928 0.03 6.15 5.14 10.04
7/21/2021 12:15:00 PM 14.99 58.982 0.03 6.14 5.11 10.02
7/21/2021 12:30:00 PM 15.06 59.108 0.03 6.16 4.86 10.01
7/21/2021 12:45:00 PM 15.2 59.36 0.03 6.16 5.01 10
7/21/2021 1:00:00 PM 15.27 59.486 0.03 6.18 5.6 10
7/21/2021 1:15:00 PM 15.28 59.504 0.03 6.17 5.52 9.93
7/21/2021 1:30:00 PM 15.25 59.45 0.03 6.15 5.5 9.9
7/21/2021 1:45:00 PM 15.35 59.63 0.03 6.15 5.56 9.93
7/21/2021 2:00:00 PM 15.47 59.846 0.03 6.17 5.36 9.94
7/21/2021 2:15:00 PM 15.55 59.99 0.03 6.19 5.47 9.95
7/21/2021 2:30:00 PM 15.54 59.972 0.03 6.18 5.14 9.92
7/21/2021 2:45:00 PM 15.5 59.9 0.03 6.18 5.19 9.92
7/21/2021 3:00:00 PM 15.6 60.08 0.03 6.19 5.35 9.92
7/21/2021 3:15:00 PM 15.61 60.098 0.03 6.18 4.85 9.91
7/21/2021 3:30:00 PM 15.69 60.242 0.03 6.19 4.83 9.9
7/21/2021 3:45:00 PM 15.71 60.278 0.03 6.18 4.27 9.88
7/21/2021 4:00:00 PM 15.74 60.332 0.03 6.18 4.98 9.87
7/21/2021 4:15:00 PM 15.73 60.314 0.03 6.18 4.44 9.86
7/21/2021 4:30:00 PM 15.75 60.35 0.03 6.16 4.79 9.85
7/21/2021 4:45:00 PM 15.74 60.332 0.03 6.16 5.25 9.84
7/21/2021 5:00:00 PM 15.72 60.296 0.03 6.15 4.61 9.83
7/21/2021 5:15:00 PM 15.67 60.206 0.03 6.14 4.64 9.82
7/21/2021 5:30:00 PM 15.66 60.188 0.03 6.14 4.4 9.82
7/21/2021 5:45:00 PM 15.65 60.17 0.03 6.11 4.6 9.8
7/21/2021 6:00:00 PM 15.62 60.116 0.03 6.12 4.38 9.79
7/21/2021 6:15:00 PM 15.57 60.026 0.03 6.11 4.92 9.78
7/21/2021 6:30:00 PM 15.54 59.972 0.03 6.09 4.64 9.78
7/21/2021 6:45:00 PM 15.53 59.954 0.031 6.09 4.42 9.78
7/21/2021 7:00:00 PM 15.52 59.936 0.031 6.08 4.55 9.77
7/21/2021 7:15:00 PM 15.49 59.882 0.031 6.09 4.4 9.77
7/21/2021 7:30:00 PM 15.46 59.828 0.031 6.07 4.26 9.77
7/21/2021 7:45:00 PM 15.43 59.774 0.031 6.09 4.37 9.77
7/21/2021 8:00:00 PM 15.39 59.702 0.031 6.06 4.4 9.77
7/21/2021 8:15:00 PM 15.35 59.63 0.031 6.07 4.31 9.77
7/21/2021 8:30:00 PM 15.32 59.576 0.031 6.05 4.49 9.77
7/21/2021 8:45:00 PM 15.29 59.522 0.031 6.06 4.35 9.77
7/21/2021 9:00:00 PM 15.25 59.45 0.031 6.06 4.18 9.76
7/21/2021 9:15:00 PM 15.21 59.378 0.031 6.05 4.76 9.78
7/21/2021 9:30:00 PM 15.18 59.324 0.031 6.04 4.39 9.78
7/21/2021 9:45:00 PM 15.14 59.252 0.031 6.05 4.67 9.8
7/21/2021 10:00:00 PM 15.1 59.18 0.031 6.04 4.1 9.8
7/21/2021 10:15:00 PM 15.06 59.108 0.031 6.03 4.6 9.8
7/21/2021 10:30:00 PM 15.01 59.018 0.031 6.04 4.32 9.83
7/21/2021 10:45:00 PM 14.97 58.946 0.031 6.04 4.23 9.84
7/21/2021 11:00:00 PM 14.93 58.874 0.031 6.05 4.18 9.84
7/21/2021 11:15:00 PM 14.88 58.784 0.031 6.05 4.51 9.85
7/21/2021 11:30:00 PM 14.83 58.694 0.031 6.04 4.34 9.86
7/21/2021 11:45:00 PM 14.79 58.622 0.031 6.02 4.23 9.86
7/22/2021 12:00:00 AM 14.73 58.514 0.031 6.05 4.72 9.88
7/22/2021 12:15:00 AM 14.69 58.442 0.031 6.02 4.17 9.89
7/22/2021 12:30:00 AM 14.64 58.352 0.031 6.03 4.32 9.91
7/22/2021 12:45:00 AM 14.59 58.262 0.031 6.02 4.01 9.92
7/22/2021 1:00:00 AM 14.54 58.172 0.031 6.03 4.27 9.92
7/22/2021 1:15:00 AM 14.49 58.082 0.031 6.03 3.93 9.94
7/22/2021 1:30:00 AM 14.44 57.992 0.031 6.01 3.88 9.94
7/22/2021 1:45:00 AM 14.39 57.902 0.031 6.01 4.23 9.96
7/22/2021 2:00:00 AM 14.35 57.83 0.031 6.01 4.27 9.97
7/22/2021 2:15:00 AM 14.31 57.758 0.031 6.01 4.22 9.98
7/22/2021 2:30:00 AM 14.27 57.686 0.031 6.01 3.99 9.98
7/22/2021 2:45:00 AM 14.22 57.596 0.031 6.02 4.03 10
7/22/2021 3:00:00 AM 14.18 57.524 0.031 6.01 3.93 10
7/22/2021 3:15:00 AM 14.14 57.452 0.031 6.01 4.08 10.03
7/22/2021 3:30:00 AM 14.11 57.398 0.031 6.01 3.96 10.02
7/22/2021 3:45:00 AM 14.07 57.326 0.031 6.02 3.8 10.04
7/22/2021 4:00:00 AM 14.03 57.254 0.032 6 4.09 10.03
7/22/2021 4:15:00 AM 13.99 57.182 0.032 6.01 3.87 10.05
7/22/2021 4:30:00 AM 13.96 57.128 0.032 6.02 3.8 10.07
7/22/2021 4:45:00 AM 13.93 57.074 0.032 6 4.04 10.07
7/22/2021 5:00:00 AM 13.89 57.002 0.032 6.01 3.97 10.07
7/22/2021 5:15:00 AM 13.86 56.948 0.032 6.03 3.9 10.09
7/22/2021 5:30:00 AM 13.83 56.894 0.032 6.02 3.78 10.1
7/22/2021 5:45:00 AM 13.79 56.822 0.032 6.03 3.77 10.11
7/22/2021 6:00:00 AM 13.76 56.768 0.032 6.02 4.09 10.11
7/22/2021 6:15:00 AM 13.73 56.714 0.032 6.02 3.87 10.12
7/22/2021 6:30:00 AM 13.71 56.678 0.032 6.01 3.97 10.14
7/22/2021 6:45:00 AM 13.68 56.624 0.032 6.02 3.75 10.15

These are provisional data and have not been subject to a quality assurance process, but rather are the raw data reported by the instrument.
H: value is above sensor operating range
L: value is below sensor operating range
Offline: station is not reporting data
NC: parameter is not collected at site

Data Availability & Limitations

Uncertainty and potential for error can be associated with environmental monitoring data. Provisional data have not been subject to a quality assurance process, but rather are the raw data reported by the instrument. Data users are cautioned to consider carefully the provisional nature of the information before using it for decisions that concern personal or public safety or the conduct of business that involves substantial monetary or operational consequences.

Approved data are currently available by request by emailing: srbc@srbc.net. Approved data have been subject to a quality assurance process to correct for equipment or fouling drift. Data recorded during equipment malfunctions have been removed.

View Historical Stations that have been discontinued.